Darstellungsparameter: Aktuell verwendete Einstellungen:
Skalierung der Graphiken ... ?
xyx+y,   Skalierungsfaktor:      Skalierung: Modus: x, Faktor: 1
Darstellungszeitraum ... ?
Vom - - bis: - -   Zeitraum: 21.11.2014 - 20.05.2015
Min/Max/Avg-Anzeige ... ?
Zeige MMA aktuell
Zeige MMA Monat
Zeige MMA alles
Zeige --A aktuell
Zeige --A Monat
Zeige --A alles
Keine MMA-Anzeige
MMA:
Average (ber die Originaldaten)
MMA-Basis: 21.11.2014 - 20.05.2015
Quicknavigation für Darstellung... ?
Tage:      1T, 2T, 3T, 5T -1T -2T -3T -5T +1T +2T +3T +5T
Wochen: 1W, 2W, 3W -1W -2W -3W +1W +2W +3W
Monate: 1M, 3M, 6M -1M -3M -6M +1M +3M +6M
Jahre:    1J, 3J, 5J, 10J -1J -3J -5J -10J +1J +3J +5J +10J
Nutze für die Darstellung ... ?
Originaldaten oder Mittelwerte auf ...
Stundenbasis Tagesbasis Wochenbasis
Monatsbasis Jahresbasis      Datenbasis: Original-Daten
Darstellen als:
Statistik (Auto) Statistik J:M      Darstellung:
Zur Graphik,    zurück zur Übersicht aller Sensoren.
 
Tabellarische Datenbersicht: ?
 
Sensor: Nr:Datum:Temp:Abs-Feuchte:Windchill:Wind:
Aussen-T/F 1 21-11-2014 00:00:00 6.2 C 6.91 g/m*3 6.2 C 0 km/h
2 21-11-2014 00:05:00 6.2 C 6.91 g/m*3 6.2 C 0 km/h
3 21-11-2014 00:10:00 6.2 C 6.91 g/m*3 6.2 C 0 km/h
4 21-11-2014 00:15:00 6.3 C 6.96 g/m*3 6.3 C 0 km/h
5 21-11-2014 00:20:00 6.3 C 6.96 g/m*3 6.3 C 0 km/h
6 21-11-2014 00:25:00 6.3 C 6.96 g/m*3 6.3 C 0 km/h
7 21-11-2014 00:30:00 6.3 C 6.96 g/m*3 6.3 C 0 km/h
8 21-11-2014 00:35:00 6.2 C 6.91 g/m*3 6.2 C 0 km/h
9 21-11-2014 00:40:00 6.2 C 6.91 g/m*3 6.2 C 0 km/h
10 21-11-2014 00:45:00 6.2 C 6.91 g/m*3 6.2 C 0 km/h
11 21-11-2014 00:50:00 6.2 C 6.84 g/m*3 6.2 C 0 km/h
12 21-11-2014 00:55:00 6.2 C 6.84 g/m*3 6.2 C 0 km/h
13 21-11-2014 01:00:00 6.2 C 6.84 g/m*3 6.2 C 0 km/h
14 21-11-2014 01:05:00 6.2 C 6.84 g/m*3 6.2 C 0 km/h
15 21-11-2014 01:10:00 6.1 C 6.79 g/m*3 6.1 C 0 km/h
16 21-11-2014 01:15:00 6.1 C 6.79 g/m*3 6.1 C 0 km/h
17 21-11-2014 01:20:00 6.1 C 6.79 g/m*3 6.1 C 1.6 km/h
18 21-11-2014 01:25:00 6.1 C 6.87 g/m*3 6.1 C 0 km/h
19 21-11-2014 01:30:00 6.1 C 6.87 g/m*3 6.1 C 0 km/h
20 21-11-2014 01:35:00 6 C 6.82 g/m*3 6 C 0 km/h
21 21-11-2014 01:40:00 6 C 6.82 g/m*3 6 C 1.6 km/h
22 21-11-2014 01:45:00 6 C 6.82 g/m*3 6 C 0 km/h
23 21-11-2014 01:50:00 6 C 6.82 g/m*3 6 C 0 km/h
24 21-11-2014 01:55:00 6 C 6.82 g/m*3 6 C 0 km/h
25 21-11-2014 02:00:00 6 C 6.82 g/m*3 6 C 0 km/h
Sensor: Nr:Datum:Temp:Abs-Feuchte:Windchill:Wind:
Aussen-T/F 26 21-11-2014 02:05:00 6.1 C 6.87 g/m*3 6.1 C 0 km/h
27 21-11-2014 02:10:00 6.1 C 6.87 g/m*3 6.1 C 0 km/h
28 21-11-2014 02:15:00 6.1 C 6.87 g/m*3 6.1 C 0 km/h
29 21-11-2014 02:20:00 6.1 C 6.87 g/m*3 6.1 C 0 km/h
30 21-11-2014 02:25:00 6.1 C 6.87 g/m*3 6.1 C 0 km/h
31 21-11-2014 02:30:00 6.1 C 6.87 g/m*3 6.1 C 0 km/h
32 21-11-2014 02:35:00 6.1 C 6.87 g/m*3 6.1 C 0 km/h
33 21-11-2014 02:40:00 6.1 C 6.87 g/m*3 6.1 C 0 km/h
34 21-11-2014 02:45:00 6 C 6.82 g/m*3 6 C 0 km/h
35 21-11-2014 02:50:00 6 C 6.82 g/m*3 6 C 0 km/h
36 21-11-2014 02:55:00 6 C 6.82 g/m*3 6 C 0 km/h
37 21-11-2014 03:00:00 5.9 C 6.78 g/m*3 5.9 C 0 km/h
38 21-11-2014 03:05:00 5.9 C 6.78 g/m*3 5.9 C 0 km/h
39 21-11-2014 03:10:00 5.9 C 6.78 g/m*3 5.9 C 0 km/h
40 21-11-2014 03:15:00 5.9 C 6.78 g/m*3 5.9 C 0 km/h
41 21-11-2014 03:20:00 5.7 C 6.62 g/m*3 5.7 C 1.6 km/h
42 21-11-2014 03:25:00 5.5 C 6.53 g/m*3 5.5 C 1.6 km/h
43 21-11-2014 03:30:00 5.4 C 6.49 g/m*3 5.4 C 1.6 km/h
44 21-11-2014 03:35:00 5.3 C 6.52 g/m*3 5.3 C 3.2 km/h
45 21-11-2014 03:40:00 5.3 C 6.52 g/m*3 5.3 C 0 km/h
46 21-11-2014 03:45:00 5.3 C 6.52 g/m*3 5.3 C 1.6 km/h
47 21-11-2014 03:50:00 5.3 C 6.58 g/m*3 5.3 C 0 km/h
48 21-11-2014 03:55:00 5.3 C 6.58 g/m*3 5.3 C 0 km/h
49 21-11-2014 04:00:00 5.3 C 6.58 g/m*3 5.3 C 1.6 km/h
50 21-11-2014 04:05:00 5.3 C 6.58 g/m*3 5.3 C 3.2 km/h
Sensor: Nr:Datum:Temp:Abs-Feuchte:Windchill:Wind:
Aussen-T/F 51 21-11-2014 04:10:00 5.2 C 6.47 g/m*3 5.2 C 3.2 km/h
52 21-11-2014 04:15:00 5.1 C 6.43 g/m*3 5.1 C 3.2 km/h
53 21-11-2014 04:20:00 5 C 6.39 g/m*3 5 C 3.2 km/h
54 21-11-2014 04:25:00 4.8 C 6.3 g/m*3 4.8 C 4.8 km/h
55 21-11-2014 04:30:00 4.8 C 6.3 g/m*3 4.8 C 4.8 km/h
56 21-11-2014 04:35:00 4.7 C 6.33 g/m*3 4.7 C 4.8 km/h
57 21-11-2014 04:40:00 4.6 C 6.29 g/m*3 4.6 C 3.2 km/h
58 21-11-2014 04:45:00 4.4 C 6.2 g/m*3 4.4 C 3.2 km/h
59 21-11-2014 04:50:00 4.3 C 6.16 g/m*3 4.3 C 4.8 km/h
60 21-11-2014 04:55:00 4.3 C 6.16 g/m*3 4.3 C 4.8 km/h
61 21-11-2014 05:00:00 4.2 C 6.12 g/m*3 4.2 C 3.2 km/h
62 21-11-2014 05:05:00 4.1 C 6.08 g/m*3 4.1 C 4.8 km/h
63 21-11-2014 05:10:00 4.1 C 6.08 g/m*3 4.1 C 3.2 km/h
64 21-11-2014 05:15:00 4.1 C 6.14 g/m*3 4.1 C 3.2 km/h
65 21-11-2014 05:20:00 4 C 6.1 g/m*3 4 C 3.2 km/h
66 21-11-2014 05:25:00 3.9 C 6.06 g/m*3 3.9 C 4.8 km/h
67 21-11-2014 05:30:00 3.9 C 6.06 g/m*3 3.9 C 4.8 km/h
68 21-11-2014 05:35:00 3.8 C 6.02 g/m*3 3.8 C 4.8 km/h
69 21-11-2014 05:40:00 3.8 C 6.02 g/m*3 3.8 C 3.2 km/h
70 21-11-2014 05:45:00 3.8 C 6.02 g/m*3 3.8 C 3.2 km/h
71 21-11-2014 05:50:00 3.7 C 5.98 g/m*3 3.7 C 3.2 km/h
72 21-11-2014 05:55:00 3.7 C 5.98 g/m*3 3.7 C 1.6 km/h
73 21-11-2014 06:00:00 3.7 C 5.98 g/m*3 3.7 C 4.8 km/h
74 21-11-2014 06:05:00 3.6 C 5.94 g/m*3 3.6 C 3.2 km/h
75 21-11-2014 06:10:00 3.6 C 5.94 g/m*3 3.6 C 3.2 km/h
Sensor: Nr:Datum:Temp:Abs-Feuchte:Windchill:Wind:
Aussen-T/F 76 21-11-2014 06:15:00 3.5 C 5.9 g/m*3 3.5 C 0 km/h
77 21-11-2014 06:20:00 3.4 C 5.92 g/m*3 3.4 C 0 km/h
78 21-11-2014 06:25:00 3.4 C 5.92 g/m*3 3.4 C 1.6 km/h
79 21-11-2014 06:30:00 3.3 C 5.82 g/m*3 3.3 C 0 km/h
80 21-11-2014 06:35:00 3.3 C 5.82 g/m*3 3.3 C 1.6 km/h
81 21-11-2014 06:40:00 3.2 C 5.85 g/m*3 3.2 C 3.2 km/h
82 21-11-2014 06:45:00 3.2 C 5.85 g/m*3 3.2 C 3.2 km/h
83 21-11-2014 06:50:00 3.2 C 5.85 g/m*3 3.2 C 3.2 km/h
84 21-11-2014 06:55:00 3.3 C 5.88 g/m*3 3.3 C 1.6 km/h
85 21-11-2014 07:00:00 3.2 C 5.85 g/m*3 3.2 C 3.2 km/h
86 21-11-2014 07:05:00 3.2 C 5.85 g/m*3 3.2 C 3.2 km/h
87 21-11-2014 07:10:00 3.2 C 5.85 g/m*3 3.2 C 1.6 km/h
88 21-11-2014 07:15:00 3.2 C 5.85 g/m*3 3.2 C 1.6 km/h
89 21-11-2014 07:20:00 3.2 C 5.85 g/m*3 3.2 C 0 km/h
90 21-11-2014 07:25:00 3.1 C 5.81 g/m*3 3.1 C 3.2 km/h
91 21-11-2014 07:30:00 3 C 5.77 g/m*3 3 C 3.2 km/h
92 21-11-2014 07:35:00 3 C 5.77 g/m*3 3 C 3.2 km/h
93 21-11-2014 07:40:00 3 C 5.77 g/m*3 3 C 0 km/h
94 21-11-2014 07:45:00 2.9 C 5.73 g/m*3 2.9 C 3.2 km/h
95 21-11-2014 07:50:00 2.9 C 5.73 g/m*3 2.9 C 3.2 km/h
96 21-11-2014 07:55:00 2.8 C 5.69 g/m*3 2.8 C 1.6 km/h
97 21-11-2014 08:00:00 2.8 C 5.69 g/m*3 2.8 C 3.2 km/h
98 21-11-2014 08:05:00 2.9 C 5.73 g/m*3 2.9 C 0 km/h
99 21-11-2014 08:10:00 2.9 C 5.73 g/m*3 2.9 C 0 km/h
100 21-11-2014 08:15:00 2.8 C 5.69 g/m*3 2.8 C 0 km/h
Sensor: Nr:Datum:Temp:Abs-Feuchte:Windchill:Wind:
Aussen-T/F 101 21-11-2014 08:20:00 2.8 C 5.69 g/m*3 2.8 C 0 km/h
102 21-11-2014 08:25:00 2.8 C 5.69 g/m*3 2.8 C 0 km/h
103 21-11-2014 08:30:00 2.8 C 5.69 g/m*3 2.8 C 0 km/h
104 21-11-2014 08:35:00 2.8 C 5.69 g/m*3 2.8 C 0 km/h
105 21-11-2014 08:40:00 2.8 C 5.69 g/m*3 2.8 C 0 km/h
106 21-11-2014 08:45:00 2.8 C 5.69 g/m*3 2.8 C 0 km/h
107 21-11-2014 08:50:00 2.8 C 5.75 g/m*3 2.8 C 0 km/h
108 21-11-2014 08:55:00 2.8 C 5.69 g/m*3 2.8 C 0 km/h
109 21-11-2014 09:00:00 2.9 C 5.73 g/m*3 2.9 C 0 km/h
110 21-11-2014 09:05:00 2.9 C 5.79 g/m*3 2.9 C 0 km/h
111 21-11-2014 09:10:00 2.9 C 5.73 g/m*3 2.9 C 0 km/h
112 21-11-2014 09:15:00 2.9 C 5.79 g/m*3 2.9 C 0 km/h
113 21-11-2014 09:20:00 3 C 5.83 g/m*3 3 C 0 km/h
114 21-11-2014 09:25:00 3.1 C 5.87 g/m*3 3.1 C 0 km/h
115 21-11-2014 09:30:00 3.1 C 5.87 g/m*3 3.1 C 0 km/h
116 21-11-2014 09:35:00 3.1 C 5.87 g/m*3 3.1 C 0 km/h
117 21-11-2014 09:40:00 3.1 C 5.87 g/m*3 3.1 C 0 km/h
118 21-11-2014 09:45:00 3.2 C 5.91 g/m*3 3.2 C 0 km/h
119 21-11-2014 09:50:00 3.2 C 5.91 g/m*3 3.2 C 0 km/h
120 21-11-2014 09:55:00 3.2 C 5.91 g/m*3 3.2 C 0 km/h
121 21-11-2014 10:00:00 3.3 C 5.95 g/m*3 3.3 C 0 km/h
122 21-11-2014 10:05:00 3.3 C 5.95 g/m*3 3.3 C 3.2 km/h
123 21-11-2014 10:10:00 3.3 C 5.95 g/m*3 3.3 C 3.2 km/h
124 21-11-2014 10:15:00 3.3 C 5.95 g/m*3 3.3 C 4.8 km/h
125 21-11-2014 10:20:00 3.4 C 5.99 g/m*3 3.4 C 0 km/h
Sensor: Nr:Datum:Temp:Abs-Feuchte:Windchill:Wind:
Aussen-T/F 126 21-11-2014 10:25:00 3.5 C 6.03 g/m*3 3.5 C 4.8 km/h
127 21-11-2014 10:30:00 3.6 C 6.07 g/m*3 3.6 C 3.2 km/h
128 21-11-2014 10:35:00 3.7 C 6.11 g/m*3 3.7 C 3.2 km/h
129 21-11-2014 10:40:00 3.7 C 6.11 g/m*3 3.7 C 1.6 km/h
130 21-11-2014 10:45:00 3.8 C 6.15 g/m*3 3.8 C 1.6 km/h
131 21-11-2014 10:50:00 3.9 C 6.19 g/m*3 3.9 C 1.6 km/h
132 21-11-2014 10:55:00 4 C 6.23 g/m*3 4 C 3.2 km/h
133 21-11-2014 11:00:00 4 C 6.23 g/m*3 4 C 1.6 km/h
134 21-11-2014 11:05:00 4.1 C 6.27 g/m*3 4.1 C 3.2 km/h
135 21-11-2014 11:10:00 4.1 C 6.27 g/m*3 4.1 C 3.2 km/h
136 21-11-2014 11:15:00 4.2 C 6.31 g/m*3 4.2 C 4.8 km/h
137 21-11-2014 11:20:00 4.3 C 6.36 g/m*3 4.3 C 3.2 km/h
138 21-11-2014 11:25:00 4.3 C 6.36 g/m*3 4.3 C 3.2 km/h
139 21-11-2014 11:30:00 4.4 C 6.4 g/m*3 4.4 C 1.6 km/h
140 21-11-2014 11:35:00 4.5 C 6.44 g/m*3 4.5 C 3.2 km/h
141 21-11-2014 11:40:00 4.6 C 6.48 g/m*3 4.6 C 3.2 km/h
142 21-11-2014 11:45:00 4.6 C 6.48 g/m*3 4.6 C 4.8 km/h
143 21-11-2014 11:50:00 4.7 C 6.53 g/m*3 4.7 C 4.8 km/h
144 21-11-2014 11:55:00 4.8 C 6.57 g/m*3 4.8 C 3.2 km/h
145 21-11-2014 12:00:00 4.9 C 6.62 g/m*3 4.9 C 3.2 km/h
146 21-11-2014 12:05:00 5 C 6.66 g/m*3 5 C 3.2 km/h
147 21-11-2014 12:10:00 5.1 C 6.7 g/m*3 5.1 C 3.2 km/h
148 21-11-2014 12:15:00 5.2 C 6.75 g/m*3 5.2 C 3.2 km/h
149 21-11-2014 12:20:00 5.3 C 6.79 g/m*3 5.3 C 3.2 km/h
150 21-11-2014 12:25:00 5.4 C 6.84 g/m*3 5.4 C 3.2 km/h
Sensor: Nr:Datum:Temp:Abs-Feuchte:Windchill:Wind:
Aussen-T/F 151 21-11-2014 12:30:00 5.5 C 6.88 g/m*3 5.5 C 1.6 km/h
152 21-11-2014 12:35:00 5.6 C 6.93 g/m*3 5.6 C 1.6 km/h
153 21-11-2014 12:40:00 5.7 C 6.97 g/m*3 5.7 C 3.2 km/h
154 21-11-2014 12:45:00 5.8 C 7.02 g/m*3 5.8 C 1.6 km/h
155 21-11-2014 12:50:00 5.9 C 7.07 g/m*3 5.9 C 3.2 km/h
156 21-11-2014 12:55:00 5.9 C 7.07 g/m*3 5.9 C 3.2 km/h
157 21-11-2014 13:00:00 5.9 C 6.99 g/m*3 5.9 C 3.2 km/h
158 21-11-2014 13:05:00 6 C 7.04 g/m*3 6 C 3.2 km/h
159 21-11-2014 13:10:00 6 C 7.04 g/m*3 6 C 4.8 km/h
160 21-11-2014 13:15:00 6.1 C 7.09 g/m*3 6.1 C 4.8 km/h
161 21-11-2014 13:20:00 6.1 C 7.09 g/m*3 6.1 C 3.2 km/h
162 21-11-2014 13:25:00 6.1 C 7.01 g/m*3 6.1 C 3.2 km/h
163 21-11-2014 13:30:00 6.2 C 7.06 g/m*3 6.2 C 3.2 km/h
164 21-11-2014 13:35:00 6.2 C 7.06 g/m*3 6.2 C 3.2 km/h
165 21-11-2014 13:40:00 6.3 C 7.11 g/m*3 6.3 C 3.2 km/h
166 21-11-2014 13:45:00 6.3 C 7.11 g/m*3 6.3 C 3.2 km/h
167 21-11-2014 13:50:00 6.4 C 7.15 g/m*3 6.4 C 3.2 km/h
168 21-11-2014 13:55:00 6.4 C 7.15 g/m*3 6.4 C 4.8 km/h
169 21-11-2014 14:00:00 6.5 C 7.2 g/m*3 6.5 C 4.8 km/h
170 21-11-2014 14:05:00 6.6 C 7.17 g/m*3 6.6 C 4.8 km/h
171 21-11-2014 14:10:00 6.6 C 7.17 g/m*3 6.6 C 4.8 km/h
172 21-11-2014 14:15:00 6.6 C 7.17 g/m*3 6.6 C 4.8 km/h
173 21-11-2014 14:20:00 6.7 C 7.22 g/m*3 6.7 C 3.2 km/h
174 21-11-2014 14:25:00 6.7 C 7.22 g/m*3 6.7 C 4.8 km/h
175 21-11-2014 14:30:00 6.8 C 7.27 g/m*3 5.67 C 6.4 km/h
Sensor: Nr:Datum:Temp:Abs-Feuchte:Windchill:Wind:
Aussen-T/F 176 21-11-2014 14:35:00 6.8 C 7.27 g/m*3 5.67 C 6.4 km/h
177 21-11-2014 14:40:00 6.8 C 7.27 g/m*3 6.8 C 4.8 km/h
178 21-11-2014 14:45:00 6.8 C 7.27 g/m*3 6.8 C 3.2 km/h
179 21-11-2014 14:50:00 6.8 C 7.27 g/m*3 6.8 C 4.8 km/h
180 21-11-2014 14:55:00 6.8 C 7.27 g/m*3 6.8 C 4.8 km/h
181 21-11-2014 15:00:00 6.8 C 7.27 g/m*3 6.8 C 4.8 km/h
182 21-11-2014 15:05:00 6.8 C 7.27 g/m*3 6.8 C 3.2 km/h
183 21-11-2014 15:10:00 6.8 C 7.27 g/m*3 6.8 C 1.6 km/h
184 21-11-2014 15:15:00 6.8 C 7.19 g/m*3 6.8 C 4.8 km/h
185 21-11-2014 15:20:00 6.8 C 7.27 g/m*3 6.8 C 4.8 km/h
186 21-11-2014 15:25:00 6.7 C 7.14 g/m*3 6.7 C 3.2 km/h
187 21-11-2014 15:30:00 6.7 C 7.14 g/m*3 6.7 C 4.8 km/h
188 21-11-2014 15:35:00 6.6 C 7.17 g/m*3 6.6 C 3.2 km/h
189 21-11-2014 15:40:00 6.6 C 7.17 g/m*3 5.44 C 6.4 km/h
190 21-11-2014 15:45:00 6.6 C 7.17 g/m*3 6.6 C 4.8 km/h
191 21-11-2014 15:50:00 6.7 C 7.22 g/m*3 5.56 C 6.4 km/h
192 21-11-2014 15:55:00 6.8 C 7.27 g/m*3 6.8 C 4.8 km/h
193 21-11-2014 16:00:00 6.9 C 7.31 g/m*3 6.9 C 3.2 km/h
194 21-11-2014 16:05:00 7.1 C 7.41 g/m*3 7.1 C 3.2 km/h
195 21-11-2014 16:10:00 7.2 C 7.46 g/m*3 7.2 C 4.8 km/h
196 21-11-2014 16:15:00 7.2 C 7.46 g/m*3 7.2 C 3.2 km/h
197 21-11-2014 16:20:00 7.3 C 7.51 g/m*3 7.3 C 0 km/h
198 21-11-2014 16:25:00 7.3 C 7.51 g/m*3 7.3 C 3.2 km/h
199 21-11-2014 16:30:00 7.3 C 7.51 g/m*3 7.3 C 3.2 km/h
200 21-11-2014 16:35:00 7.3 C 7.51 g/m*3 7.3 C 1.6 km/h
Sensor: Nr:Datum:Temp:Abs-Feuchte:Windchill:Wind:
Aussen-T/F 201 21-11-2014 16:40:00 7.4 C 7.55 g/m*3 7.4 C 1.6 km/h
202 21-11-2014 16:45:00 7.3 C 7.51 g/m*3 7.3 C 3.2 km/h
203 21-11-2014 16:50:00 7.4 C 7.55 g/m*3 7.4 C 0 km/h
204 21-11-2014 16:55:00 7.4 C 7.55 g/m*3 7.4 C 0 km/h
205 21-11-2014 17:00:00 7.4 C 7.48 g/m*3 7.4 C 0 km/h
206 21-11-2014 17:05:00 7.4 C 7.48 g/m*3 7.4 C 0 km/h
207 21-11-2014 17:10:00 7.4 C 7.48 g/m*3 7.4 C 0 km/h
208 21-11-2014 17:15:00 7.4 C 7.48 g/m*3 7.4 C 0 km/h
209 21-11-2014 17:20:00 7.4 C 7.48 g/m*3 7.4 C 0 km/h
210 21-11-2014 17:25:00 7.4 C 7.48 g/m*3 7.4 C 0 km/h
211 21-11-2014 17:30:00 7.4 C 7.48 g/m*3 7.4 C 1.6 km/h
212 21-11-2014 17:35:00 7.4 C 7.48 g/m*3 7.4 C 3.2 km/h
213 21-11-2014 17:40:00 7.4 C 7.48 g/m*3 7.4 C 1.6 km/h
214 21-11-2014 17:45:00 7.4 C 7.48 g/m*3 7.4 C 1.6 km/h
215 21-11-2014 17:50:00 7.4 C 7.48 g/m*3 7.4 C 1.6 km/h
216 21-11-2014 17:55:00 7.4 C 7.48 g/m*3 7.4 C 0 km/h
217 21-11-2014 18:00:00 7.4 C 7.48 g/m*3 7.4 C 3.2 km/h
218 21-11-2014 18:05:00 7.4 C 7.48 g/m*3 7.4 C 0 km/h
219 21-11-2014 18:10:00 7.4 C 7.4 g/m*3 7.4 C 1.6 km/h
220 21-11-2014 18:15:00 7.4 C 7.4 g/m*3 7.4 C 0 km/h
221 21-11-2014 18:20:00 7.5 C 7.44 g/m*3 7.5 C 0 km/h
222 21-11-2014 18:25:00 7.5 C 7.36 g/m*3 7.5 C 0 km/h
223 21-11-2014 18:30:00 7.6 C 7.41 g/m*3 7.6 C 1.6 km/h
224 21-11-2014 18:35:00 7.6 C 7.33 g/m*3 6.6 C 6.4 km/h
225 21-11-2014 18:40:00 7.6 C 7.25 g/m*3 7.6 C 1.6 km/h
Sensor: Nr:Datum:Temp:Abs-Feuchte:Windchill:Wind:
Aussen-T/F 226 21-11-2014 18:45:00 7.7 C 7.3 g/m*3 7.7 C 1.6 km/h
227 21-11-2014 18:50:00 7.7 C 7.14 g/m*3 7.7 C 3.2 km/h
228 21-11-2014 18:55:00 7.8 C 7.18 g/m*3 7.8 C 4.8 km/h
229 21-11-2014 19:00:00 7.9 C 7.15 g/m*3 7.9 C 3.2 km/h
230 21-11-2014 19:05:00 7.9 C 7.31 g/m*3 7.9 C 0 km/h
231 21-11-2014 19:10:00 7.9 C 7.23 g/m*3 7.9 C 4.8 km/h
232 21-11-2014 19:15:00 7.9 C 7.15 g/m*3 7.9 C 1.6 km/h
233 21-11-2014 19:20:00 7.9 C 7.39 g/m*3 7.9 C 1.6 km/h
234 21-11-2014 19:25:00 7.8 C 7.35 g/m*3 7.8 C 0 km/h
235 21-11-2014 19:30:00 7.8 C 7.43 g/m*3 7.8 C 0 km/h
236 21-11-2014 19:35:00 7.7 C 7.3 g/m*3 7.7 C 0 km/h
237 21-11-2014 19:40:00 7.7 C 7.3 g/m*3 7.7 C 0 km/h
238 21-11-2014 19:45:00 7.7 C 7.38 g/m*3 7.7 C 1.6 km/h
239 21-11-2014 19:50:00 7.6 C 7.33 g/m*3 7.6 C 1.6 km/h
240 21-11-2014 19:55:00 7.4 C 7.16 g/m*3 7.4 C 1.6 km/h
241 21-11-2014 20:00:00 7.2 C 7.14 g/m*3 7.2 C 1.6 km/h
242 21-11-2014 20:05:00 7.1 C 7.1 g/m*3 7.1 C 1.6 km/h
243 21-11-2014 20:10:00 7 C 7.13 g/m*3 7 C 0 km/h
244 21-11-2014 20:15:00 6.8 C 6.96 g/m*3 6.8 C 0 km/h
245 21-11-2014 20:20:00 6.7 C 6.91 g/m*3 6.7 C 1.6 km/h
246 21-11-2014 20:25:00 6.4 C 6.85 g/m*3 6.4 C 4.8 km/h
247 21-11-2014 20:30:00 6.2 C 6.77 g/m*3 6.2 C 3.2 km/h
248 21-11-2014 20:35:00 6 C 6.68 g/m*3 6 C 3.2 km/h
249 21-11-2014 20:40:00 5.8 C 6.66 g/m*3 5.8 C 1.6 km/h
250 21-11-2014 20:45:00 5.7 C 6.62 g/m*3 5.7 C 3.2 km/h
Sensor: Nr:Datum:Temp:Abs-Feuchte:Windchill:Wind:
Aussen-T/F 251 21-11-2014 20:50:00 5.7 C 6.62 g/m*3 5.7 C 3.2 km/h
252 21-11-2014 20:55:00 5.6 C 6.57 g/m*3 5.6 C 4.8 km/h
253 21-11-2014 21:00:00 5.6 C 6.57 g/m*3 5.6 C 3.2 km/h
254 21-11-2014 21:05:00 5.5 C 6.6 g/m*3 5.5 C 3.2 km/h
255 21-11-2014 21:10:00 5.4 C 6.56 g/m*3 5.4 C 1.6 km/h
256 21-11-2014 21:15:00 5.4 C 6.56 g/m*3 5.4 C 4.8 km/h
257 21-11-2014 21:20:00 5.3 C 6.52 g/m*3 5.3 C 4.8 km/h
258 21-11-2014 21:25:00 5.3 C 6.52 g/m*3 5.3 C 4.8 km/h
259 21-11-2014 21:30:00 5.2 C 6.54 g/m*3 5.2 C 3.2 km/h
260 21-11-2014 21:35:00 5.2 C 6.54 g/m*3 5.2 C 3.2 km/h
261 21-11-2014 21:40:00 5.2 C 6.54 g/m*3 5.2 C 3.2 km/h
262 21-11-2014 21:45:00 5.1 C 6.43 g/m*3 5.1 C 1.6 km/h
263 21-11-2014 21:50:00 5.1 C 6.5 g/m*3 5.1 C 3.2 km/h
264 21-11-2014 21:55:00 5 C 6.46 g/m*3 5 C 1.6 km/h
265 21-11-2014 22:00:00 4.9 C 6.41 g/m*3 4.9 C 3.2 km/h
266 21-11-2014 22:05:00 4.9 C 6.41 g/m*3 4.9 C 1.6 km/h
267 21-11-2014 22:10:00 4.8 C 6.37 g/m*3 4.8 C 4.8 km/h
268 21-11-2014 22:15:00 4.8 C 6.37 g/m*3 4.8 C 3.2 km/h
269 21-11-2014 22:20:00 4.8 C 6.37 g/m*3 4.8 C 1.6 km/h
270 21-11-2014 22:25:00 4.8 C 6.37 g/m*3 4.8 C 3.2 km/h
271 21-11-2014 22:30:00 4.8 C 6.44 g/m*3 4.8 C 3.2 km/h
272 21-11-2014 22:35:00 4.8 C 6.44 g/m*3 4.8 C 3.2 km/h
273 21-11-2014 22:40:00 4.8 C 6.44 g/m*3 4.8 C 3.2 km/h
274 21-11-2014 22:45:00 4.7 C 6.33 g/m*3 4.7 C 1.6 km/h
275 21-11-2014 22:50:00 4.6 C 6.29 g/m*3 4.6 C 1.6 km/h
Sensor: Nr:Datum:Temp:Abs-Feuchte:Windchill:Wind:
Aussen-T/F 276 21-11-2014 22:55:00 4.6 C 6.29 g/m*3 4.6 C 3.2 km/h
277 21-11-2014 23:00:00 4.6 C 6.35 g/m*3 4.6 C 1.6 km/h
278 21-11-2014 23:05:00 4.6 C 6.35 g/m*3 4.6 C 3.2 km/h
279 21-11-2014 23:10:00 4.6 C 6.35 g/m*3 4.6 C 1.6 km/h
280 21-11-2014 23:15:00 4.5 C 6.31 g/m*3 4.5 C 0 km/h
281 21-11-2014 23:20:00 4.4 C 6.27 g/m*3 4.4 C 0 km/h
282 21-11-2014 23:25:00 4.4 C 6.27 g/m*3 4.4 C 0 km/h
283 21-11-2014 23:30:00 4.4 C 6.27 g/m*3 4.4 C 1.6 km/h
284 21-11-2014 23:35:00 4.3 C 6.23 g/m*3 4.3 C 0 km/h
285 21-11-2014 23:40:00 4.3 C 6.23 g/m*3 4.3 C 3.2 km/h
286 21-11-2014 23:45:00 4.2 C 6.19 g/m*3 4.2 C 3.2 km/h
287 21-11-2014 23:50:00 4.2 C 6.19 g/m*3 4.2 C 3.2 km/h
288 21-11-2014 23:55:00 4.2 C 6.19 g/m*3 4.2 C 3.2 km/h
289 22-11-2014 00:00:00 4.1 C 6.14 g/m*3 4.1 C 3.2 km/h
290 22-11-2014 00:05:00 4.1 C 6.14 g/m*3 4.1 C 3.2 km/h
291 22-11-2014 00:10:00 4.1 C 6.14 g/m*3 4.1 C 3.2 km/h
292 22-11-2014 00:15:00 4 C 6.1 g/m*3 4 C 3.2 km/h
293 22-11-2014 00:20:00 4 C 6.1 g/m*3 4 C 3.2 km/h
294 22-11-2014 00:25:00 4 C 6.1 g/m*3 4 C 1.6 km/h
295 22-11-2014 00:30:00 4 C 6.1 g/m*3 4 C 0 km/h
296 22-11-2014 00:35:00 3.9 C 6.06 g/m*3 3.9 C 1.6 km/h
297 22-11-2014 00:40:00 3.9 C 6.06 g/m*3 3.9 C 1.6 km/h
298 22-11-2014 00:45:00 3.9 C 6.13 g/m*3 3.9 C 0 km/h
299 22-11-2014 00:50:00 3.9 C 6.13 g/m*3 3.9 C 1.6 km/h
300 22-11-2014 00:55:00 3.9 C 6.13 g/m*3 3.9 C 1.6 km/h
Sensor: Nr:Datum:Temp:Abs-Feuchte:Windchill:Wind:
Aussen-T/F 301 22-11-2014 01:00:00 3.9 C 6.13 g/m*3 3.9 C 1.6 km/h
302 22-11-2014 01:05:00 3.9 C 6.13 g/m*3 3.9 C 0 km/h
303 22-11-2014 01:10:00 3.9 C 6.13 g/m*3 3.9 C 1.6 km/h
304 22-11-2014 01:15:00 3.8 C 6.09 g/m*3 3.8 C 0 km/h
305 22-11-2014 01:20:00 3.8 C 6.09 g/m*3 3.8 C 0 km/h
306 22-11-2014 01:25:00 3.8 C 6.09 g/m*3 3.8 C 1.6 km/h
307 22-11-2014 01:30:00 3.8 C 6.09 g/m*3 3.8 C 0 km/h
308 22-11-2014 01:35:00 3.8 C 6.09 g/m*3 3.8 C 0 km/h
309 22-11-2014 01:40:00 3.8 C 6.09 g/m*3 3.8 C 0 km/h
310 22-11-2014 01:45:00 3.8 C 6.09 g/m*3 3.8 C 1.6 km/h
311 22-11-2014 01:50:00 3.8 C 6.09 g/m*3 3.8 C 1.6 km/h
312 22-11-2014 01:55:00 3.8 C 6.09 g/m*3 3.8 C 0 km/h
313 22-11-2014 02:00:00 3.8 C 6.09 g/m*3 3.8 C 0 km/h
314 22-11-2014 02:05:00 3.7 C 6.04 g/m*3 3.7 C 0 km/h
315 22-11-2014 02:10:00 3.6 C 6 g/m*3 3.6 C 1.6 km/h
316 22-11-2014 02:15:00 3.6 C 6 g/m*3 3.6 C 0 km/h
317 22-11-2014 02:20:00 3.6 C 6 g/m*3 3.6 C 3.2 km/h
318 22-11-2014 02:25:00 3.5 C 5.96 g/m*3 3.5 C 1.6 km/h
319 22-11-2014 02:30:00 3.4 C 5.92 g/m*3 3.4 C 1.6 km/h
320 22-11-2014 02:35:00 3.4 C 5.92 g/m*3 3.4 C 0 km/h
321 22-11-2014 02:40:00 3.4 C 5.92 g/m*3 3.4 C 1.6 km/h
322 22-11-2014 02:45:00 3.3 C 5.88 g/m*3 3.3 C 3.2 km/h
323 22-11-2014 02:50:00 3.3 C 5.88 g/m*3 3.3 C 1.6 km/h
324 22-11-2014 02:55:00 3.3 C 5.88 g/m*3 3.3 C 3.2 km/h
325 22-11-2014 03:00:00 3.3 C 5.88 g/m*3 3.3 C 1.6 km/h
Sensor: Nr:Datum:Temp:Abs-Feuchte:Windchill:Wind:
Aussen-T/F 326 22-11-2014 03:05:00 3.2 C 5.85 g/m*3 3.2 C 0 km/h
327 22-11-2014 03:10:00 3.2 C 5.85 g/m*3 3.2 C 0 km/h
328 22-11-2014 03:15:00 3.2 C 5.85 g/m*3 3.2 C 0 km/h
329 22-11-2014 03:20:00 3.1 C 5.81 g/m*3 3.1 C 0 km/h
330 22-11-2014 03:25:00 3.1 C 5.81 g/m*3 3.1 C 0 km/h
331 22-11-2014 03:30:00 3.1 C 5.81 g/m*3 3.1 C 0 km/h
332 22-11-2014 03:35:00 3.1 C 5.81 g/m*3 3.1 C 0 km/h
333 22-11-2014 03:40:00 3.1 C 5.81 g/m*3 3.1 C 0 km/h
334 22-11-2014 03:45:00 3.1 C 5.81 g/m*3 3.1 C 0 km/h
335 22-11-2014 03:50:00 3.1 C 5.81 g/m*3 3.1 C 0 km/h
336 22-11-2014 03:55:00 3.1 C 5.81 g/m*3 3.1 C 0 km/h
337 22-11-2014 04:00:00 3.1 C 5.81 g/m*3 3.1 C 3.2 km/h
338 22-11-2014 04:05:00 3.1 C 5.81 g/m*3 3.1 C 3.2 km/h
339 22-11-2014 04:10:00 3.1 C 5.81 g/m*3 3.1 C 3.2 km/h
340 22-11-2014 04:15:00 3.1 C 5.87 g/m*3 3.1 C 0 km/h
341 22-11-2014 04:20:00 3.1 C 5.87 g/m*3 3.1 C 1.6 km/h
342 22-11-2014 04:25:00 3 C 5.77 g/m*3 3 C 3.2 km/h
343 22-11-2014 04:30:00 3 C 5.77 g/m*3 3 C 3.2 km/h
344 22-11-2014 04:35:00 3 C 5.77 g/m*3 3 C 1.6 km/h
345 22-11-2014 04:40:00 3 C 5.77 g/m*3 3 C 0 km/h
346 22-11-2014 04:45:00 3 C 5.77 g/m*3 3 C 0 km/h
347 22-11-2014 04:50:00 3.1 C 5.87 g/m*3 3.1 C 0 km/h
348 22-11-2014 04:55:00 3.1 C 5.87 g/m*3 3.1 C 3.2 km/h
349 22-11-2014 05:00:00 3.1 C 5.87 g/m*3 3.1 C 3.2 km/h
350 22-11-2014 05:05:00 3.1 C 5.87 g/m*3 3.1 C 0 km/h
Sensor: Nr:Datum:Temp:Abs-Feuchte:Windchill:Wind:
Aussen-T/F 351 22-11-2014 05:10:00 3.1 C 5.87 g/m*3 3.1 C 0 km/h
352 22-11-2014 05:15:00 3.1 C 5.87 g/m*3 3.1 C 1.6 km/h
353 22-11-2014 05:20:00 3.1 C 5.87 g/m*3 3.1 C 0 km/h
354 22-11-2014 05:25:00 3.1 C 5.87 g/m*3 3.1 C 0 km/h
355 22-11-2014 05:30:00 3.1 C 5.87 g/m*3 3.1 C 0 km/h
356 22-11-2014 05:35:00 3.1 C 5.87 g/m*3 3.1 C 0 km/h
357 22-11-2014 05:40:00 3.1 C 5.87 g/m*3 3.1 C 0 km/h
358 22-11-2014 05:45:00 3.1 C 5.87 g/m*3 3.1 C 0 km/h
359 22-11-2014 05:50:00 3.2 C 5.91 g/m*3 3.2 C 1.6 km/h
360 22-11-2014 05:55:00 3.2 C 5.91 g/m*3 3.2 C 0 km/h
361 22-11-2014 06:00:00 3.2 C 5.91 g/m*3 3.2 C 1.6 km/h
362 22-11-2014 06:05:00 3.3 C 5.95 g/m*3 3.3 C 3.2 km/h
363 22-11-2014 06:10:00 3.3 C 5.95 g/m*3 3.3 C 0 km/h
364 22-11-2014 06:15:00 3.4 C 5.99 g/m*3 3.4 C 0 km/h
365 22-11-2014 06:20:00 3.4 C 5.99 g/m*3 3.4 C 1.6 km/h
366 22-11-2014 06:25:00 3.5 C 6.03 g/m*3 3.5 C 0 km/h
367 22-11-2014 06:30:00 3.6 C 6.07 g/m*3 3.6 C 0 km/h
368 22-11-2014 06:35:00 3.6 C 6.07 g/m*3 3.6 C 0 km/h
369 22-11-2014 06:40:00 3.6 C 6.07 g/m*3 3.6 C 0 km/h
370 22-11-2014 06:45:00 3.6 C 6.07 g/m*3 3.6 C 0 km/h
371 22-11-2014 06:50:00 3.6 C 6.07 g/m*3 3.6 C 0 km/h
372 22-11-2014 06:55:00 3.6 C 6.07 g/m*3 3.6 C 0 km/h
373 22-11-2014 07:00:00 3.6 C 6.07 g/m*3 3.6 C 0 km/h
374 22-11-2014 07:05:00 3.6 C 6.07 g/m*3 3.6 C 0 km/h
375 22-11-2014 07:10:00 3.6 C 6.07 g/m*3 3.6 C 0 km/h
Sensor: Nr:Datum:Temp:Abs-Feuchte:Windchill:Wind:
Aussen-T/F 376 22-11-2014 07:15:00 3.5 C 6.03 g/m*3 3.5 C 0 km/h
377 22-11-2014 07:20:00 3.4 C 5.99 g/m*3 3.4 C 1.6 km/h
378 22-11-2014 07:25:00 3.4 C 5.99 g/m*3 3.4 C 0 km/h
379 22-11-2014 07:30:00 3.4 C 5.99 g/m*3 3.4 C 0 km/h
380 22-11-2014 07:35:00 3.4 C 5.99 g/m*3 3.4 C 0 km/h
381 22-11-2014 07:40:00 3.4 C 5.99 g/m*3 3.4 C 0 km/h
382 22-11-2014 07:45:00 3.4 C 5.99 g/m*3 3.4 C 0 km/h
383 22-11-2014 07:50:00 3.4 C 5.99 g/m*3 3.4 C 1.6 km/h
384 22-11-2014 07:55:00 3.6 C 6.07 g/m*3 3.6 C 3.2 km/h
385 22-11-2014 08:00:00 3.7 C 6.11 g/m*3 3.7 C 1.6 km/h
386 22-11-2014 08:05:00 3.8 C 6.15 g/m*3 3.8 C 0 km/h
387 22-11-2014 08:10:00 3.8 C 6.15 g/m*3 3.8 C 0 km/h
388 22-11-2014 08:15:00 3.9 C 6.19 g/m*3 3.9 C 1.6 km/h
389 22-11-2014 08:20:00 4.1 C 6.27 g/m*3 4.1 C 3.2 km/h
390 22-11-2014 08:25:00 4.2 C 6.31 g/m*3 4.2 C 1.6 km/h
391 22-11-2014 08:30:00 4.3 C 6.36 g/m*3 4.3 C 0 km/h
392 22-11-2014 08:35:00 4.4 C 6.4 g/m*3 4.4 C 0 km/h
393 22-11-2014 08:40:00 4.5 C 6.44 g/m*3 4.5 C 0 km/h
394 22-11-2014 08:45:00 4.6 C 6.48 g/m*3 4.6 C 1.6 km/h
395 22-11-2014 08:50:00 4.7 C 6.53 g/m*3 4.7 C 3.2 km/h
396 22-11-2014 08:55:00 4.8 C 6.57 g/m*3 4.8 C 3.2 km/h
397 22-11-2014 09:00:00 4.8 C 6.57 g/m*3 4.8 C 0 km/h
398 22-11-2014 09:05:00 4.9 C 6.62 g/m*3 4.9 C 3.2 km/h
399 22-11-2014 09:10:00 5.1 C 6.7 g/m*3 5.1 C 3.2 km/h
400 22-11-2014 09:15:00 5.2 C 6.75 g/m*3 5.2 C 4.8 km/h
Sensor: Nr:Datum:Temp:Abs-Feuchte:Windchill:Wind:
Aussen-T/F 401 22-11-2014 09:20:00 5.3 C 6.79 g/m*3 5.3 C 3.2 km/h
402 22-11-2014 09:25:00 5.3 C 6.79 g/m*3 5.3 C 3.2 km/h
403 22-11-2014 09:30:00 5.4 C 6.84 g/m*3 5.4 C 1.6 km/h
404 22-11-2014 09:35:00 5.4 C 6.77 g/m*3 5.4 C 1.6 km/h
405 22-11-2014 09:40:00 5.6 C 6.86 g/m*3 5.6 C 1.6 km/h
406 22-11-2014 09:45:00 5.7 C 6.9 g/m*3 5.7 C 0 km/h
407 22-11-2014 09:50:00 5.8 C 6.95 g/m*3 5.8 C 0 km/h
408 22-11-2014 09:55:00 5.9 C 6.99 g/m*3 5.9 C 0 km/h
409 22-11-2014 10:00:00 6.1 C 7.09 g/m*3 6.1 C 1.6 km/h
410 22-11-2014 10:05:00 6.2 C 7.13 g/m*3 6.2 C 0 km/h
411 22-11-2014 10:10:00 6.3 C 7.18 g/m*3 6.3 C 0 km/h
412 22-11-2014 10:15:00 6.3 C 7.11 g/m*3 6.3 C 1.6 km/h
413 22-11-2014 10:20:00 6.4 C 7.15 g/m*3 6.4 C 0 km/h
414 22-11-2014 10:25:00 6.5 C 7.2 g/m*3 6.5 C 0 km/h
415 22-11-2014 10:30:00 6.6 C 7.25 g/m*3 6.6 C 0 km/h
416 22-11-2014 10:35:00 6.7 C 7.22 g/m*3 6.7 C 0 km/h
417 22-11-2014 10:40:00 6.8 C 7.27 g/m*3 6.8 C 0 km/h
418 22-11-2014 10:45:00 6.8 C 7.27 g/m*3 6.8 C 0 km/h
419 22-11-2014 10:50:00 6.8 C 7.19 g/m*3 6.8 C 0 km/h
420 22-11-2014 10:55:00 6.8 C 7.11 g/m*3 6.8 C 0 km/h
421 22-11-2014 11:00:00 6.9 C 7.24 g/m*3 6.9 C 0 km/h
422 22-11-2014 11:05:00 6.9 C 7.24 g/m*3 6.9 C 0 km/h
423 22-11-2014 11:10:00 6.9 C 7.24 g/m*3 6.9 C 0 km/h
424 22-11-2014 11:15:00 6.9 C 7.24 g/m*3 6.9 C 1.6 km/h
425 22-11-2014 11:20:00 6.9 C 7.31 g/m*3 6.9 C 0 km/h
Sensor: Nr:Datum:Temp:Abs-Feuchte:Windchill:Wind:
Aussen-T/F 426 22-11-2014 11:25:00 6.9 C 7.31 g/m*3 6.9 C 0 km/h
427 22-11-2014 11:30:00 6.9 C 7.31 g/m*3 6.9 C 0 km/h
428 22-11-2014 11:35:00 7 C 7.36 g/m*3 7 C 0 km/h
429 22-11-2014 11:40:00 7 C 7.36 g/m*3 7 C 3.2 km/h
430 22-11-2014 11:45:00 7 C 7.36 g/m*3 7 C 3.2 km/h
431 22-11-2014 11:50:00 7.1 C 7.49 g/m*3 7.1 C 4.8 km/h
432 22-11-2014 11:55:00 7.2 C 7.54 g/m*3 7.2 C 1.6 km/h
433 22-11-2014 12:00:00 7.2 C 7.54 g/m*3 7.2 C 3.2 km/h
434 22-11-2014 12:05:00 7.3 C 7.58 g/m*3 7.3 C 1.6 km/h
435 22-11-2014 12:10:00 7.4 C 7.63 g/m*3 7.4 C 1.6 km/h
436 22-11-2014 12:15:00 7.4 C 7.63 g/m*3 7.4 C 4.8 km/h
437 22-11-2014 12:20:00 7.6 C 7.73 g/m*3 7.6 C 3.2 km/h
438 22-11-2014 12:25:00 7.7 C 7.78 g/m*3 7.7 C 3.2 km/h
439 22-11-2014 12:30:00 7.7 C 7.78 g/m*3 7.7 C 0 km/h
440 22-11-2014 12:35:00 7.8 C 7.83 g/m*3 7.8 C 1.6 km/h
441 22-11-2014 12:40:00 7.9 C 7.89 g/m*3 7.9 C 3.2 km/h
442 22-11-2014 12:45:00 7.9 C 7.89 g/m*3 7.9 C 0 km/h
443 22-11-2014 12:50:00 8.1 C 7.99 g/m*3 8.1 C 0 km/h
444 22-11-2014 12:55:00 8.2 C 8.04 g/m*3 8.2 C 3.2 km/h
445 22-11-2014 13:00:00 8.3 C 8.09 g/m*3 8.3 C 1.6 km/h
446 22-11-2014 13:05:00 8.4 C 8.14 g/m*3 8.4 C 1.6 km/h
447 22-11-2014 13:10:00 8.5 C 8.11 g/m*3 8.5 C 1.6 km/h
448 22-11-2014 13:15:00 8.7 C 8.22 g/m*3 8.7 C 0 km/h
449 22-11-2014 13:20:00 8.8 C 8.27 g/m*3 8.8 C 1.6 km/h
450 22-11-2014 13:25:00 8.9 C 8.32 g/m*3 8.9 C 1.6 km/h
Sensor: Nr:Datum:Temp:Abs-Feuchte:Windchill:Wind:
Aussen-T/F 451 22-11-2014 13:30:00 9 C 8.38 g/m*3 9 C 1.6 km/h
452 22-11-2014 13:35:00 9.1 C 8.43 g/m*3 9.1 C 1.6 km/h
453 22-11-2014 13:40:00 9.2 C 8.48 g/m*3 9.2 C 1.6 km/h
454 22-11-2014 13:45:00 9.2 C 8.48 g/m*3 9.2 C 1.6 km/h
455 22-11-2014 13:50:00 9.3 C 8.54 g/m*3 9.3 C 1.6 km/h
456 22-11-2014 13:55:00 9.4 C 8.59 g/m*3 9.4 C 1.6 km/h
457 22-11-2014 14:00:00 9.6 C 8.7 g/m*3 9.6 C 0 km/h
458 22-11-2014 14:05:00 9.7 C 8.67 g/m*3 9.7 C 3.2 km/h
459 22-11-2014 14:10:00 9.9 C 8.68 g/m*3 9.9 C 0 km/h
460 22-11-2014 14:15:00 10.1 C 8.7 g/m*3 10.1 C 0 km/h
461 22-11-2014 14:20:00 10.3 C 8.71 g/m*3 10.3 C 3.2 km/h
462 22-11-2014 14:25:00 10.5 C 8.73 g/m*3 10.5 C 1.6 km/h
463 22-11-2014 14:30:00 10.7 C 8.74 g/m*3 10.7 C 0 km/h
464 22-11-2014 14:35:00 10.8 C 8.7 g/m*3 10.8 C 1.6 km/h
465 22-11-2014 14:40:00 10.9 C 8.75 g/m*3 10.9 C 0 km/h
466 22-11-2014 14:45:00 11 C 8.91 g/m*3 11 C 0 km/h
467 22-11-2014 14:50:00 10.9 C 8.85 g/m*3 10.9 C 1.6 km/h
468 22-11-2014 14:55:00 10.9 C 8.95 g/m*3 10.9 C 1.6 km/h
469 22-11-2014 15:00:00 10.8 C 8.9 g/m*3 10.8 C 0 km/h
470 22-11-2014 15:05:00 10.7 C 8.94 g/m*3 10.7 C 0 km/h
471 22-11-2014 15:10:00 10.6 C 8.78 g/m*3 10.6 C 3.2 km/h
472 22-11-2014 15:15:00 10.5 C 8.73 g/m*3 10.5 C 3.2 km/h
473 22-11-2014 15:20:00 10.3 C 8.62 g/m*3 10.3 C 3.2 km/h
474 22-11-2014 15:25:00 10.3 C 8.52 g/m*3 10.3 C 1.6 km/h
475 22-11-2014 15:30:00 10.2 C 8.37 g/m*3 10.2 C 1.6 km/h
Sensor: Nr:Datum:Temp:Abs-Feuchte:Windchill:Wind:
Aussen-T/F 476 22-11-2014 15:35:00 10.1 C 8.32 g/m*3 10.1 C 1.6 km/h
477 22-11-2014 15:40:00 10.1 C 8.32 g/m*3 10.1 C 1.6 km/h
478 22-11-2014 15:45:00 9.9 C 8.22 g/m*3 9.9 C 4.8 km/h
479 22-11-2014 15:50:00 9.9 C 8.22 g/m*3 9.25 C 6.4 km/h
480 22-11-2014 15:55:00 9.7 C 8.11 g/m*3 9.7 C 3.2 km/h
481 22-11-2014 16:00:00 9.6 C 8.06 g/m*3 8.91 C 6.4 km/h
482 22-11-2014 16:05:00 9.3 C 8 g/m*3 8.16 C 8.1 km/h
483 22-11-2014 16:10:00 9.2 C 8.04 g/m*3 9.2 C 4.8 km/h
484 22-11-2014 16:15:00 9.1 C 7.99 g/m*3 9.1 C 3.2 km/h
485 22-11-2014 16:20:00 9 C 7.93 g/m*3 9 C 1.6 km/h
486 22-11-2014 16:25:00 8.9 C 7.97 g/m*3 8.9 C 3.2 km/h
487 22-11-2014 16:30:00 8.8 C 7.92 g/m*3 8.8 C 1.6 km/h
488 22-11-2014 16:35:00 8.7 C 7.87 g/m*3 8.7 C 3.2 km/h
489 22-11-2014 16:40:00 8.5 C 7.85 g/m*3 8.5 C 1.6 km/h
490 22-11-2014 16:45:00 8.3 C 7.75 g/m*3 8.3 C 4.8 km/h
491 22-11-2014 16:50:00 8.2 C 7.79 g/m*3 8.2 C 0 km/h
492 22-11-2014 16:55:00 8 C 7.69 g/m*3 8 C 1.6 km/h
493 22-11-2014 17:00:00 7.8 C 7.59 g/m*3 7.8 C 3.2 km/h
494 22-11-2014 17:05:00 7.8 C 7.67 g/m*3 7.8 C 4.8 km/h
495 22-11-2014 17:10:00 7.7 C 7.62 g/m*3 7.7 C 0 km/h
496 22-11-2014 17:15:00 7.5 C 7.52 g/m*3 7.5 C 3.2 km/h
497 22-11-2014 17:20:00 7.4 C 7.48 g/m*3 7.4 C 1.6 km/h
498 22-11-2014 17:25:00 7.3 C 7.51 g/m*3 7.3 C 1.6 km/h
499 22-11-2014 17:30:00 7.3 C 7.51 g/m*3 7.3 C 3.2 km/h
500 22-11-2014 17:35:00 7.3 C 7.51 g/m*3 7.3 C 3.2 km/h
Sensor: Nr:Datum:Temp:Abs-Feuchte:Windchill:Wind:
Aussen-T/F 501 22-11-2014 17:40:00 7.2 C 7.46 g/m*3 7.2 C 1.6 km/h
502 22-11-2014 17:45:00 7.2 C 7.46 g/m*3 7.2 C 0 km/h
503 22-11-2014 17:50:00 7.3 C 7.51 g/m*3 7.3 C 1.6 km/h
504 22-11-2014 17:55:00 7.2 C 7.46 g/m*3 7.2 C 1.6 km/h
505 22-11-2014 18:00:00 7.2 C 7.46 g/m*3 7.2 C 1.6 km/h
506 22-11-2014 18:05:00 7.2 C 7.46 g/m*3 7.2 C 0 km/h
507 22-11-2014 18:10:00 7.1 C 7.41 g/m*3 7.1 C 3.2 km/h
508 22-11-2014 18:15:00 7.1 C 7.41 g/m*3 7.1 C 1.6 km/h
509 22-11-2014 18:20:00 7.1 C 7.41 g/m*3 5.58 C 8.1 km/h
510 22-11-2014 18:25:00 7.4 C 7.63 g/m*3 6.37 C 6.4 km/h
511 22-11-2014 18:30:00 7.6 C 7.65 g/m*3 7.6 C 4.8 km/h
512 22-11-2014 18:35:00 7.6 C 7.57 g/m*3 7.6 C 3.2 km/h
513 22-11-2014 18:40:00 7.5 C 7.52 g/m*3 7.5 C 0 km/h
514 22-11-2014 18:45:00 7.3 C 7.43 g/m*3 7.3 C 0 km/h
515 22-11-2014 18:50:00 7.1 C 7.33 g/m*3 7.1 C 0 km/h
516 22-11-2014 18:55:00 7 C 7.28 g/m*3 7 C 3.2 km/h
517 22-11-2014 19:00:00 6.9 C 7.31 g/m*3 6.9 C 3.2 km/h
518 22-11-2014 19:05:00 6.9 C 7.31 g/m*3 6.9 C 1.6 km/h
519 22-11-2014 19:10:00 6.8 C 7.27 g/m*3 6.8 C 0 km/h
520 22-11-2014 19:15:00 6.7 C 7.22 g/m*3 6.7 C 3.2 km/h
521 22-11-2014 19:20:00 6.7 C 7.22 g/m*3 6.7 C 1.6 km/h
522 22-11-2014 19:25:00 6.7 C 7.22 g/m*3 6.7 C 0 km/h
523 22-11-2014 19:30:00 6.5 C 7.12 g/m*3 6.5 C 1.6 km/h
524 22-11-2014 19:35:00 6.4 C 7.08 g/m*3 6.4 C 1.6 km/h
525 22-11-2014 19:40:00 6.3 C 7.03 g/m*3 6.3 C 1.6 km/h
Sensor: Nr:Datum:Temp:Abs-Feuchte:Windchill:Wind:
Aussen-T/F 526 22-11-2014 19:45:00 6.2 C 7.06 g/m*3 6.2 C 1.6 km/h
527 22-11-2014 19:50:00 6.2 C 7.06 g/m*3 6.2 C 0 km/h
528 22-11-2014 19:55:00 6.1 C 7.01 g/m*3 6.1 C 1.6 km/h
529 22-11-2014 20:00:00 6.1 C 7.01 g/m*3 6.1 C 3.2 km/h
530 22-11-2014 20:05:00 6 C 6.97 g/m*3 6 C 3.2 km/h
531 22-11-2014 20:10:00 6.1 C 7.01 g/m*3 6.1 C 3.2 km/h
532 22-11-2014 20:15:00 6.1 C 7.09 g/m*3 6.1 C 0 km/h
533 22-11-2014 20:20:00 6.1 C 7.01 g/m*3 6.1 C 3.2 km/h
534 22-11-2014 20:25:00 6.1 C 7.01 g/m*3 6.1 C 0 km/h
535 22-11-2014 20:30:00 5.9 C 6.92 g/m*3 5.9 C 0 km/h
536 22-11-2014 20:35:00 5.9 C 6.92 g/m*3 5.9 C 0 km/h
537 22-11-2014 20:40:00 5.9 C 6.92 g/m*3 5.9 C 0 km/h
538 22-11-2014 20:45:00 5.8 C 6.88 g/m*3 5.8 C 1.6 km/h
539 22-11-2014 20:50:00 5.8 C 6.88 g/m*3 5.8 C 0 km/h
540 22-11-2014 20:55:00 5.8 C 6.88 g/m*3 5.8 C 3.2 km/h
541 22-11-2014 21:00:00 5.8 C 6.95 g/m*3 5.8 C 4.8 km/h
542 22-11-2014 21:05:00 5.7 C 6.83 g/m*3 5.7 C 0 km/h
543 22-11-2014 21:10:00 5.7 C 6.83 g/m*3 5.7 C 1.6 km/h
544 22-11-2014 21:15:00 5.6 C 6.79 g/m*3 5.6 C 1.6 km/h
545 22-11-2014 21:20:00 5.6 C 6.79 g/m*3 5.6 C 3.2 km/h
546 22-11-2014 21:25:00 5.5 C 6.81 g/m*3 5.5 C 0 km/h
547 22-11-2014 21:30:00 5.5 C 6.81 g/m*3 5.5 C 3.2 km/h
548 22-11-2014 21:35:00 5.4 C 6.77 g/m*3 5.4 C 3.2 km/h
549 22-11-2014 21:40:00 5.4 C 6.77 g/m*3 5.4 C 3.2 km/h
550 22-11-2014 21:45:00 5.4 C 6.77 g/m*3 5.4 C 3.2 km/h
Sensor: Nr:Datum:Temp:Abs-Feuchte:Windchill:Wind:
Aussen-T/F 551 22-11-2014 21:50:00 5.4 C 6.77 g/m*3 5.4 C 3.2 km/h
552 22-11-2014 21:55:00 5.4 C 6.77 g/m*3 5.4 C 4.8 km/h
553 22-11-2014 22:00:00 5.4 C 6.77 g/m*3 5.4 C 1.6 km/h
554 22-11-2014 22:05:00 5.3 C 6.72 g/m*3 5.3 C 3.2 km/h
555 22-11-2014 22:10:00 5.3 C 6.72 g/m*3 5.3 C 3.2 km/h
556 22-11-2014 22:15:00 5.3 C 6.72 g/m*3 5.3 C 1.6 km/h
557 22-11-2014 22:20:00 5.3 C 6.72 g/m*3 5.3 C 4.8 km/h
558 22-11-2014 22:25:00 5.3 C 6.72 g/m*3 5.3 C 1.6 km/h
559 22-11-2014 22:30:00 5.3 C 6.72 g/m*3 5.3 C 1.6 km/h
560 22-11-2014 22:35:00 5.3 C 6.72 g/m*3 5.3 C 3.2 km/h
561 22-11-2014 22:40:00 5.3 C 6.72 g/m*3 5.3 C 3.2 km/h
562 22-11-2014 22:45:00 5.4 C 6.77 g/m*3 5.4 C 0 km/h
563 22-11-2014 22:50:00 5.3 C 6.72 g/m*3 5.3 C 0 km/h
564 22-11-2014 22:55:00 5.2 C 6.68 g/m*3 5.2 C 0 km/h
565 22-11-2014 23:00:00 5.3 C 6.72 g/m*3 5.3 C 0 km/h
566 22-11-2014 23:05:00 5.2 C 6.68 g/m*3 5.2 C 0 km/h
567 22-11-2014 23:10:00 5.3 C 6.79 g/m*3 5.3 C 0 km/h
568 22-11-2014 23:15:00 5.3 C 6.79 g/m*3 5.3 C 3.2 km/h
569 22-11-2014 23:20:00 5.3 C 6.79 g/m*3 5.3 C 3.2 km/h
570 22-11-2014 23:25:00 5.3 C 6.72 g/m*3 5.3 C 0 km/h
571 22-11-2014 23:30:00 5.3 C 6.79 g/m*3 5.3 C 3.2 km/h
572 22-11-2014 23:35:00 5.3 C 6.79 g/m*3 5.3 C 4.8 km/h
573 22-11-2014 23:40:00 5.3 C 6.79 g/m*3 5.3 C 3.2 km/h
574 22-11-2014 23:45:00 5.3 C 6.79 g/m*3 5.3 C 3.2 km/h
575 22-11-2014 23:50:00 5.3 C 6.79 g/m*3 5.3 C 3.2 km/h
Sensor: Nr:Datum:Temp:Abs-Feuchte:Windchill:Wind:
Aussen-T/F 576 22-11-2014 23:55:00 5.3 C 6.79 g/m*3 5.3 C 3.2 km/h
577 23-11-2014 00:00:00 5.3 C 6.79 g/m*3 5.3 C 3.2 km/h
578 23-11-2014 00:05:00 5.3 C 6.79 g/m*3 5.3 C 0 km/h
579 23-11-2014 00:10:00 5.3 C 6.79 g/m*3 5.3 C 3.2 km/h
580 23-11-2014 00:15:00 5.3 C 6.79 g/m*3 5.3 C 1.6 km/h
581 23-11-2014 00:20:00 5.3 C 6.79 g/m*3 5.3 C 0 km/h
582 23-11-2014 00:25:00 5.2 C 6.68 g/m*3 5.2 C 0 km/h
583 23-11-2014 00:30:00 5.2 C 6.68 g/m*3 5.2 C 0 km/h
584 23-11-2014 00:35:00 5.2 C 6.75 g/m*3 5.2 C 1.6 km/h
585 23-11-2014 00:40:00 5.2 C 6.75 g/m*3 5.2 C 1.6 km/h
586 23-11-2014 00:45:00 5.1 C 6.7 g/m*3 5.1 C 0 km/h
587 23-11-2014 00:50:00 5.1 C 6.7 g/m*3 5.1 C 0 km/h
588 23-11-2014 00:55:00 5 C 6.59 g/m*3 5 C 0 km/h
589 23-11-2014 01:00:00 5 C 6.66 g/m*3 5 C 1.6 km/h
590 23-11-2014 01:05:00 5.1 C 6.7 g/m*3 5.1 C 1.6 km/h
591 23-11-2014 01:10:00 5.1 C 6.7 g/m*3 5.1 C 0 km/h
592 23-11-2014 01:15:00 5.1 C 6.7 g/m*3 5.1 C 0 km/h
593 23-11-2014 01:20:00 5 C 6.66 g/m*3 5 C 0 km/h
594 23-11-2014 01:25:00 5 C 6.66 g/m*3 5 C 0 km/h
595 23-11-2014 01:30:00 4.9 C 6.62 g/m*3 4.9 C 0 km/h
596 23-11-2014 01:35:00 4.9 C 6.62 g/m*3 4.9 C 0 km/h
597 23-11-2014 01:40:00 4.9 C 6.62 g/m*3 4.9 C 1.6 km/h
598 23-11-2014 01:45:00 4.9 C 6.62 g/m*3 4.9 C 0 km/h
599 23-11-2014 01:50:00 4.9 C 6.62 g/m*3 4.9 C 0 km/h
600 23-11-2014 01:55:00 4.9 C 6.62 g/m*3 4.9 C 0 km/h
Sensor: Nr:Datum:Temp:Abs-Feuchte:Windchill:Wind:
Aussen-T/F 601 23-11-2014 02:00:00 4.9 C 6.62 g/m*3 4.9 C 0 km/h
602 23-11-2014 02:05:00 4.8 C 6.57 g/m*3 4.8 C 0 km/h
603 23-11-2014 02:10:00 4.9 C 6.62 g/m*3 4.9 C 0 km/h
604 23-11-2014 02:15:00 4.9 C 6.62 g/m*3 4.9 C 0 km/h
605 23-11-2014 02:20:00 4.9 C 6.62 g/m*3 4.9 C 0 km/h
606 23-11-2014 02:25:00 4.9 C 6.62 g/m*3 4.9 C 0 km/h
607 23-11-2014 02:30:00 4.8 C 6.57 g/m*3 4.8 C 0 km/h
608 23-11-2014 02:35:00 4.9 C 6.62 g/m*3 4.9 C 0 km/h
609 23-11-2014 02:40:00 4.9 C 6.62 g/m*3 4.9 C 0 km/h
610 23-11-2014 02:45:00 4.9 C 6.62 g/m*3 4.9 C 0 km/h
611 23-11-2014 02:50:00 4.9 C 6.62 g/m*3 4.9 C 0 km/h
612 23-11-2014 02:55:00 4.8 C 6.57 g/m*3 4.8 C 0 km/h
613 23-11-2014 03:00:00 4.8 C 6.57 g/m*3 4.8 C 0 km/h
614 23-11-2014 03:05:00 4.8 C 6.57 g/m*3 4.8 C 0 km/h
615 23-11-2014 03:10:00 4.7 C 6.53 g/m*3 4.7 C 3.2 km/h
616 23-11-2014 03:15:00 4.7 C 6.53 g/m*3 4.7 C 1.6 km/h
617 23-11-2014 03:20:00 4.6 C 6.48 g/m*3 4.6 C 0 km/h
618 23-11-2014 03:25:00 4.6 C 6.48 g/m*3 4.6 C 0 km/h
619 23-11-2014 03:30:00 4.4 C 6.4 g/m*3 4.4 C 0 km/h
620 23-11-2014 03:35:00 4.4 C 6.4 g/m*3 4.4 C 0 km/h
621 23-11-2014 03:40:00 4.4 C 6.4 g/m*3 4.4 C 0 km/h
622 23-11-2014 03:45:00 4.3 C 6.36 g/m*3 4.3 C 0 km/h
623 23-11-2014 03:50:00 4.4 C 6.4 g/m*3 4.4 C 0 km/h
624 23-11-2014 03:55:00 4.3 C 6.36 g/m*3 4.3 C 0 km/h
625 23-11-2014 04:00:00 4.3 C 6.36 g/m*3 4.3 C 0 km/h
Sensor: Nr:Datum:Temp:Abs-Feuchte:Windchill:Wind:
Aussen-T/F 626 23-11-2014 04:05:00 4.3 C 6.36 g/m*3 4.3 C 0 km/h
627 23-11-2014 04:10:00 4.4 C 6.4 g/m*3 4.4 C 0 km/h
628 23-11-2014 04:15:00 4.4 C 6.4 g/m*3 4.4 C 0 km/h
629 23-11-2014 04:20:00 4.4 C 6.4 g/m*3 4.4 C 0 km/h
630 23-11-2014 04:25:00 4.3 C 6.36 g/m*3 4.3 C 0 km/h
631 23-11-2014 04:30:00 4.3 C 6.36 g/m*3 4.3 C 0 km/h
632 23-11-2014 04:35:00 4.3 C 6.36 g/m*3 4.3 C 0 km/h
633 23-11-2014 04:40:00 4.3 C 6.36 g/m*3 4.3 C 0 km/h
634 23-11-2014 04:45:00 4.3 C 6.36 g/m*3 4.3 C 0 km/h
635 23-11-2014 04:50:00 4.3 C 6.36 g/m*3 4.3 C 0 km/h
636 23-11-2014 04:55:00 4.2 C 6.31 g/m*3 4.2 C 0 km/h
637 23-11-2014 05:00:00 4.2 C 6.31 g/m*3 4.2 C 0 km/h
638 23-11-2014 05:05:00 4.3 C 6.36 g/m*3 4.3 C 0 km/h
639 23-11-2014 05:10:00 4.3 C 6.36 g/m*3 4.3 C 0 km/h
640 23-11-2014 05:15:00 4.3 C 6.36 g/m*3 4.3 C 0 km/h
641 23-11-2014 05:20:00 4.3 C 6.36 g/m*3 4.3 C 1.6 km/h
642 23-11-2014 05:25:00 4.3 C 6.36 g/m*3 4.3 C 1.6 km/h
643 23-11-2014 05:30:00 4.4 C 6.4 g/m*3 4.4 C 0 km/h
644 23-11-2014 05:35:00 4.3 C 6.36 g/m*3 4.3 C 0 km/h
645 23-11-2014 05:40:00 4.3 C 6.36 g/m*3 4.3 C 0 km/h
646 23-11-2014 05:45:00 4.4 C 6.4 g/m*3 4.4 C 0 km/h
647 23-11-2014 05:50:00 4.4 C 6.4 g/m*3 4.4 C 1.6 km/h
648 23-11-2014 05:55:00 4.3 C 6.36 g/m*3 4.3 C 0 km/h
649 23-11-2014 06:00:00 4.3 C 6.36 g/m*3 4.3 C 0 km/h
650 23-11-2014 06:05:00 4.3 C 6.36 g/m*3 4.3 C 0 km/h
Sensor: Nr:Datum:Temp:Abs-Feuchte:Windchill:Wind:
Aussen-T/F 651 23-11-2014 06:10:00 4.3 C 6.36 g/m*3 4.3 C 0 km/h
652 23-11-2014 06:15:00 4.4 C 6.4 g/m*3 4.4 C 0 km/h
653 23-11-2014 06:20:00 4.4 C 6.4 g/m*3 4.4 C 0 km/h
654 23-11-2014 06:25:00 4.4 C 6.4 g/m*3 4.4 C 0 km/h
655 23-11-2014 06:30:00 4.5 C 6.44 g/m*3 4.5 C 0 km/h
656 23-11-2014 06:35:00 4.6 C 6.55 g/m*3 4.6 C 0 km/h
657 23-11-2014 06:40:00 4.7 C 6.59 g/m*3 4.7 C 0 km/h
658 23-11-2014 06:45:00 4.7 C 6.59 g/m*3 4.7 C 0 km/h
659 23-11-2014 06:50:00 4.7 C 6.59 g/m*3 4.7 C 0 km/h
660 23-11-2014 06:55:00 4.8 C 6.57 g/m*3 4.8 C 0 km/h
661 23-11-2014 07:00:00 4.9 C 6.62 g/m*3 4.9 C 3.2 km/h
662 23-11-2014 07:05:00 5.1 C 6.77 g/m*3 5.1 C 3.2 km/h
663 23-11-2014 07:10:00 5.2 C 6.82 g/m*3 5.2 C 0 km/h
664 23-11-2014 07:15:00 5.2 C 6.82 g/m*3 5.2 C 3.2 km/h
665 23-11-2014 07:20:00 5.3 C 6.86 g/m*3 5.3 C 0 km/h
666 23-11-2014 07:25:00 5.3 C 6.86 g/m*3 5.3 C 1.6 km/h
667 23-11-2014 07:30:00 5.3 C 6.86 g/m*3 5.3 C 1.6 km/h
668 23-11-2014 07:35:00 5.3 C 6.86 g/m*3 5.3 C 0 km/h
669 23-11-2014 07:40:00 5.3 C 6.86 g/m*3 5.3 C 0 km/h
670 23-11-2014 07:45:00 5.2 C 6.75 g/m*3 5.2 C 0 km/h
671 23-11-2014 07:50:00 5.1 C 6.7 g/m*3 5.1 C 0 km/h
672 23-11-2014 07:55:00 5.1 C 6.7 g/m*3 5.1 C 1.6 km/h
673 23-11-2014 08:00:00 5.2 C 6.75 g/m*3 5.2 C 1.6 km/h
674 23-11-2014 08:05:00 5.2 C 6.75 g/m*3 5.2 C 4.8 km/h
675 23-11-2014 08:10:00 5.3 C 6.86 g/m*3 5.3 C 0 km/h
Sensor: Nr:Datum:Temp:Abs-Feuchte:Windchill:Wind:
Aussen-T/F 676 23-11-2014 08:15:00 5.3 C 6.86 g/m*3 5.3 C 0 km/h
677 23-11-2014 08:20:00 5.3 C 6.86 g/m*3 5.3 C 0 km/h
678 23-11-2014 08:25:00 5.3 C 6.86 g/m*3 5.3 C 0 km/h
679 23-11-2014 08:30:00 5.3 C 6.86 g/m*3 5.3 C 0 km/h
680 23-11-2014 08:35:00 5.4 C 6.91 g/m*3 5.4 C 0 km/h
681 23-11-2014 08:40:00 5.4 C 6.91 g/m*3 5.4 C 0 km/h
682 23-11-2014 08:45:00 5.4 C 6.91 g/m*3 5.4 C 0 km/h
683 23-11-2014 08:50:00 5.4 C 6.91 g/m*3 5.4 C 0 km/h
684 23-11-2014 08:55:00 5.4 C 6.91 g/m*3 5.4 C 1.6 km/h
685 23-11-2014 09:00:00 5.3 C 6.86 g/m*3 5.3 C 0 km/h
686 23-11-2014 09:05:00 5.3 C 6.86 g/m*3 5.3 C 0 km/h
687 23-11-2014 09:10:00 5.3 C 6.86 g/m*3 5.3 C 0 km/h
688 23-11-2014 09:15:00 5.3 C 6.86 g/m*3 5.3 C 0 km/h
689 23-11-2014 09:20:00 5.3 C 6.79 g/m*3 5.3 C 0 km/h
690 23-11-2014 09:25:00 5.5 C 6.95 g/m*3 5.5 C 0 km/h
691 23-11-2014 09:30:00 5.5 C 6.95 g/m*3 5.5 C 1.6 km/h
692 23-11-2014 09:35:00 5.6 C 7 g/m*3 5.6 C 0 km/h
693 23-11-2014 09:40:00 5.8 C 7.09 g/m*3 5.8 C 0 km/h
694 23-11-2014 09:45:00 5.9 C 7.14 g/m*3 5.9 C 0 km/h
695 23-11-2014 09:50:00 6 C 7.19 g/m*3 6 C 0 km/h
696 23-11-2014 09:55:00 6.1 C 7.23 g/m*3 6.1 C 0 km/h
697 23-11-2014 10:00:00 6.2 C 7.28 g/m*3 6.2 C 1.6 km/h
698 23-11-2014 10:05:00 6.3 C 7.33 g/m*3 6.3 C 3.2 km/h
699 23-11-2014 10:10:00 6.3 C 7.33 g/m*3 6.3 C 1.6 km/h
700 23-11-2014 10:15:00 6.4 C 7.38 g/m*3 6.4 C 0 km/h
Sensor: Nr:Datum:Temp:Abs-Feuchte:Windchill:Wind:
Aussen-T/F 701 23-11-2014 10:20:00 6.4 C 7.38 g/m*3 6.4 C 1.6 km/h
702 23-11-2014 10:25:00 6.4 C 7.38 g/m*3 6.4 C 0 km/h
703 23-11-2014 10:30:00 6.4 C 7.38 g/m*3 6.4 C 0 km/h
704 23-11-2014 10:35:00 6.6 C 7.47 g/m*3 6.6 C 0 km/h
705 23-11-2014 10:40:00 6.6 C 7.47 g/m*3 6.6 C 0 km/h
706 23-11-2014 10:45:00 6.6 C 7.47 g/m*3 6.6 C 1.6 km/h
707 23-11-2014 10:50:00 6.6 C 7.47 g/m*3 6.6 C 0 km/h
708 23-11-2014 10:55:00 6.6 C 7.47 g/m*3 6.6 C 3.2 km/h
709 23-11-2014 11:00:00 6.6 C 7.4 g/m*3 6.6 C 3.2 km/h
710 23-11-2014 11:05:00 6.6 C 7.4 g/m*3 6.6 C 3.2 km/h
711 23-11-2014 11:10:00 6.6 C 7.4 g/m*3 6.6 C 1.6 km/h
712 23-11-2014 11:15:00 6.7 C 7.45 g/m*3 6.7 C 1.6 km/h
713 23-11-2014 11:20:00 6.7 C 7.45 g/m*3 6.7 C 3.2 km/h
714 23-11-2014 11:25:00 6.7 C 7.45 g/m*3 6.7 C 0 km/h
715 23-11-2014 11:30:00 6.7 C 7.45 g/m*3 6.7 C 1.6 km/h
716 23-11-2014 11:35:00 6.7 C 7.45 g/m*3 6.7 C 0 km/h
717 23-11-2014 11:40:00 6.8 C 7.5 g/m*3 6.8 C 3.2 km/h
718 23-11-2014 11:45:00 6.8 C 7.5 g/m*3 6.8 C 0 km/h
719 23-11-2014 11:50:00 6.8 C 7.5 g/m*3 6.8 C 0 km/h
720 23-11-2014 11:55:00 6.9 C 7.54 g/m*3 6.9 C 1.6 km/h
721 23-11-2014 12:00:00 6.9 C 7.54 g/m*3 6.9 C 1.6 km/h
722 23-11-2014 12:05:00 6.9 C 7.54 g/m*3 6.9 C 0 km/h
723 23-11-2014 12:10:00 7 C 7.59 g/m*3 7 C 0 km/h
724 23-11-2014 12:15:00 7.1 C 7.64 g/m*3 7.1 C 0 km/h
725 23-11-2014 12:20:00 7.1 C 7.57 g/m*3 7.1 C 1.6 km/h
Sensor: Nr:Datum:Temp:Abs-Feuchte:Windchill:Wind:
Aussen-T/F 726 23-11-2014 12:25:00 7.2 C 7.61 g/m*3 7.2 C 1.6 km/h
727 23-11-2014 12:30:00 7.2 C 7.69 g/m*3 7.2 C 0 km/h
728 23-11-2014 12:35:00 7.2 C 7.69 g/m*3 7.2 C 3.2 km/h
729 23-11-2014 12:40:00 7.3 C 7.74 g/m*3 7.3 C 0 km/h
730 23-11-2014 12:45:00 7.4 C 7.71 g/m*3 7.4 C 0 km/h
731 23-11-2014 12:50:00 7.4 C 7.71 g/m*3 7.4 C 3.2 km/h
732 23-11-2014 12:55:00 7.5 C 7.76 g/m*3 7.5 C 1.6 km/h
733 23-11-2014 13:00:00 7.6 C 7.81 g/m*3 7.6 C 3.2 km/h
734 23-11-2014 13:05:00 7.7 C 7.87 g/m*3 7.7 C 1.6 km/h
735 23-11-2014 13:10:00 7.8 C 7.83 g/m*3 7.8 C 0 km/h
736 23-11-2014 13:15:00 7.9 C 7.89 g/m*3 7.9 C 3.2 km/h
737 23-11-2014 13:20:00 8 C 7.94 g/m*3 8 C 1.6 km/h
738 23-11-2014 13:25:00 8.1 C 7.99 g/m*3 8.1 C 4.8 km/h
739 23-11-2014 13:30:00 8.2 C 7.96 g/m*3 8.2 C 3.2 km/h
740 23-11-2014 13:35:00 8.3 C 8.01 g/m*3 8.3 C 1.6 km/h
741 23-11-2014 13:40:00 8.3 C 7.92 g/m*3 8.3 C 4.8 km/h
742 23-11-2014 13:45:00 8.3 C 7.92 g/m*3 8.3 C 1.6 km/h
743 23-11-2014 13:50:00 8.4 C 7.97 g/m*3 8.4 C 3.2 km/h
744 23-11-2014 13:55:00 8.4 C 7.89 g/m*3 8.4 C 1.6 km/h
745 23-11-2014 14:00:00 8.4 C 7.89 g/m*3 8.4 C 1.6 km/h
746 23-11-2014 14:05:00 8.4 C 7.97 g/m*3 8.4 C 1.6 km/h
747 23-11-2014 14:10:00 8.3 C 7.84 g/m*3 8.3 C 4.8 km/h
748 23-11-2014 14:15:00 8.3 C 7.92 g/m*3 8.3 C 1.6 km/h
749 23-11-2014 14:20:00 8.3 C 7.92 g/m*3 8.3 C 3.2 km/h
750 23-11-2014 14:25:00 8.4 C 7.97 g/m*3 8.4 C 0 km/h
Sensor: Nr:Datum:Temp:Abs-Feuchte:Windchill:Wind:
Aussen-T/F 751 23-11-2014 14:30:00 8.4 C 7.97 g/m*3 8.4 C 0 km/h
752 23-11-2014 14:35:00 8.4 C 7.97 g/m*3 8.4 C 0 km/h
753 23-11-2014 14:40:00 8.3 C 7.92 g/m*3 8.3 C 0 km/h
754 23-11-2014 14:45:00 8.3 C 7.92 g/m*3 8.3 C 0 km/h
755 23-11-2014 14:50:00 8.3 C 7.92 g/m*3 8.3 C 0 km/h
756 23-11-2014 14:55:00 8.3 C 7.92 g/m*3 8.3 C 1.6 km/h
757 23-11-2014 15:00:00 8.3 C 8.01 g/m*3 8.3 C 0 km/h
758 23-11-2014 15:05:00 8.3 C 8.01 g/m*3 8.3 C 1.6 km/h
759 23-11-2014 15:10:00 8.3 C 8.01 g/m*3 8.3 C 0 km/h
760 23-11-2014 15:15:00 8.3 C 8.01 g/m*3 8.3 C 0 km/h
761 23-11-2014 15:20:00 8.3 C 8.01 g/m*3 8.3 C 3.2 km/h
762 23-11-2014 15:25:00 8.2 C 7.96 g/m*3 8.2 C 3.2 km/h
763 23-11-2014 15:30:00 8.3 C 7.92 g/m*3 8.3 C 1.6 km/h
764 23-11-2014 15:35:00 8.3 C 7.92 g/m*3 8.3 C 0 km/h
765 23-11-2014 15:40:00 8.3 C 7.92 g/m*3 8.3 C 0 km/h
766 23-11-2014 15:45:00 8.2 C 7.87 g/m*3 8.2 C 0 km/h
767 23-11-2014 15:50:00 8.2 C 7.87 g/m*3 8.2 C 0 km/h
768 23-11-2014 15:55:00 8.1 C 7.82 g/m*3 8.1 C 1.6 km/h
769 23-11-2014 16:00:00 8.1 C 7.82 g/m*3 8.1 C 0 km/h
770 23-11-2014 16:05:00 8.1 C 7.82 g/m*3 8.1 C 0 km/h
771 23-11-2014 16:10:00 8 C 7.77 g/m*3 8 C 0 km/h
772 23-11-2014 16:15:00 7.9 C 7.72 g/m*3 7.9 C 0 km/h
773 23-11-2014 16:20:00 7.8 C 7.67 g/m*3 7.8 C 0 km/h
774 23-11-2014 16:25:00 7.6 C 7.57 g/m*3 7.6 C 0 km/h
775 23-11-2014 16:30:00 7.4 C 7.55 g/m*3 7.4 C 3.2 km/h
Sensor: Nr:Datum:Temp:Abs-Feuchte:Windchill:Wind:
Aussen-T/F 776 23-11-2014 16:35:00 7.3 C 7.51 g/m*3 7.3 C 1.6 km/h
777 23-11-2014 16:40:00 7.2 C 7.46 g/m*3 7.2 C 0 km/h
778 23-11-2014 16:45:00 7.2 C 7.46 g/m*3 7.2 C 1.6 km/h
779 23-11-2014 16:50:00 7.1 C 7.41 g/m*3 7.1 C 0 km/h
780 23-11-2014 16:55:00 6.9 C 7.31 g/m*3 6.9 C 0 km/h
781 23-11-2014 17:00:00 6.7 C 7.22 g/m*3 6.7 C 0 km/h
782 23-11-2014 17:05:00 6.7 C 7.22 g/m*3 6.7 C 1.6 km/h
783 23-11-2014 17:10:00 6.6 C 7.25 g/m*3 6.6 C 0 km/h
784 23-11-2014 17:15:00 6.5 C 7.2 g/m*3 6.5 C 1.6 km/h
785 23-11-2014 17:20:00 6.4 C 7.15 g/m*3 6.4 C 1.6 km/h
786 23-11-2014 17:25:00 6.4 C 7.15 g/m*3 6.4 C 0 km/h
787 23-11-2014 17:30:00 6.3 C 7.11 g/m*3 6.3 C 0 km/h
788 23-11-2014 17:35:00 6.3 C 7.11 g/m*3 6.3 C 1.6 km/h
789 23-11-2014 17:40:00 6.3 C 7.11 g/m*3 6.3 C 1.6 km/h
790 23-11-2014 17:45:00 6.4 C 7.15 g/m*3 6.4 C 1.6 km/h
791 23-11-2014 17:50:00 6.4 C 7.23 g/m*3 5.21 C 6.4 km/h
792 23-11-2014 17:55:00 6.8 C 7.42 g/m*3 4.29 C 12.9 km/h
793 23-11-2014 18:00:00 7.1 C 7.49 g/m*3 5.58 C 8.1 km/h
794 23-11-2014 18:05:00 7.3 C 7.51 g/m*3 5.81 C 8.1 km/h
795 23-11-2014 18:10:00 7.3 C 7.43 g/m*3 7.3 C 3.2 km/h
796 23-11-2014 18:15:00 7.3 C 7.43 g/m*3 6.25 C 6.4 km/h
797 23-11-2014 18:20:00 7.3 C 7.43 g/m*3 7.3 C 4.8 km/h
798 23-11-2014 18:25:00 7.3 C 7.35 g/m*3 7.3 C 4.8 km/h
799 23-11-2014 18:30:00 7.1 C 7.25 g/m*3 7.1 C 1.6 km/h
800 23-11-2014 18:35:00 6.9 C 7.24 g/m*3 6.9 C 4.8 km/h
Sensor: Nr:Datum:Temp:Abs-Feuchte:Windchill:Wind:
Aussen-T/F 801 23-11-2014 18:40:00 6.9 C 7.24 g/m*3 6.9 C 3.2 km/h
802 23-11-2014 18:45:00 6.9 C 7.31 g/m*3 6.9 C 1.6 km/h
803 23-11-2014 18:50:00 6.8 C 7.27 g/m*3 6.8 C 1.6 km/h
804 23-11-2014 18:55:00 6.8 C 7.27 g/m*3 6.8 C 0 km/h
805 23-11-2014 19:00:00 6.7 C 7.22 g/m*3 6.7 C 0 km/h
806 23-11-2014 19:05:00 6.7 C 7.22 g/m*3 6.7 C 1.6 km/h
807 23-11-2014 19:10:00 6.7 C 7.22 g/m*3 6.7 C 0 km/h
808 23-11-2014 19:15:00 6.6 C 7.17 g/m*3 6.6 C 1.6 km/h
809 23-11-2014 19:20:00 6.6 C 7.17 g/m*3 6.6 C 1.6 km/h
810 23-11-2014 19:25:00 6.6 C 7.25 g/m*3 6.6 C 3.2 km/h
811 23-11-2014 19:30:00 6.6 C 7.25 g/m*3 6.6 C 0 km/h
812 23-11-2014 19:35:00 6.7 C 7.29 g/m*3 6.7 C 3.2 km/h
813 23-11-2014 19:40:00 6.8 C 7.34 g/m*3 6.8 C 1.6 km/h
814 23-11-2014 19:45:00 6.9 C 7.39 g/m*3 6.9 C 3.2 km/h
815 23-11-2014 19:50:00 6.9 C 7.39 g/m*3 6.9 C 1.6 km/h
816 23-11-2014 19:55:00 6.9 C 7.47 g/m*3 6.9 C 3.2 km/h
817 23-11-2014 20:00:00 7 C 7.52 g/m*3 7 C 0 km/h
818 23-11-2014 20:05:00 7 C 7.52 g/m*3 7 C 0 km/h
819 23-11-2014 20:10:00 7.1 C 7.57 g/m*3 7.1 C 0 km/h
820 23-11-2014 20:15:00 7.1 C 7.49 g/m*3 7.1 C 0 km/h
821 23-11-2014 20:20:00 7.1 C 7.49 g/m*3 7.1 C 1.6 km/h
822 23-11-2014 20:25:00 7.2 C 7.54 g/m*3 7.2 C 0 km/h
823 23-11-2014 20:30:00 7.2 C 7.54 g/m*3 7.2 C 0 km/h
824 23-11-2014 20:35:00 7.2 C 7.54 g/m*3 7.2 C 0 km/h
825 23-11-2014 20:40:00 7.2 C 7.54 g/m*3 7.2 C 3.2 km/h
Sensor: Nr:Datum:Temp:Abs-Feuchte:Windchill:Wind:
Aussen-T/F 826 23-11-2014 20:45:00 7.2 C 7.54 g/m*3 7.2 C 1.6 km/h
827 23-11-2014 20:50:00 7.2 C 7.54 g/m*3 7.2 C 0 km/h
828 23-11-2014 20:55:00 7.2 C 7.54 g/m*3 7.2 C 0 km/h
829 23-11-2014 21:00:00 7.2 C 7.54 g/m*3 7.2 C 1.6 km/h
830 23-11-2014 21:05:00 7.2 C 7.54 g/m*3 7.2 C 3.2 km/h
831 23-11-2014 21:10:00 7.2 C 7.54 g/m*3 7.2 C 3.2 km/h
832 23-11-2014 21:15:00 7.2 C 7.54 g/m*3 7.2 C 0 km/h
833 23-11-2014 21:20:00 7.2 C 7.54 g/m*3 7.2 C 1.6 km/h
834 23-11-2014 21:25:00 7.3 C 7.58 g/m*3 7.3 C 0 km/h
835 23-11-2014 21:30:00 7.3 C 7.58 g/m*3 7.3 C 1.6 km/h
836 23-11-2014 21:35:00 7.3 C 7.66 g/m*3 7.3 C 0 km/h
837 23-11-2014 21:40:00 7.3 C 7.66 g/m*3 7.3 C 3.2 km/h
838 23-11-2014 21:45:00 7.4 C 7.71 g/m*3 7.4 C 3.2 km/h
839 23-11-2014 21:50:00 7.4 C 7.71 g/m*3 7.4 C 0 km/h
840 23-11-2014 21:55:00 7.4 C 7.71 g/m*3 7.4 C 1.6 km/h
841 23-11-2014 22:00:00 7.4 C 7.71 g/m*3 7.4 C 3.2 km/h
842 23-11-2014 22:05:00 7.4 C 7.71 g/m*3 7.4 C 3.2 km/h
843 23-11-2014 22:10:00 7.5 C 7.76 g/m*3 7.5 C 1.6 km/h
844 23-11-2014 22:15:00 7.5 C 7.76 g/m*3 7.5 C 1.6 km/h
845 23-11-2014 22:20:00 7.5 C 7.76 g/m*3 7.5 C 1.6 km/h
846 23-11-2014 22:25:00 7.5 C 7.76 g/m*3 7.5 C 1.6 km/h
847 23-11-2014 22:30:00 7.5 C 7.76 g/m*3 7.5 C 1.6 km/h
848 23-11-2014 22:35:00 7.5 C 7.76 g/m*3 7.5 C 0 km/h
849 23-11-2014 22:40:00 7.5 C 7.76 g/m*3 7.5 C 0 km/h
850 23-11-2014 22:45:00 7.5 C 7.76 g/m*3 7.5 C 0 km/h
Sensor: Nr:Datum:Temp:Abs-Feuchte:Windchill:Wind:
Aussen-T/F 851 23-11-2014 22:50:00 7.5 C 7.76 g/m*3 7.5 C 0 km/h
852 23-11-2014 22:55:00 7.6 C 7.81 g/m*3 7.6 C 0 km/h
853 23-11-2014 23:00:00 7.6 C 7.81 g/m*3 7.6 C 0 km/h
854 23-11-2014 23:05:00 7.6 C 7.81 g/m*3 7.6 C 0 km/h
855 23-11-2014 23:10:00 7.6 C 7.81 g/m*3 7.6 C 0 km/h
856 23-11-2014 23:15:00 7.6 C 7.81 g/m*3 7.6 C 0 km/h
857 23-11-2014 23:20:00 7.5 C 7.76 g/m*3 7.5 C 0 km/h
858 23-11-2014 23:25:00 7.6 C 7.81 g/m*3 7.6 C 0 km/h
859 23-11-2014 23:30:00 7.6 C 7.81 g/m*3 7.6 C 0 km/h
860 23-11-2014 23:35:00 7.6 C 7.81 g/m*3 7.6 C 1.6 km/h
861 23-11-2014 23:40:00 7.6 C 7.81 g/m*3 7.6 C 3.2 km/h
862 23-11-2014 23:45:00 7.7 C 7.87 g/m*3 7.7 C 1.6 km/h
863 23-11-2014 23:50:00 7.7 C 7.87 g/m*3 7.7 C 0 km/h
864 23-11-2014 23:55:00 7.6 C 7.81 g/m*3 7.6 C 0 km/h
865 24-11-2014 00:00:00 7.6 C 7.81 g/m*3 7.6 C 0 km/h
866 24-11-2014 00:05:00 7.6 C 7.81 g/m*3 7.6 C 0 km/h
867 24-11-2014 00:10:00 7.6 C 7.81 g/m*3 7.6 C 0 km/h
868 24-11-2014 00:15:00 7.6 C 7.81 g/m*3 7.6 C 0 km/h
869 24-11-2014 00:20:00 7.6 C 7.81 g/m*3 7.6 C 0 km/h
870 24-11-2014 00:25:00 7.6 C 7.81 g/m*3 7.6 C 0 km/h
871 24-11-2014 00:30:00 7.6 C 7.81 g/m*3 7.6 C 0 km/h
872 24-11-2014 00:35:00 7.6 C 7.81 g/m*3 7.6 C 0 km/h
873 24-11-2014 00:40:00 7.6 C 7.81 g/m*3 7.6 C 0 km/h
874 24-11-2014 00:45:00 7.6 C 7.81 g/m*3 7.6 C 0 km/h
875 24-11-2014 00:50:00 7.6 C 7.81 g/m*3 7.6 C 0 km/h
Sensor: Nr:Datum:Temp:Abs-Feuchte:Windchill:Wind:
Aussen-T/F 876 24-11-2014 00:55:00 7.6 C 7.81 g/m*3 7.6 C 0 km/h
877 24-11-2014 01:00:00 7.6 C 7.81 g/m*3 7.6 C 0 km/h
878 24-11-2014 01:05:00 7.6 C 7.81 g/m*3 7.6 C 0 km/h
879 24-11-2014 01:10:00 7.6 C 7.81 g/m*3 7.6 C 0 km/h
880 24-11-2014 01:15:00 7.6 C 7.81 g/m*3 7.6 C 0 km/h
881 24-11-2014 01:20:00 7.6 C 7.81 g/m*3 7.6 C 0 km/h
882 24-11-2014 01:25:00 7.7 C 7.87 g/m*3 7.7 C 0 km/h
883 24-11-2014 01:30:00 7.7 C 7.87 g/m*3 7.7 C 0 km/h
884 24-11-2014 01:35:00 7.6 C 7.81 g/m*3 7.6 C 0 km/h
885 24-11-2014 01:40:00 7.6 C 7.81 g/m*3 7.6 C 1.6 km/h
886 24-11-2014 01:45:00 7.6 C 7.81 g/m*3 7.6 C 1.6 km/h
887 24-11-2014 01:50:00 7.7 C 7.87 g/m*3 7.7 C 3.2 km/h
888 24-11-2014 01:55:00 7.7 C 7.87 g/m*3 7.7 C 3.2 km/h
889 24-11-2014 02:00:00 7.8 C 7.92 g/m*3 7.8 C 1.6 km/h
890 24-11-2014 02:05:00 7.8 C 7.92 g/m*3 7.8 C 1.6 km/h
891 24-11-2014 02:10:00 7.9 C 7.97 g/m*3 7.9 C 1.6 km/h
892 24-11-2014 02:15:00 7.9 C 7.97 g/m*3 7.9 C 0 km/h
893 24-11-2014 02:20:00 7.9 C 7.97 g/m*3 7.9 C 0 km/h
894 24-11-2014 02:25:00 7.9 C 7.97 g/m*3 7.9 C 0 km/h
895 24-11-2014 02:30:00 7.9 C 7.97 g/m*3 7.9 C 0 km/h
896 24-11-2014 02:35:00 8 C 8.02 g/m*3 8 C 0 km/h
897 24-11-2014 02:40:00 8 C 8.02 g/m*3 8 C 0 km/h
898 24-11-2014 02:45:00 8 C 8.02 g/m*3 8 C 0 km/h
899 24-11-2014 02:50:00 8.1 C 8.07 g/m*3 8.1 C 0 km/h
900 24-11-2014 02:55:00 8 C 8.02 g/m*3 8 C 0 km/h
Sensor: Nr:Datum:Temp:Abs-Feuchte:Windchill:Wind:
Aussen-T/F 901 24-11-2014 03:00:00 7.9 C 7.97 g/m*3 7.9 C 0 km/h
902 24-11-2014 03:05:00 8 C 8.02 g/m*3 8 C 0 km/h
903 24-11-2014 03:10:00 8 C 8.02 g/m*3 8 C 0 km/h
904 24-11-2014 03:15:00 7.9 C 7.97 g/m*3 7.9 C 0 km/h
905 24-11-2014 03:20:00 7.9 C 7.97 g/m*3 7.9 C 0 km/h
906 24-11-2014 03:25:00 7.9 C 7.97 g/m*3 7.9 C 0 km/h
907 24-11-2014 03:30:00 7.9 C 7.97 g/m*3 7.9 C 0 km/h
908 24-11-2014 03:35:00 7.9 C 7.97 g/m*3 7.9 C 0 km/h
909 24-11-2014 03:40:00 7.9 C 7.97 g/m*3 7.9 C 0 km/h
910 24-11-2014 03:45:00 7.9 C 7.97 g/m*3 7.9 C 0 km/h
911 24-11-2014 03:50:00 7.9 C 7.97 g/m*3 7.9 C 0 km/h
912 24-11-2014 03:55:00 7.8 C 7.92 g/m*3 7.8 C 0 km/h
913 24-11-2014 04:00:00 7.9 C 7.97 g/m*3 7.9 C 0 km/h
914 24-11-2014 04:05:00 7.9 C 7.97 g/m*3 7.9 C 0 km/h
915 24-11-2014 04:10:00 7.9 C 7.97 g/m*3 7.9 C 0 km/h
916 24-11-2014 04:15:00 7.9 C 7.97 g/m*3 7.9 C 0 km/h
917 24-11-2014 04:20:00 7.9 C 7.97 g/m*3 7.9 C 1.6 km/h
918 24-11-2014 04:25:00 7.9 C 7.97 g/m*3 7.9 C 0 km/h
919 24-11-2014 04:30:00 7.9 C 7.97 g/m*3 7.9 C 1.6 km/h
920 24-11-2014 04:35:00 7.9 C 7.97 g/m*3 7.9 C 0 km/h
921 24-11-2014 04:40:00 8 C 8.02 g/m*3 8 C 1.6 km/h
922 24-11-2014 04:45:00 8.1 C 8.07 g/m*3 8.1 C 1.6 km/h
923 24-11-2014 04:50:00 8.1 C 8.07 g/m*3 8.1 C 4.8 km/h
924 24-11-2014 04:55:00 8 C 7.94 g/m*3 8 C 1.6 km/h
925 24-11-2014 05:00:00 8 C 7.94 g/m*3 8 C 0 km/h
Sensor: Nr:Datum:Temp:Abs-Feuchte:Windchill:Wind:
Aussen-T/F 926 24-11-2014 05:05:00 8 C 7.94 g/m*3 8 C 0 km/h
927 24-11-2014 05:10:00 8 C 7.94 g/m*3 8 C 0 km/h
928 24-11-2014 05:15:00 8 C 7.94 g/m*3 8 C 0 km/h
929 24-11-2014 05:20:00 8 C 7.94 g/m*3 8 C 4.8 km/h
930 24-11-2014 05:25:00 8.1 C 7.99 g/m*3 8.1 C 1.6 km/h
931 24-11-2014 05:30:00 8.2 C 8.04 g/m*3 7.29 C 6.4 km/h
932 24-11-2014 05:35:00 8.3 C 8.09 g/m*3 7.41 C 6.4 km/h
933 24-11-2014 05:40:00 8.3 C 8.09 g/m*3 8.3 C 4.8 km/h
934 24-11-2014 05:45:00 8.4 C 8.14 g/m*3 8.4 C 3.2 km/h
935 24-11-2014 05:50:00 8.4 C 8.23 g/m*3 8.4 C 3.2 km/h
936 24-11-2014 05:55:00 8.6 C 8.34 g/m*3 8.6 C 3.2 km/h
937 24-11-2014 06:00:00 8.9 C 8.5 g/m*3 8.9 C 4.8 km/h
938 24-11-2014 06:05:00 9.2 C 8.66 g/m*3 9.2 C 3.2 km/h
939 24-11-2014 06:10:00 9.2 C 8.66 g/m*3 9.2 C 0 km/h
940 24-11-2014 06:15:00 9.3 C 8.72 g/m*3 9.3 C 1.6 km/h
941 24-11-2014 06:20:00 9.3 C 8.72 g/m*3 9.3 C 3.2 km/h
942 24-11-2014 06:25:00 9.3 C 8.72 g/m*3 9.3 C 1.6 km/h
943 24-11-2014 06:30:00 9.4 C 8.77 g/m*3 9.4 C 4.8 km/h
944 24-11-2014 06:35:00 9.5 C 8.83 g/m*3 9.5 C 3.2 km/h
945 24-11-2014 06:40:00 9.5 C 8.83 g/m*3 9.5 C 3.2 km/h
946 24-11-2014 06:45:00 9.6 C 8.89 g/m*3 9.6 C 3.2 km/h
947 24-11-2014 06:50:00 9.6 C 8.89 g/m*3 8.91 C 6.4 km/h
948 24-11-2014 06:55:00 9.6 C 8.89 g/m*3 9.6 C 0 km/h
949 24-11-2014 07:00:00 9.7 C 8.94 g/m*3 9.7 C 1.6 km/h
950 24-11-2014 07:05:00 9.6 C 8.89 g/m*3 9.6 C 0 km/h
Sensor: Nr:Datum:Temp:Abs-Feuchte:Windchill:Wind:
Aussen-T/F 951 24-11-2014 07:10:00 9.6 C 8.89 g/m*3 9.6 C 1.6 km/h
952 24-11-2014 07:15:00 9.7 C 8.94 g/m*3 9.7 C 4.8 km/h
953 24-11-2014 07:20:00 9.7 C 8.94 g/m*3 9.7 C 4.8 km/h
954 24-11-2014 07:25:00 9.8 C 9 g/m*3 9.8 C 4.8 km/h
955 24-11-2014 07:30:00 9.8 C 9 g/m*3 9.8 C 4.8 km/h
956 24-11-2014 07:35:00 9.8 C 8.91 g/m*3 8.45 C 9.7 km/h
957 24-11-2014 07:40:00 9.9 C 8.96 g/m*3 8.87 C 8.1 km/h
958 24-11-2014 07:45:00 9.9 C 8.96 g/m*3 9.9 C 4.8 km/h
959 24-11-2014 07:50:00 9.9 C 8.96 g/m*3 9.9 C 1.6 km/h
960 24-11-2014 07:55:00 9.9 C 8.87 g/m*3 9.25 C 6.4 km/h
961 24-11-2014 08:00:00 9.9 C 8.87 g/m*3 8.56 C 9.7 km/h
962 24-11-2014 08:05:00 9.9 C 8.87 g/m*3 8.56 C 9.7 km/h
963 24-11-2014 08:10:00 9.9 C 8.78 g/m*3 8.3 C 11.3 km/h
964 24-11-2014 08:15:00 9.9 C 8.87 g/m*3 9.9 C 4.8 km/h
965 24-11-2014 08:20:00 9.9 C 8.78 g/m*3 9.9 C 1.6 km/h
966 24-11-2014 08:25:00 9.9 C 8.78 g/m*3 9.9 C 0 km/h
967 24-11-2014 08:30:00 9.8 C 8.81 g/m*3 9.8 C 0 km/h
968 24-11-2014 08:35:00 9.8 C 8.72 g/m*3 8.75 C 8.1 km/h
969 24-11-2014 08:40:00 9.8 C 8.72 g/m*3 9.8 C 4.8 km/h
970 24-11-2014 08:45:00 9.8 C 8.72 g/m*3 8.75 C 8.1 km/h
971 24-11-2014 08:50:00 9.8 C 8.72 g/m*3 9.8 C 4.8 km/h
972 24-11-2014 08:55:00 9.8 C 8.72 g/m*3 9.8 C 4.8 km/h
973 24-11-2014 09:00:00 9.8 C 8.72 g/m*3 9.8 C 4.8 km/h
974 24-11-2014 09:05:00 9.8 C 8.72 g/m*3 9.8 C 1.6 km/h
975 24-11-2014 09:10:00 9.8 C 8.81 g/m*3 9.8 C 4.8 km/h
Sensor: Nr:Datum:Temp:Abs-Feuchte:Windchill:Wind:
Aussen-T/F 976 24-11-2014 09:15:00 9.7 C 8.76 g/m*3 9.7 C 3.2 km/h
977 24-11-2014 09:20:00 9.7 C 8.76 g/m*3 9.7 C 4.8 km/h
978 24-11-2014 09:25:00 9.7 C 8.76 g/m*3 9.7 C 3.2 km/h
979 24-11-2014 09:30:00 9.6 C 8.7 g/m*3 9.6 C 1.6 km/h
980 24-11-2014 09:35:00 9.6 C 8.79 g/m*3 9.6 C 3.2 km/h
981 24-11-2014 09:40:00 9.6 C 8.79 g/m*3 9.6 C 3.2 km/h
982 24-11-2014 09:45:00 9.6 C 8.79 g/m*3 9.6 C 3.2 km/h
983 24-11-2014 09:50:00 9.6 C 8.79 g/m*3 9.6 C 4.8 km/h
984 24-11-2014 09:55:00 9.6 C 8.7 g/m*3 9.6 C 0 km/h
985 24-11-2014 10:00:00 9.7 C 8.76 g/m*3 9.7 C 1.6 km/h
986 24-11-2014 10:05:00 9.7 C 8.76 g/m*3 9.7 C 0 km/h
987 24-11-2014 10:10:00 9.7 C 8.76 g/m*3 9.7 C 1.6 km/h
988 24-11-2014 10:15:00 9.7 C 8.85 g/m*3 9.7 C 0 km/h
989 24-11-2014 10:20:00 9.7 C 8.85 g/m*3 9.7 C 0 km/h
990 24-11-2014 10:25:00 9.7 C 8.85 g/m*3 9.7 C 1.6 km/h
991 24-11-2014 10:30:00 9.7 C 8.76 g/m*3 9.02 C 6.4 km/h
992 24-11-2014 10:35:00 9.7 C 8.76 g/m*3 8.63 C 8.1 km/h
993 24-11-2014 10:40:00 9.7 C 8.76 g/m*3 9.7 C 3.2 km/h
994 24-11-2014 10:45:00 9.7 C 8.67 g/m*3 8.63 C 8.1 km/h
995 24-11-2014 10:50:00 9.7 C 8.67 g/m*3 9.7 C 1.6 km/h
996 24-11-2014 10:55:00 9.8 C 8.72 g/m*3 8.75 C 8.1 km/h
997 24-11-2014 11:00:00 9.8 C 8.72 g/m*3 8.18 C 11.3 km/h
998 24-11-2014 11:05:00 9.8 C 8.72 g/m*3 9.8 C 4.8 km/h
999 24-11-2014 11:10:00 9.8 C 8.72 g/m*3 9.8 C 3.2 km/h
1000 24-11-2014 11:15:00 9.7 C 8.67 g/m*3 9.7 C 4.8 km/h
Sensor: Nr:Datum:Temp:Abs-Feuchte:Windchill:Wind:
Aussen-T/F 1001 24-11-2014 11:20:00 9.7 C 8.57 g/m*3 9.7 C 1.6 km/h
1002 24-11-2014 11:25:00 9.8 C 8.72 g/m*3 9.8 C 0 km/h
1003 24-11-2014 11:30:00 9.8 C 8.72 g/m*3 9.8 C 4.8 km/h
1004 24-11-2014 11:35:00 9.9 C 8.78 g/m*3 9.9 C 0 km/h
1005 24-11-2014 11:40:00 9.9 C 8.68 g/m*3 9.9 C 1.6 km/h
1006 24-11-2014 11:45:00 10 C 8.64 g/m*3 10 C 1.6 km/h
1007 24-11-2014 11:50:00 9.9 C 8.59 g/m*3 9.9 C 0 km/h
1008 24-11-2014 11:55:00 9.9 C 8.68 g/m*3 9.9 C 0 km/h
1009 24-11-2014 12:00:00 9.9 C 8.68 g/m*3 9.9 C 0 km/h
1010 24-11-2014 12:05:00 9.8 C 8.54 g/m*3 9.14 C 6.4 km/h
1011 24-11-2014 12:10:00 9.9 C 8.59 g/m*3 9.9 C 0 km/h
1012 24-11-2014 12:15:00 9.9 C 8.59 g/m*3 9.9 C 3.2 km/h
1013 24-11-2014 12:20:00 10.1 C 8.7 g/m*3 10.1 C 1.6 km/h
1014 24-11-2014 12:25:00 10.1 C 8.61 g/m*3 10.1 C 4.8 km/h
1015 24-11-2014 12:30:00 10.1 C 8.61 g/m*3 9.48 C 6.4 km/h
1016 24-11-2014 12:35:00 10.1 C 8.42 g/m*3 8.8 C 9.7 km/h
1017 24-11-2014 12:40:00 10.1 C 8.32 g/m*3 9.48 C 6.4 km/h
1018 24-11-2014 12:45:00 10.1 C 8.32 g/m*3 10.1 C 1.6 km/h
1019 24-11-2014 12:50:00 10.1 C 8.32 g/m*3 8.8 C 9.7 km/h
1020 24-11-2014 12:55:00 10.1 C 8.13 g/m*3 8.54 C 11.3 km/h
1021 24-11-2014 13:00:00 9.9 C 8.03 g/m*3 9.9 C 4.8 km/h
1022 24-11-2014 13:05:00 9.9 C 8.12 g/m*3 9.25 C 6.4 km/h
1023 24-11-2014 13:10:00 9.8 C 8.07 g/m*3 7.94 C 12.9 km/h
1024 24-11-2014 13:15:00 9.9 C 8.12 g/m*3 8.87 C 8.1 km/h
1025 24-11-2014 13:20:00 9.9 C 8.12 g/m*3 8.56 C 9.7 km/h
Sensor: Nr:Datum:Temp:Abs-Feuchte:Windchill:Wind:
Aussen-T/F 1026 24-11-2014 13:25:00 9.9 C 8.03 g/m*3 8.3 C 11.3 km/h
1027 24-11-2014 13:30:00 9.9 C 7.94 g/m*3 9.9 C 4.8 km/h
1028 24-11-2014 13:35:00 10 C 7.99 g/m*3 10 C 4.8 km/h
1029 24-11-2014 13:40:00 10.1 C 8.13 g/m*3 8.8 C 9.7 km/h
1030 24-11-2014 13:45:00 10.2 C 7.99 g/m*3 8.43 C 12.9 km/h
1031 24-11-2014 13:50:00 10.2 C 7.9 g/m*3 9.22 C 8.1 km/h
1032 24-11-2014 13:55:00 10.2 C 7.9 g/m*3 9.22 C 8.1 km/h
1033 24-11-2014 14:00:00 10.2 C 7.99 g/m*3 9.22 C 8.1 km/h
1034 24-11-2014 14:05:00 10.3 C 7.95 g/m*3 9.04 C 9.7 km/h
1035 24-11-2014 14:10:00 10.4 C 8 g/m*3 9.16 C 9.7 km/h
1036 24-11-2014 14:15:00 10.5 C 8.05 g/m*3 8.4 C 16.1 km/h
1037 24-11-2014 14:20:00 10.5 C 8.05 g/m*3 8.8 C 12.9 km/h
1038 24-11-2014 14:25:00 10.4 C 8 g/m*3 8.9 C 11.3 km/h
1039 24-11-2014 14:30:00 10.3 C 7.85 g/m*3 8.78 C 11.3 km/h
1040 24-11-2014 14:35:00 10.1 C 7.85 g/m*3 8.8 C 9.7 km/h
1041 24-11-2014 14:40:00 10 C 7.71 g/m*3 8.68 C 9.7 km/h
1042 24-11-2014 14:45:00 9.9 C 7.75 g/m*3 9.9 C 4.8 km/h
1043 24-11-2014 14:50:00 9.9 C 7.66 g/m*3 9.9 C 3.2 km/h
1044 24-11-2014 14:55:00 9.9 C 7.66 g/m*3 9.9 C 4.8 km/h
1045 24-11-2014 15:00:00 9.9 C 7.66 g/m*3 9.9 C 1.6 km/h
1046 24-11-2014 15:05:00 9.9 C 7.66 g/m*3 9.9 C 0 km/h
1047 24-11-2014 15:10:00 9.6 C 7.51 g/m*3 8.52 C 8.1 km/h
1048 24-11-2014 15:15:00 9.3 C 7.55 g/m*3 9.3 C 3.2 km/h
1049 24-11-2014 15:20:00 9.3 C 7.55 g/m*3 9.3 C 4.8 km/h
1050 24-11-2014 16:50:00 6.4 C 7 g/m*3 5.21 C 6.4 km/h
Sensor: Nr:Datum:Temp:Abs-Feuchte:Windchill:Wind:
Aussen-T/F 1051 24-11-2014 16:55:00 6.3 C 6.96 g/m*3 6.3 C 4.8 km/h
1052 24-11-2014 17:00:00 6.2 C 6.91 g/m*3 6.2 C 3.2 km/h
1053 24-11-2014 17:05:00 6.2 C 6.91 g/m*3 6.2 C 3.2 km/h
1054 24-11-2014 17:10:00 6 C 6.9 g/m*3 6 C 4.8 km/h
1055 24-11-2014 17:15:00 5.9 C 6.85 g/m*3 5.9 C 4.8 km/h
1056 24-11-2014 17:20:00 5.9 C 6.85 g/m*3 4.63 C 6.4 km/h
1057 24-11-2014 17:25:00 5.9 C 6.85 g/m*3 5.9 C 4.8 km/h
1058 24-11-2014 17:30:00 5.9 C 6.85 g/m*3 5.9 C 1.6 km/h
1059 24-11-2014 17:35:00 5.8 C 6.81 g/m*3 5.8 C 3.2 km/h
1060 24-11-2014 17:40:00 5.6 C 6.72 g/m*3 5.6 C 4.8 km/h
1061 24-11-2014 17:45:00 5.6 C 6.72 g/m*3 5.6 C 3.2 km/h
1062 24-11-2014 17:50:00 5.6 C 6.79 g/m*3 5.6 C 0 km/h
1063 24-11-2014 17:55:00 5.6 C 6.72 g/m*3 5.6 C 3.2 km/h
1064 24-11-2014 18:00:00 5.4 C 6.63 g/m*3 5.4 C 1.6 km/h
1065 24-11-2014 18:05:00 5.3 C 6.58 g/m*3 5.3 C 0 km/h
1066 24-11-2014 18:10:00 5.3 C 6.65 g/m*3 5.3 C 3.2 km/h
1067 24-11-2014 18:15:00 5.3 C 6.65 g/m*3 5.3 C 1.6 km/h
1068 24-11-2014 18:20:00 5.2 C 6.61 g/m*3 5.2 C 0 km/h
1069 24-11-2014 18:25:00 5.1 C 6.57 g/m*3 5.1 C 0 km/h
1070 24-11-2014 18:30:00 5 C 6.52 g/m*3 5 C 1.6 km/h
1071 24-11-2014 18:35:00 4.9 C 6.48 g/m*3 4.9 C 0 km/h
1072 24-11-2014 18:40:00 4.8 C 6.44 g/m*3 4.8 C 0 km/h
1073 24-11-2014 18:45:00 4.8 C 6.44 g/m*3 4.8 C 0 km/h
1074 24-11-2014 18:50:00 4.7 C 6.39 g/m*3 4.7 C 0 km/h
1075 24-11-2014 18:55:00 4.7 C 6.39 g/m*3 4.7 C 0 km/h
Sensor: Nr:Datum:Temp:Abs-Feuchte:Windchill:Wind:
Aussen-T/F 1076 24-11-2014 19:00:00 4.6 C 6.35 g/m*3 4.6 C 0 km/h
1077 24-11-2014 19:05:00 4.6 C 6.35 g/m*3 4.6 C 0 km/h
1078 24-11-2014 19:10:00 4.3 C 6.23 g/m*3 4.3 C 0 km/h
1079 24-11-2014 19:15:00 4.2 C 6.19 g/m*3 4.2 C 0 km/h
1080 24-11-2014 19:20:00 4.2 C 6.19 g/m*3 4.2 C 0 km/h
1081 24-11-2014 19:25:00 4.1 C 6.14 g/m*3 4.1 C 0 km/h
1082 24-11-2014 19:30:00 4.1 C 6.21 g/m*3 4.1 C 0 km/h
1083 24-11-2014 19:35:00 4.1 C 6.21 g/m*3 4.1 C 0 km/h
1084 24-11-2014 19:40:00 4.1 C 6.21 g/m*3 4.1 C 0 km/h
1085 24-11-2014 19:45:00 3.9 C 6.06 g/m*3 3.9 C 0 km/h
1086 24-11-2014 19:50:00 3.9 C 6.13 g/m*3 3.9 C 0 km/h
1087 24-11-2014 19:55:00 3.9 C 6.13 g/m*3 3.9 C 0 km/h
1088 24-11-2014 20:00:00 3.8 C 6.09 g/m*3 3.8 C 0 km/h
1089 24-11-2014 20:05:00 3.8 C 6.09 g/m*3 3.8 C 0 km/h
1090 24-11-2014 20:10:00 3.7 C 6.04 g/m*3 3.7 C 0 km/h
1091 24-11-2014 20:15:00 3.7 C 6.04 g/m*3 3.7 C 0 km/h
1092 24-11-2014 20:20:00 3.7 C 6.04 g/m*3 3.7 C 0 km/h
1093 24-11-2014 20:25:00 3.6 C 6 g/m*3 3.6 C 0 km/h
1094 24-11-2014 20:30:00 3.6 C 6 g/m*3 3.6 C 0 km/h
1095 24-11-2014 20:35:00 3.6 C 6 g/m*3 3.6 C 0 km/h
1096 24-11-2014 20:40:00 3.4 C 5.92 g/m*3 3.4 C 0 km/h
1097 24-11-2014 20:45:00 3.3 C 5.88 g/m*3 3.3 C 0 km/h
1098 24-11-2014 20:50:00 3.1 C 5.81 g/m*3 3.1 C 0 km/h
1099 24-11-2014 20:55:00 3.1 C 5.81 g/m*3 3.1 C 0 km/h
1100 24-11-2014 21:00:00 3.1 C 5.81 g/m*3 3.1 C 0 km/h
Sensor: Nr:Datum:Temp:Abs-Feuchte:Windchill:Wind:
Aussen-T/F 1101 24-11-2014 21:05:00 3.1 C 5.81 g/m*3 3.1 C 0 km/h
1102 24-11-2014 21:10:00 3 C 5.77 g/m*3 3 C 0 km/h
1103 24-11-2014 21:15:00 2.9 C 5.73 g/m*3 2.9 C 0 km/h
1104 24-11-2014 21:20:00 2.8 C 5.69 g/m*3 2.8 C 0 km/h
1105 24-11-2014 21:25:00 2.8 C 5.69 g/m*3 2.8 C 0 km/h
1106 24-11-2014 21:30:00 2.7 C 5.65 g/m*3 2.7 C 0 km/h
1107 24-11-2014 21:35:00 2.7 C 5.65 g/m*3 2.7 C 0 km/h
1108 24-11-2014 21:40:00 2.7 C 5.65 g/m*3 2.7 C 0 km/h
1109 24-11-2014 21:45:00 2.7 C 5.65 g/m*3 2.7 C 0 km/h
1110 24-11-2014 21:50:00 2.7 C 5.65 g/m*3 2.7 C 0 km/h
1111 24-11-2014 21:55:00 2.6 C 5.61 g/m*3 2.6 C 0 km/h
1112 24-11-2014 22:00:00 2.5 C 5.58 g/m*3 2.5 C 0 km/h
1113 24-11-2014 22:05:00 2.5 C 5.58 g/m*3 2.5 C 0 km/h
1114 24-11-2014 22:10:00 2.5 C 5.58 g/m*3 2.5 C 0 km/h
1115 24-11-2014 22:15:00 2.4 C 5.54 g/m*3 2.4 C 0 km/h
1116 24-11-2014 22:20:00 2.4 C 5.54 g/m*3 2.4 C 0 km/h
1117 24-11-2014 22:25:00 2.3 C 5.5 g/m*3 2.3 C 0 km/h
1118 24-11-2014 22:30:00 2.3 C 5.5 g/m*3 2.3 C 0 km/h
1119 24-11-2014 22:35:00 2.3 C 5.5 g/m*3 2.3 C 0 km/h
1120 24-11-2014 22:40:00 2.2 C 5.46 g/m*3 2.2 C 0 km/h
1121 24-11-2014 22:45:00 2.1 C 5.43 g/m*3 2.1 C 0 km/h
1122 24-11-2014 22:50:00 2 C 5.39 g/m*3 2 C 0 km/h
1123 24-11-2014 22:55:00 2 C 5.39 g/m*3 2 C 1.6 km/h
1124 24-11-2014 23:00:00 2 C 5.39 g/m*3 2 C 0 km/h
1125 24-11-2014 23:05:00 1.9 C 5.35 g/m*3 1.9 C 0 km/h
Sensor: Nr:Datum:Temp:Abs-Feuchte:Windchill:Wind:
Aussen-T/F 1126 24-11-2014 23:10:00 1.9 C 5.35 g/m*3 1.9 C 0 km/h
1127 24-11-2014 23:15:00 1.9 C 5.35 g/m*3 1.9 C 0 km/h
1128 24-11-2014 23:20:00 1.9 C 5.41 g/m*3 1.9 C 0 km/h
1129 24-11-2014 23:25:00 1.9 C 5.41 g/m*3 1.9 C 0 km/h
1130 24-11-2014 23:30:00 1.9 C 5.41 g/m*3 1.9 C 0 km/h
1131 24-11-2014 23:35:00 1.9 C 5.41 g/m*3 1.9 C 0 km/h
1132 24-11-2014 23:40:00 2 C 5.45 g/m*3 2 C 0 km/h
1133 24-11-2014 23:45:00 2.1 C 5.48 g/m*3 2.1 C 1.6 km/h
1134 24-11-2014 23:50:00 2.1 C 5.48 g/m*3 2.1 C 1.6 km/h
1135 24-11-2014 23:55:00 2.1 C 5.48 g/m*3 2.1 C 0 km/h
1136 25-11-2014 00:00:00 2 C 5.45 g/m*3 2 C 0 km/h
1137 25-11-2014 00:05:00 1.9 C 5.41 g/m*3 1.9 C 0 km/h
1138 25-11-2014 00:10:00 1.9 C 5.41 g/m*3 1.9 C 0 km/h
1139 25-11-2014 00:15:00 1.8 C 5.37 g/m*3 1.8 C 0 km/h
1140 25-11-2014 00:20:00 1.8 C 5.37 g/m*3 1.8 C 0 km/h
1141 25-11-2014 00:25:00 1.8 C 5.37 g/m*3 1.8 C 1.6 km/h
1142 25-11-2014 00:30:00 1.8 C 5.37 g/m*3 1.8 C 1.6 km/h
1143 25-11-2014 00:35:00 1.8 C 5.37 g/m*3 1.8 C 1.6 km/h
1144 25-11-2014 00:40:00 1.9 C 5.41 g/m*3 1.9 C 0 km/h
1145 25-11-2014 00:45:00 1.9 C 5.41 g/m*3 1.9 C 0 km/h
1146 25-11-2014 00:50:00 1.9 C 5.41 g/m*3 1.9 C 0 km/h
1147 25-11-2014 00:55:00 1.9 C 5.41 g/m*3 1.9 C 0 km/h
1148 25-11-2014 01:00:00 1.9 C 5.41 g/m*3 1.9 C 0 km/h
1149 25-11-2014 01:05:00 2 C 5.45 g/m*3 2 C 0 km/h
1150 25-11-2014 01:10:00 2.1 C 5.48 g/m*3 2.1 C 0 km/h
Sensor: Nr:Datum:Temp:Abs-Feuchte:Windchill:Wind:
Aussen-T/F 1151 25-11-2014 01:15:00 2.1 C 5.48 g/m*3 2.1 C 0 km/h
1152 25-11-2014 01:20:00 2.1 C 5.48 g/m*3 2.1 C 0 km/h
1153 25-11-2014 01:25:00 2.1 C 5.48 g/m*3 2.1 C 0 km/h
1154 25-11-2014 01:30:00 2.1 C 5.48 g/m*3 2.1 C 0 km/h
1155 25-11-2014 01:35:00 2.1 C 5.48 g/m*3 2.1 C 0 km/h
1156 25-11-2014 01:40:00 2.1 C 5.48 g/m*3 2.1 C 0 km/h
1157 25-11-2014 01:45:00 2.1 C 5.48 g/m*3 2.1 C 0 km/h
1158 25-11-2014 01:50:00 2.1 C 5.48 g/m*3 2.1 C 0 km/h
1159 25-11-2014 01:55:00 2 C 5.45 g/m*3 2 C 0 km/h
1160 25-11-2014 02:00:00 1.9 C 5.41 g/m*3 1.9 C 0 km/h
1161 25-11-2014 02:05:00 1.9 C 5.41 g/m*3 1.9 C 0 km/h
1162 25-11-2014 02:10:00 1.9 C 5.41 g/m*3 1.9 C 0 km/h
1163 25-11-2014 02:15:00 1.9 C 5.41 g/m*3 1.9 C 0 km/h
1164 25-11-2014 02:20:00 1.9 C 5.41 g/m*3 1.9 C 0 km/h
1165 25-11-2014 02:25:00 1.8 C 5.37 g/m*3 1.8 C 1.6 km/h
1166 25-11-2014 02:30:00 1.8 C 5.37 g/m*3 1.8 C 0 km/h
1167 25-11-2014 02:35:00 1.8 C 5.37 g/m*3 1.8 C 0 km/h
1168 25-11-2014 02:40:00 1.8 C 5.37 g/m*3 1.8 C 0 km/h
1169 25-11-2014 02:45:00 1.9 C 5.41 g/m*3 1.9 C 0 km/h
1170 25-11-2014 02:50:00 1.9 C 5.41 g/m*3 1.9 C 1.6 km/h
1171 25-11-2014 02:55:00 1.9 C 5.41 g/m*3 1.9 C 0 km/h
1172 25-11-2014 03:00:00 1.8 C 5.37 g/m*3 1.8 C 0 km/h
1173 25-11-2014 03:05:00 1.8 C 5.37 g/m*3 1.8 C 0 km/h
1174 25-11-2014 03:10:00 1.8 C 5.37 g/m*3 1.8 C 0 km/h
1175 25-11-2014 03:15:00 1.8 C 5.37 g/m*3 1.8 C 1.6 km/h
Sensor: Nr:Datum:Temp:Abs-Feuchte:Windchill:Wind:
Aussen-T/F 1176 25-11-2014 03:20:00 1.8 C 5.37 g/m*3 1.8 C 0 km/h
1177 25-11-2014 03:25:00 1.8 C 5.37 g/m*3 1.8 C 1.6 km/h
1178 25-11-2014 03:30:00 1.8 C 5.37 g/m*3 1.8 C 1.6 km/h
1179 25-11-2014 03:35:00 1.8 C 5.37 g/m*3 1.8 C 0 km/h
1180 25-11-2014 03:40:00 1.8 C 5.37 g/m*3 1.8 C 1.6 km/h
1181 25-11-2014 03:45:00 1.7 C 5.34 g/m*3 1.7 C 3.2 km/h
1182 25-11-2014 03:50:00 1.7 C 5.34 g/m*3 1.7 C 3.2 km/h
1183 25-11-2014 03:55:00 1.6 C 5.3 g/m*3 1.6 C 1.6 km/h
1184 25-11-2014 04:00:00 1.5 C 5.26 g/m*3 1.5 C 0 km/h
1185 25-11-2014 04:05:00 1.4 C 5.23 g/m*3 1.4 C 0 km/h
1186 25-11-2014 04:10:00 1.3 C 5.19 g/m*3 1.3 C 1.6 km/h
1187 25-11-2014 04:15:00 1.3 C 5.19 g/m*3 1.3 C 0 km/h
1188 25-11-2014 04:20:00 1.4 C 5.23 g/m*3 1.4 C 0 km/h
1189 25-11-2014 04:25:00 1.4 C 5.23 g/m*3 1.4 C 0 km/h
1190 25-11-2014 04:30:00 1.6 C 5.3 g/m*3 1.6 C 0 km/h
1191 25-11-2014 04:35:00 1.6 C 5.3 g/m*3 1.6 C 0 km/h
1192 25-11-2014 04:40:00 1.7 C 5.34 g/m*3 1.7 C 0 km/h
1193 25-11-2014 04:45:00 1.8 C 5.37 g/m*3 1.8 C 0 km/h
1194 25-11-2014 04:50:00 1.8 C 5.43 g/m*3 1.8 C 0 km/h
1195 25-11-2014 04:55:00 1.9 C 5.46 g/m*3 1.9 C 0 km/h
1196 25-11-2014 05:00:00 1.9 C 5.46 g/m*3 1.9 C 0 km/h
1197 25-11-2014 05:05:00 2 C 5.45 g/m*3 2 C 1.6 km/h
1198 25-11-2014 05:10:00 2 C 5.45 g/m*3 2 C 0 km/h
1199 25-11-2014 05:15:00 2 C 5.45 g/m*3 2 C 0 km/h
1200 25-11-2014 05:20:00 2.1 C 5.48 g/m*3 2.1 C 0 km/h
Sensor: Nr:Datum:Temp:Abs-Feuchte:Windchill:Wind:
Aussen-T/F 1201 25-11-2014 05:25:00 2.1 C 5.48 g/m*3 2.1 C 0 km/h
1202 25-11-2014 05:30:00 2.1 C 5.48 g/m*3 2.1 C 0 km/h
1203 25-11-2014 05:35:00 2.2 C 5.58 g/m*3 2.2 C 0 km/h
1204 25-11-2014 05:40:00 2.2 C 5.58 g/m*3 2.2 C 1.6 km/h
1205 25-11-2014 05:45:00 2.2 C 5.52 g/m*3 2.2 C 1.6 km/h
1206 25-11-2014 05:50:00 2.2 C 5.52 g/m*3 2.2 C 0 km/h
1207 25-11-2014 05:55:00 2.2 C 5.58 g/m*3 2.2 C 3.2 km/h
1208 25-11-2014 06:00:00 2.2 C 5.58 g/m*3 2.2 C 0 km/h
1209 25-11-2014 06:05:00 2.2 C 5.58 g/m*3 2.2 C 1.6 km/h
1210 25-11-2014 06:10:00 2.2 C 5.52 g/m*3 2.2 C 1.6 km/h
1211 25-11-2014 06:15:00 2.2 C 5.52 g/m*3 2.2 C 0 km/h
1212 25-11-2014 06:20:00 2.2 C 5.52 g/m*3 2.2 C 0 km/h
1213 25-11-2014 06:25:00 2.2 C 5.52 g/m*3 2.2 C 0 km/h
1214 25-11-2014 06:30:00 2.2 C 5.52 g/m*3 2.2 C 0 km/h
1215 25-11-2014 06:35:00 2.3 C 5.56 g/m*3 2.3 C 3.2 km/h
1216 25-11-2014 06:40:00 2.3 C 5.56 g/m*3 2.3 C 0 km/h
1217 25-11-2014 06:45:00 2.3 C 5.56 g/m*3 2.3 C 1.6 km/h
1218 25-11-2014 06:50:00 2.3 C 5.56 g/m*3 2.3 C 0 km/h
1219 25-11-2014 06:55:00 2.4 C 5.6 g/m*3 2.4 C 0 km/h
1220 25-11-2014 07:00:00 2.3 C 5.56 g/m*3 2.3 C 0 km/h
1221 25-11-2014 07:05:00 2.3 C 5.56 g/m*3 2.3 C 0 km/h
1222 25-11-2014 07:10:00 2.3 C 5.56 g/m*3 2.3 C 0 km/h
1223 25-11-2014 07:15:00 2.3 C 5.56 g/m*3 2.3 C 0 km/h
1224 25-11-2014 07:20:00 2.2 C 5.52 g/m*3 2.2 C 0 km/h
1225 25-11-2014 07:25:00 2.2 C 5.58 g/m*3 2.2 C 0 km/h
Sensor: Nr:Datum:Temp:Abs-Feuchte:Windchill:Wind:
Aussen-T/F 1226 25-11-2014 07:30:00 2.2 C 5.58 g/m*3 2.2 C 1.6 km/h
1227 25-11-2014 07:35:00 2.1 C 5.54 g/m*3 2.1 C 3.2 km/h
1228 25-11-2014 07:40:00 2.1 C 5.54 g/m*3 2.1 C 0 km/h
1229 25-11-2014 07:45:00 2.2 C 5.58 g/m*3 2.2 C 0 km/h
1230 25-11-2014 07:50:00 2.2 C 5.58 g/m*3 2.2 C 0 km/h
1231 25-11-2014 07:55:00 2.2 C 5.58 g/m*3 2.2 C 0 km/h
1232 25-11-2014 08:00:00 2.2 C 5.58 g/m*3 2.2 C 0 km/h
1233 25-11-2014 08:05:00 2.2 C 5.52 g/m*3 2.2 C 0 km/h
1234 25-11-2014 08:10:00 2.2 C 5.52 g/m*3 2.2 C 0 km/h
1235 25-11-2014 08:15:00 2.2 C 5.52 g/m*3 2.2 C 0 km/h
1236 25-11-2014 08:20:00 2.1 C 5.48 g/m*3 2.1 C 0 km/h
1237 25-11-2014 08:25:00 2.1 C 5.48 g/m*3 2.1 C 0 km/h
1238 25-11-2014 08:30:00 2.1 C 5.48 g/m*3 2.1 C 0 km/h
1239 25-11-2014 08:35:00 2.1 C 5.48 g/m*3 2.1 C 0 km/h
1240 25-11-2014 08:40:00 2.2 C 5.58 g/m*3 2.2 C 0 km/h
1241 25-11-2014 08:45:00 2.2 C 5.58 g/m*3 2.2 C 0 km/h
1242 25-11-2014 08:50:00 2.2 C 5.58 g/m*3 2.2 C 0 km/h
1243 25-11-2014 08:55:00 2.3 C 5.61 g/m*3 2.3 C 0 km/h
1244 25-11-2014 09:00:00 2.4 C 5.65 g/m*3 2.4 C 0 km/h
1245 25-11-2014 09:05:00 2.4 C 5.65 g/m*3 2.4 C 0 km/h
1246 25-11-2014 09:10:00 2.4 C 5.65 g/m*3 2.4 C 0 km/h
1247 25-11-2014 09:15:00 2.5 C 5.69 g/m*3 2.5 C 1.6 km/h
1248 25-11-2014 09:20:00 2.5 C 5.69 g/m*3 2.5 C 3.2 km/h
1249 25-11-2014 09:25:00 2.5 C 5.69 g/m*3 2.5 C 1.6 km/h
1250 25-11-2014 09:30:00 2.5 C 5.69 g/m*3 2.5 C 0 km/h
Sensor: Nr:Datum:Temp:Abs-Feuchte:Windchill:Wind:
Aussen-T/F 1251 25-11-2014 09:35:00 2.5 C 5.69 g/m*3 2.5 C 0 km/h
1252 25-11-2014 09:40:00 2.4 C 5.65 g/m*3 2.4 C 0 km/h
1253 25-11-2014 09:45:00 2.5 C 5.69 g/m*3 2.5 C 1.6 km/h
1254 25-11-2014 09:50:00 2.5 C 5.69 g/m*3 2.5 C 1.6 km/h
1255 25-11-2014 09:55:00 2.6 C 5.73 g/m*3 0.82 C 6.4 km/h
1256 25-11-2014 10:00:00 2.6 C 5.73 g/m*3 2.6 C 4.8 km/h
1257 25-11-2014 10:25:00 2.8 C 5.81 g/m*3 2.8 C 0 km/h
1258 25-11-2014 10:30:00 2.8 C 5.81 g/m*3 2.8 C 1.6 km/h
1259 25-11-2014 10:35:00 2.9 C 5.85 g/m*3 2.9 C 3.2 km/h
1260 25-11-2014 10:40:00 2.9 C 5.85 g/m*3 2.9 C 1.6 km/h
1261 25-11-2014 10:45:00 2.9 C 5.85 g/m*3 2.9 C 3.2 km/h
1262 25-11-2014 10:50:00 3 C 5.89 g/m*3 3 C 1.6 km/h
1263 25-11-2014 10:55:00 3.1 C 5.93 g/m*3 3.1 C 1.6 km/h
1264 25-11-2014 11:00:00 3.2 C 5.97 g/m*3 3.2 C 1.6 km/h
1265 25-11-2014 11:05:00 3.2 C 5.97 g/m*3 3.2 C 1.6 km/h
1266 25-11-2014 11:10:00 3.2 C 5.97 g/m*3 3.2 C 0 km/h
1267 25-11-2014 11:15:00 3.3 C 6.01 g/m*3 3.3 C 1.6 km/h
1268 25-11-2014 11:20:00 3.4 C 6.05 g/m*3 3.4 C 3.2 km/h
1269 25-11-2014 11:25:00 3.6 C 6.13 g/m*3 3.6 C 3.2 km/h
1270 25-11-2014 11:30:00 3.6 C 6.13 g/m*3 3.6 C 3.2 km/h
1271 25-11-2014 11:35:00 3.6 C 6.13 g/m*3 3.6 C 1.6 km/h
1272 25-11-2014 11:40:00 3.6 C 6.13 g/m*3 3.6 C 0 km/h
1273 25-11-2014 11:45:00 3.6 C 6.07 g/m*3 3.6 C 0 km/h
1274 25-11-2014 11:50:00 3.6 C 6.07 g/m*3 3.6 C 0 km/h
1275 25-11-2014 11:55:00 3.6 C 6.07 g/m*3 3.6 C 0 km/h
Sensor: Nr:Datum:Temp:Abs-Feuchte:Windchill:Wind:
Aussen-T/F 1276 25-11-2014 12:00:00 3.6 C 6.07 g/m*3 3.6 C 0 km/h
1277 25-11-2014 12:05:00 3.6 C 6.07 g/m*3 3.6 C 0 km/h
1278 25-11-2014 12:10:00 3.6 C 6.07 g/m*3 3.6 C 0 km/h
1279 25-11-2014 12:15:00 3.5 C 6.03 g/m*3 3.5 C 1.6 km/h
1280 25-11-2014 12:20:00 3.5 C 6.03 g/m*3 3.5 C 0 km/h
1281 25-11-2014 12:25:00 3.6 C 6.07 g/m*3 3.6 C 0 km/h
1282 25-11-2014 12:30:00 3.6 C 6.07 g/m*3 3.6 C 0 km/h
1283 25-11-2014 12:35:00 3.6 C 6.07 g/m*3 3.6 C 0 km/h
1284 25-11-2014 12:40:00 3.5 C 6.03 g/m*3 3.5 C 1.6 km/h
1285 25-11-2014 12:45:00 3.5 C 6.03 g/m*3 3.5 C 3.2 km/h
1286 25-11-2014 12:50:00 3.4 C 5.99 g/m*3 3.4 C 3.2 km/h
1287 25-11-2014 12:55:00 3.4 C 5.99 g/m*3 3.4 C 3.2 km/h
1288 25-11-2014 13:00:00 3.4 C 5.99 g/m*3 3.4 C 1.6 km/h
1289 25-11-2014 13:05:00 3.4 C 5.99 g/m*3 3.4 C 0 km/h
1290 25-11-2014 13:10:00 3.4 C 5.99 g/m*3 3.4 C 0 km/h
1291 25-11-2014 13:15:00 3.4 C 5.99 g/m*3 3.4 C 0 km/h
1292 25-11-2014 13:20:00 3.4 C 5.99 g/m*3 3.4 C 0 km/h
1293 25-11-2014 13:25:00 3.5 C 6.03 g/m*3 3.5 C 0 km/h
1294 25-11-2014 13:30:00 3.6 C 6.07 g/m*3 3.6 C 0 km/h
1295 25-11-2014 13:35:00 3.6 C 6.07 g/m*3 3.6 C 0 km/h
1296 25-11-2014 13:40:00 3.7 C 6.11 g/m*3 3.7 C 0 km/h
1297 25-11-2014 13:45:00 3.7 C 6.11 g/m*3 3.7 C 0 km/h
1298 25-11-2014 13:50:00 3.7 C 6.11 g/m*3 3.7 C 0 km/h
1299 25-11-2014 13:55:00 3.7 C 6.11 g/m*3 3.7 C 1.6 km/h
1300 25-11-2014 14:00:00 3.7 C 6.11 g/m*3 3.7 C 1.6 km/h
Sensor: Nr:Datum:Temp:Abs-Feuchte:Windchill:Wind:
Aussen-T/F 1301 25-11-2014 14:05:00 3.7 C 6.11 g/m*3 3.7 C 1.6 km/h
1302 25-11-2014 14:10:00 3.7 C 6.11 g/m*3 3.7 C 3.2 km/h
1303 25-11-2014 14:15:00 3.7 C 6.11 g/m*3 3.7 C 1.6 km/h
1304 25-11-2014 14:35:00 4.1 C 6.27 g/m*3 4.1 C 3.2 km/h
1305 25-11-2014 14:40:00 4.1 C 6.27 g/m*3 4.1 C 3.2 km/h
1306 25-11-2014 14:45:00 4.2 C 6.31 g/m*3 4.2 C 4.8 km/h
1307 25-11-2014 14:50:00 4.2 C 6.31 g/m*3 4.2 C 3.2 km/h
1308 25-11-2014 14:55:00 4.2 C 6.31 g/m*3 4.2 C 4.8 km/h
1309 25-11-2014 15:00:00 4.2 C 6.31 g/m*3 4.2 C 3.2 km/h
1310 25-11-2014 15:05:00 4.2 C 6.31 g/m*3 4.2 C 3.2 km/h
1311 25-11-2014 17:40:00 3.4 C 5.92 g/m*3 3.4 C 4.8 km/h
1312 25-11-2014 17:45:00 3.4 C 5.92 g/m*3 3.4 C 3.2 km/h
1313 25-11-2014 17:50:00 3.4 C 5.92 g/m*3 3.4 C 4.8 km/h
1314 25-11-2014 17:55:00 3.4 C 5.92 g/m*3 3.4 C 4.8 km/h
1315 25-11-2014 18:00:00 3.4 C 5.92 g/m*3 3.4 C 4.8 km/h
1316 25-11-2014 18:05:00 3.4 C 5.92 g/m*3 3.4 C 4.8 km/h
1317 25-11-2014 18:10:00 3.4 C 5.92 g/m*3 3.4 C 3.2 km/h
1318 25-11-2014 18:15:00 3.3 C 5.88 g/m*3 3.3 C 4.8 km/h
1319 25-11-2014 18:20:00 3.3 C 5.88 g/m*3 3.3 C 4.8 km/h
1320 25-11-2014 18:25:00 3.3 C 5.88 g/m*3 3.3 C 3.2 km/h
1321 25-11-2014 18:30:00 3.2 C 5.85 g/m*3 3.2 C 3.2 km/h
1322 25-11-2014 18:35:00 3.2 C 5.85 g/m*3 3.2 C 4.8 km/h
1323 25-11-2014 18:40:00 3.2 C 5.85 g/m*3 3.2 C 3.2 km/h
1324 25-11-2014 18:45:00 3.1 C 5.81 g/m*3 3.1 C 3.2 km/h
1325 25-11-2014 18:50:00 3.1 C 5.81 g/m*3 3.1 C 4.8 km/h
Sensor: Nr:Datum:Temp:Abs-Feuchte:Windchill:Wind:
Aussen-T/F 1326 25-11-2014 18:55:00 3.1 C 5.81 g/m*3 3.1 C 3.2 km/h
1327 25-11-2014 19:00:00 3.1 C 5.81 g/m*3 3.1 C 4.8 km/h
1328 25-11-2014 19:05:00 3.2 C 5.91 g/m*3 3.2 C 4.8 km/h
1329 25-11-2014 19:10:00 3.2 C 5.91 g/m*3 3.2 C 3.2 km/h
1330 25-11-2014 19:15:00 3.2 C 5.91 g/m*3 3.2 C 1.6 km/h
1331 25-11-2014 19:20:00 3.3 C 5.95 g/m*3 3.3 C 3.2 km/h
1332 25-11-2014 19:25:00 3.3 C 5.95 g/m*3 3.3 C 3.2 km/h
1333 25-11-2014 19:30:00 3.3 C 5.95 g/m*3 3.3 C 3.2 km/h
1334 25-11-2014 19:35:00 3.4 C 5.99 g/m*3 3.4 C 3.2 km/h
1335 25-11-2014 19:40:00 3.4 C 5.99 g/m*3 3.4 C 1.6 km/h
1336 25-11-2014 19:45:00 3.5 C 6.03 g/m*3 3.5 C 3.2 km/h
1337 25-11-2014 19:50:00 3.6 C 6.07 g/m*3 3.6 C 0 km/h
1338 25-11-2014 19:55:00 3.7 C 6.11 g/m*3 3.7 C 0 km/h
1339 25-11-2014 20:00:00 3.8 C 6.15 g/m*3 3.8 C 4.8 km/h
1340 25-11-2014 20:05:00 3.8 C 6.15 g/m*3 3.8 C 0 km/h
1341 25-11-2014 20:10:00 3.9 C 6.19 g/m*3 3.9 C 0 km/h
1342 25-11-2014 20:15:00 4 C 6.23 g/m*3 4 C 0 km/h
1343 25-11-2014 20:20:00 4.1 C 6.27 g/m*3 4.1 C 3.2 km/h
1344 25-11-2014 20:25:00 4.2 C 6.31 g/m*3 4.2 C 0 km/h
1345 25-11-2014 20:30:00 4.2 C 6.31 g/m*3 4.2 C 0 km/h
1346 25-11-2014 20:35:00 4.3 C 6.36 g/m*3 4.3 C 1.6 km/h
1347 25-11-2014 20:40:00 4.3 C 6.36 g/m*3 4.3 C 3.2 km/h
1348 25-11-2014 20:45:00 4.3 C 6.36 g/m*3 4.3 C 0 km/h
1349 25-11-2014 20:50:00 4.4 C 6.4 g/m*3 4.4 C 1.6 km/h
1350 25-11-2014 20:55:00 4.4 C 6.4 g/m*3 4.4 C 0 km/h
Sensor: Nr:Datum:Temp:Abs-Feuchte:Windchill:Wind:
Aussen-T/F 1351 25-11-2014 21:00:00 4.6 C 6.48 g/m*3 4.6 C 0 km/h
1352 25-11-2014 21:05:00 4.6 C 6.42 g/m*3 4.6 C 1.6 km/h
1353 25-11-2014 21:10:00 4.7 C 6.53 g/m*3 4.7 C 3.2 km/h
1354 25-11-2014 21:15:00 4.7 C 6.46 g/m*3 4.7 C 0 km/h
1355 25-11-2014 21:20:00 4.8 C 6.5 g/m*3 4.8 C 0 km/h
1356 25-11-2014 21:25:00 4.8 C 6.5 g/m*3 4.8 C 0 km/h
1357 25-11-2014 21:30:00 4.9 C 6.55 g/m*3 4.9 C 1.6 km/h
1358 25-11-2014 21:35:00 4.9 C 6.55 g/m*3 4.9 C 1.6 km/h
1359 25-11-2014 21:40:00 4.9 C 6.55 g/m*3 4.9 C 1.6 km/h
1360 25-11-2014 21:45:00 5 C 6.59 g/m*3 5 C 0 km/h
1361 25-11-2014 21:50:00 5 C 6.59 g/m*3 5 C 1.6 km/h
1362 25-11-2014 21:55:00 5 C 6.59 g/m*3 5 C 3.2 km/h
1363 25-11-2014 22:00:00 5.1 C 6.63 g/m*3 5.1 C 0 km/h
1364 25-11-2014 22:05:00 5.1 C 6.63 g/m*3 5.1 C 0 km/h
1365 25-11-2014 22:10:00 5.1 C 6.63 g/m*3 5.1 C 3.2 km/h
1366 25-11-2014 22:15:00 5.1 C 6.63 g/m*3 5.1 C 1.6 km/h
1367 25-11-2014 22:20:00 5.2 C 6.68 g/m*3 5.2 C 0 km/h
1368 25-11-2014 22:25:00 5.2 C 6.61 g/m*3 5.2 C 1.6 km/h
1369 25-11-2014 22:30:00 5.2 C 6.61 g/m*3 5.2 C 0 km/h
1370 25-11-2014 22:35:00 5.2 C 6.61 g/m*3 5.2 C 0 km/h
1371 25-11-2014 22:40:00 5.3 C 6.65 g/m*3 5.3 C 0 km/h
1372 25-11-2014 22:45:00 5.3 C 6.65 g/m*3 5.3 C 0 km/h
1373 25-11-2014 22:50:00 5.3 C 6.65 g/m*3 5.3 C 0 km/h
1374 25-11-2014 22:55:00 5.3 C 6.65 g/m*3 5.3 C 0 km/h
1375 25-11-2014 23:00:00 5.3 C 6.65 g/m*3 5.3 C 1.6 km/h
Sensor: Nr:Datum:Temp:Abs-Feuchte:Windchill:Wind:
Aussen-T/F 1376 25-11-2014 23:05:00 5.3 C 6.65 g/m*3 5.3 C 1.6 km/h
1377 25-11-2014 23:10:00 5.3 C 6.58 g/m*3 3.94 C 6.4 km/h
1378 25-11-2014 23:15:00 5.3 C 6.52 g/m*3 5.3 C 3.2 km/h
1379 25-11-2014 23:20:00 5.3 C 6.52 g/m*3 3.94 C 6.4 km/h
1380 25-11-2014 23:25:00 5.4 C 6.49 g/m*3 3.58 C 8.1 km/h
1381 25-11-2014 23:30:00 5.4 C 6.42 g/m*3 3.58 C 8.1 km/h
1382 25-11-2014 23:35:00 5.5 C 6.46 g/m*3 5.5 C 3.2 km/h
1383 25-11-2014 23:40:00 5.5 C 6.46 g/m*3 5.5 C 3.2 km/h
1384 25-11-2014 23:45:00 5.5 C 6.39 g/m*3 4.17 C 6.4 km/h
1385 25-11-2014 23:50:00 5.5 C 6.39 g/m*3 5.5 C 3.2 km/h
1386 25-11-2014 23:55:00 5.4 C 6.35 g/m*3 5.4 C 4.8 km/h
1387 26-11-2014 00:00:00 5.4 C 6.35 g/m*3 4.06 C 6.4 km/h
1388 26-11-2014 00:05:00 5.4 C 6.35 g/m*3 5.4 C 1.6 km/h
1389 26-11-2014 00:10:00 5.4 C 6.35 g/m*3 5.4 C 4.8 km/h
1390 26-11-2014 00:15:00 5.4 C 6.35 g/m*3 5.4 C 3.2 km/h
1391 26-11-2014 00:20:00 5.4 C 6.35 g/m*3 4.06 C 6.4 km/h
1392 26-11-2014 00:25:00 5.4 C 6.35 g/m*3 5.4 C 4.8 km/h
1393 26-11-2014 00:30:00 5.4 C 6.35 g/m*3 5.4 C 4.8 km/h
1394 26-11-2014 00:35:00 5.4 C 6.28 g/m*3 5.4 C 3.2 km/h
1395 26-11-2014 00:40:00 5.3 C 6.31 g/m*3 5.3 C 3.2 km/h
1396 26-11-2014 00:45:00 5.3 C 6.31 g/m*3 5.3 C 4.8 km/h
1397 26-11-2014 00:50:00 5.3 C 6.31 g/m*3 5.3 C 1.6 km/h
1398 26-11-2014 00:55:00 5.3 C 6.31 g/m*3 5.3 C 3.2 km/h
1399 26-11-2014 01:00:00 5.3 C 6.31 g/m*3 5.3 C 0 km/h
1400 26-11-2014 01:05:00 5.3 C 6.31 g/m*3 5.3 C 1.6 km/h
Sensor: Nr:Datum:Temp:Abs-Feuchte:Windchill:Wind:
Aussen-T/F 1401 26-11-2014 01:10:00 5.3 C 6.31 g/m*3 5.3 C 3.2 km/h
1402 26-11-2014 01:15:00 5.3 C 6.31 g/m*3 5.3 C 0 km/h
1403 26-11-2014 01:20:00 5.2 C 6.27 g/m*3 5.2 C 4.8 km/h
1404 26-11-2014 01:25:00 5.2 C 6.27 g/m*3 3.82 C 6.4 km/h
1405 26-11-2014 01:30:00 5.2 C 6.2 g/m*3 3.82 C 6.4 km/h
1406 26-11-2014 01:35:00 5.2 C 6.27 g/m*3 5.2 C 1.6 km/h
1407 26-11-2014 01:40:00 5.2 C 6.27 g/m*3 5.2 C 1.6 km/h
1408 26-11-2014 01:45:00 5.2 C 6.27 g/m*3 5.2 C 3.2 km/h
1409 26-11-2014 01:50:00 5.1 C 6.22 g/m*3 5.1 C 3.2 km/h
1410 26-11-2014 01:55:00 5.1 C 6.22 g/m*3 5.1 C 3.2 km/h
1411 26-11-2014 02:00:00 5.1 C 6.22 g/m*3 5.1 C 1.6 km/h
1412 26-11-2014 02:05:00 5 C 6.18 g/m*3 5 C 3.2 km/h
1413 26-11-2014 02:10:00 4.9 C 6.14 g/m*3 4.9 C 0 km/h
1414 26-11-2014 02:15:00 4.9 C 6.14 g/m*3 4.9 C 0 km/h
1415 26-11-2014 02:20:00 4.9 C 6.14 g/m*3 4.9 C 1.6 km/h
1416 26-11-2014 02:25:00 4.9 C 6.14 g/m*3 4.9 C 1.6 km/h
1417 26-11-2014 02:30:00 4.9 C 6.14 g/m*3 4.9 C 3.2 km/h
1418 26-11-2014 02:35:00 4.8 C 6.1 g/m*3 4.8 C 4.8 km/h
1419 26-11-2014 02:40:00 4.8 C 6.1 g/m*3 4.8 C 1.6 km/h
1420 26-11-2014 02:45:00 4.8 C 6.1 g/m*3 4.8 C 1.6 km/h
1421 26-11-2014 02:50:00 4.8 C 6.1 g/m*3 4.8 C 4.8 km/h
1422 26-11-2014 02:55:00 4.8 C 6.1 g/m*3 4.8 C 0 km/h
1423 26-11-2014 03:00:00 4.8 C 6.1 g/m*3 4.8 C 1.6 km/h
1424 26-11-2014 03:05:00 4.8 C 6.1 g/m*3 4.8 C 3.2 km/h
1425 26-11-2014 03:10:00 4.8 C 6.1 g/m*3 4.8 C 4.8 km/h
Sensor: Nr:Datum:Temp:Abs-Feuchte:Windchill:Wind:
Aussen-T/F 1426 26-11-2014 03:15:00 4.8 C 6.1 g/m*3 4.8 C 4.8 km/h
1427 26-11-2014 03:20:00 4.7 C 6 g/m*3 4.7 C 1.6 km/h
1428 26-11-2014 03:25:00 4.7 C 6 g/m*3 4.7 C 1.6 km/h
1429 26-11-2014 03:30:00 4.7 C 6 g/m*3 4.7 C 0 km/h
1430 26-11-2014 03:35:00 4.7 C 6 g/m*3 4.7 C 0 km/h
1431 26-11-2014 03:40:00 4.7 C 6.06 g/m*3 4.7 C 3.2 km/h
1432 26-11-2014 03:45:00 4.7 C 6 g/m*3 4.7 C 4.8 km/h
1433 26-11-2014 03:50:00 4.7 C 6 g/m*3 4.7 C 0 km/h
1434 26-11-2014 03:55:00 4.7 C 6 g/m*3 4.7 C 3.2 km/h
1435 26-11-2014 04:00:00 4.7 C 6 g/m*3 4.7 C 3.2 km/h
1436 26-11-2014 04:05:00 4.7 C 6 g/m*3 4.7 C 3.2 km/h
1437 26-11-2014 04:10:00 4.6 C 5.96 g/m*3 3.13 C 6.4 km/h
1438 26-11-2014 04:15:00 4.6 C 5.96 g/m*3 4.6 C 4.8 km/h
1439 26-11-2014 04:20:00 4.6 C 5.96 g/m*3 3.13 C 6.4 km/h
1440 26-11-2014 04:25:00 4.6 C 5.96 g/m*3 2.25 C 9.7 km/h
1441 26-11-2014 04:30:00 4.6 C 5.96 g/m*3 2.25 C 9.7 km/h
1442 26-11-2014 04:35:00 4.6 C 5.96 g/m*3 4.6 C 0 km/h
1443 26-11-2014 04:40:00 4.6 C 5.96 g/m*3 4.6 C 1.6 km/h
1444 26-11-2014 04:45:00 4.6 C 5.96 g/m*3 3.13 C 6.4 km/h
1445 26-11-2014 04:50:00 4.5 C 5.92 g/m*3 3.02 C 6.4 km/h
1446 26-11-2014 04:55:00 4.5 C 5.92 g/m*3 4.5 C 3.2 km/h
1447 26-11-2014 05:00:00 4.5 C 5.92 g/m*3 4.5 C 1.6 km/h
1448 26-11-2014 05:05:00 4.4 C 5.88 g/m*3 4.4 C 0 km/h
1449 26-11-2014 05:10:00 4.4 C 5.88 g/m*3 4.4 C 0 km/h
1450 26-11-2014 05:15:00 4.4 C 5.88 g/m*3 4.4 C 1.6 km/h
Sensor: Nr:Datum:Temp:Abs-Feuchte:Windchill:Wind:
Aussen-T/F 1451 26-11-2014 05:20:00 4.4 C 5.88 g/m*3 4.4 C 0 km/h
1452 26-11-2014 05:25:00 4.4 C 5.88 g/m*3 4.4 C 0 km/h
1453 26-11-2014 05:30:00 4.4 C 5.88 g/m*3 4.4 C 3.2 km/h
1454 26-11-2014 05:35:00 4.4 C 5.94 g/m*3 4.4 C 3.2 km/h
1455 26-11-2014 05:40:00 4.4 C 5.88 g/m*3 4.4 C 3.2 km/h
1456 26-11-2014 05:45:00 4.4 C 5.88 g/m*3 4.4 C 3.2 km/h
1457 26-11-2014 05:50:00 4.4 C 5.88 g/m*3 4.4 C 4.8 km/h
1458 26-11-2014 05:55:00 4.4 C 5.88 g/m*3 4.4 C 0 km/h
1459 26-11-2014 06:00:00 4.4 C 5.88 g/m*3 4.4 C 1.6 km/h
1460 26-11-2014 06:05:00 4.4 C 5.88 g/m*3 4.4 C 1.6 km/h
1461 26-11-2014 06:10:00 4.4 C 5.88 g/m*3 4.4 C 0 km/h
1462 26-11-2014 06:15:00 4.4 C 5.94 g/m*3 4.4 C 0 km/h
1463 26-11-2014 06:20:00 4.4 C 5.88 g/m*3 4.4 C 0 km/h
1464 26-11-2014 06:25:00 4.4 C 5.94 g/m*3 4.4 C 0 km/h
1465 26-11-2014 06:30:00 4.4 C 5.94 g/m*3 4.4 C 0 km/h
1466 26-11-2014 06:35:00 4.3 C 5.9 g/m*3 4.3 C 0 km/h
1467 26-11-2014 06:40:00 4.3 C 5.9 g/m*3 4.3 C 0 km/h
1468 26-11-2014 06:45:00 4.3 C 5.9 g/m*3 4.3 C 0 km/h
1469 26-11-2014 06:50:00 4.3 C 5.9 g/m*3 4.3 C 0 km/h
1470 26-11-2014 06:55:00 4.3 C 5.9 g/m*3 4.3 C 3.2 km/h
1471 26-11-2014 07:00:00 4.3 C 5.84 g/m*3 4.3 C 3.2 km/h
1472 26-11-2014 07:05:00 4.3 C 5.84 g/m*3 4.3 C 0 km/h
1473 26-11-2014 07:10:00 4.3 C 5.84 g/m*3 4.3 C 1.6 km/h
1474 26-11-2014 07:15:00 4.4 C 5.88 g/m*3 4.4 C 0 km/h
1475 26-11-2014 07:20:00 4.4 C 5.88 g/m*3 4.4 C 1.6 km/h
Sensor: Nr:Datum:Temp:Abs-Feuchte:Windchill:Wind:
Aussen-T/F 1476 26-11-2014 07:25:00 4.4 C 5.88 g/m*3 4.4 C 0 km/h
1477 26-11-2014 07:30:00 4.4 C 5.88 g/m*3 4.4 C 0 km/h
1478 26-11-2014 07:35:00 4.4 C 5.94 g/m*3 4.4 C 0 km/h
1479 26-11-2014 07:40:00 4.4 C 5.94 g/m*3 4.4 C 0 km/h
1480 26-11-2014 07:45:00 4.3 C 5.9 g/m*3 4.3 C 3.2 km/h
1481 26-11-2014 07:50:00 4.3 C 5.84 g/m*3 4.3 C 1.6 km/h
1482 26-11-2014 07:55:00 4.4 C 5.94 g/m*3 4.4 C 0 km/h
1483 26-11-2014 08:00:00 4.4 C 5.94 g/m*3 4.4 C 1.6 km/h
1484 26-11-2014 08:05:00 4.4 C 5.88 g/m*3 4.4 C 3.2 km/h
1485 26-11-2014 08:10:00 4.4 C 5.88 g/m*3 4.4 C 1.6 km/h
1486 26-11-2014 08:15:00 4.4 C 5.88 g/m*3 4.4 C 0 km/h
1487 26-11-2014 08:20:00 4.4 C 5.88 g/m*3 4.4 C 3.2 km/h
1488 26-11-2014 08:25:00 4.4 C 5.88 g/m*3 4.4 C 1.6 km/h
1489 26-11-2014 08:30:00 4.4 C 5.88 g/m*3 4.4 C 0 km/h
1490 26-11-2014 08:35:00 4.4 C 5.88 g/m*3 4.4 C 1.6 km/h
1491 26-11-2014 08:40:00 4.4 C 5.88 g/m*3 4.4 C 0 km/h
1492 26-11-2014 08:45:00 4.4 C 5.88 g/m*3 4.4 C 1.6 km/h
1493 26-11-2014 08:50:00 4.4 C 5.88 g/m*3 2.9 C 6.4 km/h
1494 26-11-2014 08:55:00 4.4 C 5.88 g/m*3 4.4 C 3.2 km/h
1495 26-11-2014 09:00:00 4.5 C 5.85 g/m*3 4.5 C 3.2 km/h
1496 26-11-2014 09:05:00 4.5 C 5.85 g/m*3 4.5 C 4.8 km/h
1497 26-11-2014 09:10:00 4.6 C 5.89 g/m*3 4.6 C 3.2 km/h
1498 26-11-2014 09:15:00 4.6 C 5.82 g/m*3 4.6 C 3.2 km/h
1499 26-11-2014 09:20:00 4.6 C 5.89 g/m*3 4.6 C 1.6 km/h
1500 26-11-2014 09:25:00 4.6 C 5.89 g/m*3 4.6 C 1.6 km/h
Sensor: Nr:Datum:Temp:Abs-Feuchte:Windchill:Wind:
Aussen-T/F 1501 26-11-2014 09:30:00 4.6 C 5.89 g/m*3 3.13 C 6.4 km/h
1502 26-11-2014 11:35:00 5.7 C 6.05 g/m*3 5.7 C 3.2 km/h
1503 26-11-2014 11:40:00 5.7 C 6.05 g/m*3 5.7 C 1.6 km/h
1504 26-11-2014 11:45:00 5.7 C 6.05 g/m*3 5.7 C 3.2 km/h
1505 26-11-2014 11:50:00 5.7 C 5.98 g/m*3 5.7 C 3.2 km/h
1506 26-11-2014 11:55:00 5.7 C 6.05 g/m*3 5.7 C 3.2 km/h
1507 26-11-2014 12:00:00 5.7 C 6.05 g/m*3 5.7 C 3.2 km/h
1508 26-11-2014 12:05:00 5.7 C 6.05 g/m*3 4.4 C 6.4 km/h
1509 26-11-2014 12:10:00 5.7 C 6.05 g/m*3 5.7 C 1.6 km/h
1510 26-11-2014 12:15:00 5.7 C 6.12 g/m*3 5.7 C 4.8 km/h
1511 26-11-2014 12:20:00 5.7 C 6.19 g/m*3 5.7 C 4.8 km/h
1512 26-11-2014 12:25:00 5.7 C 6.33 g/m*3 5.7 C 3.2 km/h
1513 26-11-2014 12:30:00 5.6 C 6.22 g/m*3 5.6 C 1.6 km/h
1514 26-11-2014 12:35:00 5.6 C 6.29 g/m*3 5.6 C 0 km/h
1515 26-11-2014 12:40:00 5.6 C 6.29 g/m*3 5.6 C 0 km/h
1516 26-11-2014 12:45:00 5.6 C 6.29 g/m*3 5.6 C 3.2 km/h
1517 26-11-2014 12:50:00 5.7 C 6.4 g/m*3 5.7 C 0 km/h
1518 26-11-2014 12:55:00 5.7 C 6.33 g/m*3 5.7 C 1.6 km/h
1519 26-11-2014 13:00:00 5.8 C 6.38 g/m*3 5.8 C 3.2 km/h
1520 26-11-2014 13:05:00 5.8 C 6.38 g/m*3 5.8 C 3.2 km/h
1521 26-11-2014 13:10:00 5.8 C 6.38 g/m*3 5.8 C 4.8 km/h
1522 26-11-2014 13:15:00 5.9 C 6.42 g/m*3 5.9 C 4.8 km/h
1523 26-11-2014 13:20:00 5.9 C 6.42 g/m*3 5.9 C 1.6 km/h
1524 26-11-2014 13:25:00 5.9 C 6.42 g/m*3 5.9 C 3.2 km/h
1525 26-11-2014 13:30:00 5.9 C 6.42 g/m*3 5.9 C 4.8 km/h
Sensor: Nr:Datum:Temp:Abs-Feuchte:Windchill:Wind:
Aussen-T/F 1526 26-11-2014 13:35:00 5.9 C 6.42 g/m*3 5.9 C 3.2 km/h
1527 26-11-2014 13:40:00 5.9 C 6.42 g/m*3 4.63 C 6.4 km/h
1528 26-11-2014 13:45:00 5.9 C 6.42 g/m*3 5.9 C 1.6 km/h
1529 26-11-2014 13:50:00 5.9 C 6.49 g/m*3 5.9 C 3.2 km/h
1530 26-11-2014 13:55:00 5.9 C 6.35 g/m*3 5.9 C 3.2 km/h
1531 26-11-2014 14:00:00 5.9 C 6.42 g/m*3 5.9 C 1.6 km/h
1532 26-11-2014 14:05:00 5.9 C 6.42 g/m*3 5.9 C 1.6 km/h
1533 26-11-2014 14:10:00 5.9 C 6.42 g/m*3 5.9 C 3.2 km/h
1534 26-11-2014 14:15:00 5.9 C 6.42 g/m*3 5.9 C 3.2 km/h
1535 26-11-2014 14:20:00 5.9 C 6.42 g/m*3 5.9 C 3.2 km/h
1536 26-11-2014 14:25:00 5.9 C 6.35 g/m*3 5.9 C 3.2 km/h
1537 26-11-2014 14:30:00 5.9 C 6.35 g/m*3 5.9 C 3.2 km/h
1538 26-11-2014 14:35:00 5.9 C 6.35 g/m*3 5.9 C 1.6 km/h
1539 26-11-2014 14:40:00 6 C 6.46 g/m*3 6 C 1.6 km/h
1540 26-11-2014 14:45:00 6.1 C 6.5 g/m*3 6.1 C 1.6 km/h
1541 26-11-2014 14:50:00 6.1 C 6.5 g/m*3 6.1 C 4.8 km/h
1542 26-11-2014 14:55:00 6.2 C 6.47 g/m*3 6.2 C 1.6 km/h
1543 26-11-2014 15:00:00 6.2 C 6.47 g/m*3 6.2 C 3.2 km/h
1544 26-11-2014 15:05:00 6.2 C 6.47 g/m*3 6.2 C 4.8 km/h
1545 26-11-2014 15:10:00 6.2 C 6.47 g/m*3 6.2 C 3.2 km/h
1546 26-11-2014 15:15:00 6.2 C 6.47 g/m*3 6.2 C 3.2 km/h
1547 26-11-2014 15:20:00 6.2 C 6.47 g/m*3 6.2 C 3.2 km/h
1548 26-11-2014 15:25:00 6.2 C 6.47 g/m*3 6.2 C 4.8 km/h
1549 26-11-2014 15:30:00 6.2 C 6.47 g/m*3 6.2 C 3.2 km/h
1550 26-11-2014 15:35:00 6.1 C 6.43 g/m*3 6.1 C 3.2 km/h
Sensor: Nr:Datum:Temp:Abs-Feuchte:Windchill:Wind:
Aussen-T/F 1551 26-11-2014 15:40:00 6.1 C 6.5 g/m*3 4.86 C 6.4 km/h
1552 26-11-2014 15:45:00 6.1 C 6.43 g/m*3 6.1 C 3.2 km/h
1553 26-11-2014 15:50:00 6.1 C 6.43 g/m*3 6.1 C 1.6 km/h
1554 26-11-2014 15:55:00 6 C 6.39 g/m*3 6 C 1.6 km/h
1555 26-11-2014 16:00:00 6 C 6.39 g/m*3 6 C 0 km/h
1556 26-11-2014 16:05:00 6 C 6.39 g/m*3 6 C 1.6 km/h
1557 26-11-2014 16:10:00 6 C 6.46 g/m*3 6 C 1.6 km/h
1558 26-11-2014 16:15:00 6 C 6.46 g/m*3 6 C 1.6 km/h
1559 26-11-2014 16:20:00 6 C 6.46 g/m*3 6 C 1.6 km/h
1560 26-11-2014 16:25:00 5.9 C 6.42 g/m*3 5.9 C 3.2 km/h
1561 26-11-2014 16:30:00 5.9 C 6.42 g/m*3 5.9 C 3.2 km/h
1562 26-11-2014 16:35:00 5.9 C 6.35 g/m*3 5.9 C 1.6 km/h
1563 26-11-2014 16:40:00 5.9 C 6.42 g/m*3 5.9 C 3.2 km/h
1564 26-11-2014 16:45:00 5.9 C 6.35 g/m*3 5.9 C 0 km/h
1565 26-11-2014 16:50:00 5.9 C 6.35 g/m*3 5.9 C 1.6 km/h
1566 26-11-2014 16:55:00 5.9 C 6.42 g/m*3 5.9 C 1.6 km/h
1567 26-11-2014 17:00:00 5.9 C 6.35 g/m*3 5.9 C 3.2 km/h
1568 26-11-2014 17:05:00 5.9 C 6.42 g/m*3 5.9 C 1.6 km/h
1569 26-11-2014 17:10:00 5.9 C 6.42 g/m*3 5.9 C 1.6 km/h
1570 26-11-2014 17:15:00 5.8 C 6.38 g/m*3 5.8 C 0 km/h
1571 26-11-2014 17:20:00 5.8 C 6.38 g/m*3 5.8 C 1.6 km/h
1572 26-11-2014 17:25:00 5.8 C 6.3 g/m*3 5.8 C 1.6 km/h
1573 26-11-2014 17:30:00 5.8 C 6.23 g/m*3 5.8 C 3.2 km/h
1574 26-11-2014 17:35:00 5.9 C 6.35 g/m*3 5.9 C 3.2 km/h
1575 26-11-2014 17:40:00 5.9 C 6.35 g/m*3 5.9 C 3.2 km/h
Sensor: Nr:Datum:Temp:Abs-Feuchte:Windchill:Wind:
Aussen-T/F 1576 26-11-2014 17:45:00 5.9 C 6.35 g/m*3 5.9 C 4.8 km/h
1577 26-11-2014 17:50:00 5.8 C 6.23 g/m*3 5.8 C 0 km/h
1578 26-11-2014 17:55:00 5.9 C 6.35 g/m*3 5.9 C 0 km/h
1579 26-11-2014 18:00:00 5.8 C 6.3 g/m*3 5.8 C 1.6 km/h
1580 26-11-2014 18:05:00 5.8 C 6.3 g/m*3 5.8 C 1.6 km/h
1581 26-11-2014 18:10:00 5.8 C 6.3 g/m*3 5.8 C 0 km/h
1582 26-11-2014 18:15:00 5.8 C 6.3 g/m*3 5.8 C 0 km/h
1583 26-11-2014 18:20:00 5.8 C 6.3 g/m*3 5.8 C 0 km/h
1584 26-11-2014 18:25:00 5.8 C 6.3 g/m*3 5.8 C 1.6 km/h
1585 26-11-2014 18:30:00 5.8 C 6.38 g/m*3 5.8 C 0 km/h
1586 26-11-2014 18:35:00 5.7 C 6.33 g/m*3 5.7 C 0 km/h
1587 26-11-2014 18:40:00 5.7 C 6.26 g/m*3 5.7 C 3.2 km/h
1588 26-11-2014 18:45:00 5.7 C 6.26 g/m*3 5.7 C 3.2 km/h
1589 26-11-2014 18:50:00 5.7 C 6.33 g/m*3 5.7 C 0 km/h
1590 26-11-2014 18:55:00 5.7 C 6.26 g/m*3 5.7 C 0 km/h
1591 26-11-2014 19:00:00 5.7 C 6.33 g/m*3 5.7 C 0 km/h
1592 26-11-2014 19:05:00 5.7 C 6.4 g/m*3 5.7 C 0 km/h
1593 26-11-2014 19:10:00 5.7 C 6.4 g/m*3 5.7 C 0 km/h
1594 26-11-2014 19:15:00 5.7 C 6.33 g/m*3 5.7 C 0 km/h
1595 26-11-2014 19:20:00 5.7 C 6.26 g/m*3 5.7 C 0 km/h
1596 26-11-2014 19:25:00 5.7 C 6.33 g/m*3 5.7 C 0 km/h
1597 26-11-2014 19:30:00 5.7 C 6.4 g/m*3 5.7 C 0 km/h
1598 26-11-2014 19:35:00 5.7 C 6.33 g/m*3 5.7 C 0 km/h
1599 26-11-2014 19:40:00 5.7 C 6.33 g/m*3 5.7 C 0 km/h
1600 26-11-2014 19:45:00 5.7 C 6.33 g/m*3 5.7 C 1.6 km/h
Sensor: Nr:Datum:Temp:Abs-Feuchte:Windchill:Wind:
Aussen-T/F 1601 26-11-2014 19:50:00 5.7 C 6.33 g/m*3 5.7 C 0 km/h
1602 26-11-2014 19:55:00 5.7 C 6.4 g/m*3 5.7 C 0 km/h
1603 26-11-2014 20:00:00 5.7 C 6.4 g/m*3 5.7 C 0 km/h
1604 26-11-2014 20:05:00 5.6 C 6.36 g/m*3 5.6 C 0 km/h
1605 26-11-2014 20:10:00 5.6 C 6.29 g/m*3 5.6 C 0 km/h
1606 26-11-2014 20:15:00 5.6 C 6.29 g/m*3 5.6 C 0 km/h
1607 26-11-2014 20:20:00 5.6 C 6.36 g/m*3 5.6 C 0 km/h
1608 26-11-2014 20:25:00 5.6 C 6.36 g/m*3 5.6 C 0 km/h
1609 26-11-2014 20:30:00 5.6 C 6.36 g/m*3 5.6 C 0 km/h
1610 26-11-2014 20:35:00 5.6 C 6.36 g/m*3 5.6 C 0 km/h
1611 26-11-2014 20:40:00 5.6 C 6.36 g/m*3 5.6 C 0 km/h
1612 26-11-2014 20:45:00 5.6 C 6.36 g/m*3 5.6 C 0 km/h
1613 26-11-2014 20:50:00 5.6 C 6.36 g/m*3 5.6 C 0 km/h
1614 26-11-2014 20:55:00 5.6 C 6.36 g/m*3 5.6 C 0 km/h
1615 26-11-2014 21:00:00 5.7 C 6.4 g/m*3 5.7 C 0 km/h
1616 26-11-2014 21:05:00 5.7 C 6.4 g/m*3 5.7 C 0 km/h
1617 26-11-2014 21:10:00 5.7 C 6.4 g/m*3 5.7 C 0 km/h
1618 26-11-2014 21:15:00 5.7 C 6.33 g/m*3 5.7 C 1.6 km/h
1619 26-11-2014 21:20:00 5.7 C 6.33 g/m*3 5.7 C 1.6 km/h
1620 26-11-2014 21:25:00 5.7 C 6.33 g/m*3 5.7 C 0 km/h
1621 26-11-2014 21:30:00 5.8 C 6.45 g/m*3 5.8 C 0 km/h
1622 26-11-2014 21:35:00 5.8 C 6.38 g/m*3 5.8 C 0 km/h
1623 26-11-2014 21:40:00 5.8 C 6.45 g/m*3 5.8 C 0 km/h
1624 26-11-2014 21:45:00 5.8 C 6.45 g/m*3 5.8 C 0 km/h
1625 26-11-2014 21:50:00 5.8 C 6.45 g/m*3 5.8 C 0 km/h
Sensor: Nr:Datum:Temp:Abs-Feuchte:Windchill:Wind:
Aussen-T/F 1626 26-11-2014 21:55:00 5.8 C 6.52 g/m*3 5.8 C 0 km/h
1627 26-11-2014 22:00:00 5.8 C 6.52 g/m*3 5.8 C 0 km/h
1628 26-11-2014 22:05:00 5.7 C 6.48 g/m*3 5.7 C 0 km/h
1629 26-11-2014 22:10:00 5.7 C 6.48 g/m*3 5.7 C 0 km/h
1630 26-11-2014 22:15:00 5.7 C 6.48 g/m*3 5.7 C 0 km/h
1631 26-11-2014 22:20:00 5.7 C 6.48 g/m*3 5.7 C 0 km/h
1632 26-11-2014 22:25:00 5.7 C 6.55 g/m*3 5.7 C 0 km/h
1633 26-11-2014 22:30:00 5.7 C 6.62 g/m*3 5.7 C 0 km/h
1634 26-11-2014 22:35:00 5.6 C 6.57 g/m*3 5.6 C 0 km/h
1635 26-11-2014 22:40:00 5.6 C 6.57 g/m*3 5.6 C 0 km/h
1636 26-11-2014 22:45:00 5.5 C 6.6 g/m*3 5.5 C 0 km/h
1637 26-11-2014 22:50:00 5.4 C 6.56 g/m*3 5.4 C 0 km/h
1638 26-11-2014 22:55:00 5.4 C 6.56 g/m*3 5.4 C 0 km/h
1639 26-11-2014 23:00:00 5.3 C 6.52 g/m*3 5.3 C 0 km/h
1640 26-11-2014 23:05:00 5.3 C 6.58 g/m*3 5.3 C 0 km/h
1641 26-11-2014 23:10:00 5.3 C 6.58 g/m*3 5.3 C 0 km/h
1642 26-11-2014 23:15:00 5.3 C 6.58 g/m*3 5.3 C 0 km/h
1643 26-11-2014 23:20:00 5.3 C 6.58 g/m*3 5.3 C 0 km/h
1644 26-11-2014 23:25:00 5.3 C 6.58 g/m*3 5.3 C 0 km/h
1645 26-11-2014 23:30:00 5.3 C 6.58 g/m*3 5.3 C 0 km/h
1646 26-11-2014 23:35:00 5.3 C 6.58 g/m*3 5.3 C 0 km/h
1647 26-11-2014 23:40:00 5.3 C 6.58 g/m*3 5.3 C 0 km/h
1648 26-11-2014 23:45:00 5.3 C 6.58 g/m*3 5.3 C 0 km/h
1649 26-11-2014 23:50:00 5.3 C 6.58 g/m*3 5.3 C 0 km/h
1650 26-11-2014 23:55:00 5.3 C 6.58 g/m*3 5.3 C 0 km/h
Sensor: Nr:Datum:Temp:Abs-Feuchte:Windchill:Wind:
Aussen-T/F 1651 27-11-2014 00:00:00 5.3 C 6.58 g/m*3 5.3 C 0 km/h
1652 27-11-2014 00:05:00 5.3 C 6.58 g/m*3 5.3 C 0 km/h
1653 27-11-2014 00:10:00 5.2 C 6.54 g/m*3 5.2 C 0 km/h
1654 27-11-2014 00:15:00 5.2 C 6.54 g/m*3 5.2 C 0 km/h
1655 27-11-2014 00:20:00 5.3 C 6.58 g/m*3 5.3 C 0 km/h
1656 27-11-2014 00:25:00 5.2 C 6.54 g/m*3 5.2 C 1.6 km/h
1657 27-11-2014 00:30:00 5.2 C 6.54 g/m*3 5.2 C 1.6 km/h
1658 27-11-2014 00:35:00 5.2 C 6.54 g/m*3 5.2 C 0 km/h
1659 27-11-2014 00:40:00 5.2 C 6.54 g/m*3 5.2 C 0 km/h
1660 27-11-2014 00:45:00 5.2 C 6.54 g/m*3 5.2 C 0 km/h
1661 27-11-2014 00:50:00 5.2 C 6.47 g/m*3 5.2 C 0 km/h
1662 27-11-2014 00:55:00 5.2 C 6.47 g/m*3 5.2 C 0 km/h
1663 27-11-2014 01:00:00 5.2 C 6.47 g/m*3 5.2 C 0 km/h
1664 27-11-2014 01:05:00 5.2 C 6.47 g/m*3 5.2 C 0 km/h
1665 27-11-2014 01:10:00 5.3 C 6.52 g/m*3 5.3 C 0 km/h
1666 27-11-2014 01:15:00 5.3 C 6.52 g/m*3 5.3 C 0 km/h
1667 27-11-2014 01:20:00 5.3 C 6.52 g/m*3 5.3 C 0 km/h
1668 27-11-2014 01:25:00 5.3 C 6.52 g/m*3 5.3 C 0 km/h
1669 27-11-2014 01:30:00 5.3 C 6.52 g/m*3 5.3 C 0 km/h
1670 27-11-2014 01:35:00 5.3 C 6.52 g/m*3 5.3 C 0 km/h
1671 27-11-2014 01:40:00 5.3 C 6.52 g/m*3 5.3 C 0 km/h
1672 27-11-2014 01:45:00 5.3 C 6.52 g/m*3 5.3 C 0 km/h
1673 27-11-2014 01:50:00 5.3 C 6.52 g/m*3 5.3 C 0 km/h
1674 27-11-2014 01:55:00 5.3 C 6.52 g/m*3 5.3 C 0 km/h
1675 27-11-2014 02:00:00 5.3 C 6.52 g/m*3 5.3 C 0 km/h
Sensor: Nr:Datum:Temp:Abs-Feuchte:Windchill:Wind:
Aussen-T/F 1676 27-11-2014 02:05:00 5.3 C 6.52 g/m*3 5.3 C 0 km/h
1677 27-11-2014 02:10:00 5.3 C 6.52 g/m*3 5.3 C 0 km/h
1678 27-11-2014 02:15:00 5.3 C 6.52 g/m*3 5.3 C 0 km/h
1679 27-11-2014 02:20:00 5.3 C 6.52 g/m*3 5.3 C 0 km/h
1680 27-11-2014 02:25:00 5.3 C 6.52 g/m*3 5.3 C 0 km/h
1681 27-11-2014 02:30:00 5.3 C 6.52 g/m*3 5.3 C 0 km/h
1682 27-11-2014 02:35:00 5.3 C 6.52 g/m*3 5.3 C 0 km/h
1683 27-11-2014 02:40:00 5.3 C 6.52 g/m*3 5.3 C 0 km/h
1684 27-11-2014 02:45:00 5.3 C 6.52 g/m*3 5.3 C 0 km/h
1685 27-11-2014 02:50:00 5.4 C 6.56 g/m*3 5.4 C 0 km/h
1686 27-11-2014 02:55:00 5.3 C 6.52 g/m*3 5.3 C 0 km/h
1687 27-11-2014 03:00:00 5.3 C 6.52 g/m*3 5.3 C 0 km/h
1688 27-11-2014 03:05:00 5.3 C 6.52 g/m*3 5.3 C 0 km/h
1689 27-11-2014 03:10:00 5.4 C 6.56 g/m*3 5.4 C 0 km/h
1690 27-11-2014 03:15:00 5.3 C 6.52 g/m*3 5.3 C 0 km/h
1691 27-11-2014 03:20:00 5.4 C 6.56 g/m*3 5.4 C 0 km/h
1692 27-11-2014 03:25:00 5.3 C 6.52 g/m*3 5.3 C 0 km/h
1693 27-11-2014 03:30:00 5.4 C 6.56 g/m*3 5.4 C 0 km/h
1694 27-11-2014 03:35:00 5.4 C 6.56 g/m*3 5.4 C 0 km/h
1695 27-11-2014 03:40:00 5.3 C 6.52 g/m*3 5.3 C 0 km/h
1696 27-11-2014 03:45:00 5.3 C 6.52 g/m*3 5.3 C 0 km/h
1697 27-11-2014 03:50:00 5.3 C 6.52 g/m*3 5.3 C 0 km/h
1698 27-11-2014 03:55:00 5.3 C 6.52 g/m*3 5.3 C 0 km/h
1699 27-11-2014 04:00:00 5.3 C 6.52 g/m*3 5.3 C 0 km/h
1700 27-11-2014 04:05:00 5.3 C 6.52 g/m*3 5.3 C 0 km/h
Sensor: Nr:Datum:Temp:Abs-Feuchte:Windchill:Wind:
Aussen-T/F 1701 27-11-2014 04:10:00 5.3 C 6.45 g/m*3 5.3 C 0 km/h
1702 27-11-2014 04:15:00 5.3 C 6.52 g/m*3 5.3 C 0 km/h
1703 27-11-2014 04:20:00 5.3 C 6.52 g/m*3 5.3 C 0 km/h
1704 27-11-2014 04:25:00 5.3 C 6.52 g/m*3 5.3 C 0 km/h
1705 27-11-2014 04:30:00 5.4 C 6.56 g/m*3 5.4 C 0 km/h
1706 27-11-2014 04:35:00 5.4 C 6.56 g/m*3 5.4 C 0 km/h
1707 27-11-2014 04:40:00 5.4 C 6.56 g/m*3 5.4 C 0 km/h
1708 27-11-2014 04:45:00 5.4 C 6.56 g/m*3 5.4 C 0 km/h
1709 27-11-2014 04:50:00 5.3 C 6.45 g/m*3 5.3 C 0 km/h
1710 27-11-2014 04:55:00 5.3 C 6.45 g/m*3 5.3 C 0 km/h
1711 27-11-2014 05:00:00 5.3 C 6.45 g/m*3 5.3 C 0 km/h
1712 27-11-2014 05:05:00 5.3 C 6.45 g/m*3 5.3 C 0 km/h
1713 27-11-2014 05:10:00 5.3 C 6.45 g/m*3 5.3 C 0 km/h
1714 27-11-2014 05:15:00 5.3 C 6.45 g/m*3 5.3 C 0 km/h
1715 27-11-2014 05:20:00 5.3 C 6.45 g/m*3 5.3 C 0 km/h
1716 27-11-2014 05:25:00 5.3 C 6.45 g/m*3 5.3 C 0 km/h
1717 27-11-2014 05:30:00 5.3 C 6.45 g/m*3 5.3 C 0 km/h
1718 27-11-2014 05:35:00 5.3 C 6.45 g/m*3 5.3 C 0 km/h
1719 27-11-2014 05:40:00 5.3 C 6.45 g/m*3 5.3 C 0 km/h
1720 27-11-2014 05:45:00 5.3 C 6.45 g/m*3 5.3 C 0 km/h
1721 27-11-2014 05:50:00 5.3 C 6.45 g/m*3 5.3 C 0 km/h
1722 27-11-2014 05:55:00 5.3 C 6.45 g/m*3 5.3 C 0 km/h
1723 27-11-2014 06:00:00 5.3 C 6.45 g/m*3 5.3 C 0 km/h
1724 27-11-2014 06:05:00 5.3 C 6.45 g/m*3 5.3 C 0 km/h
1725 27-11-2014 06:10:00 5.3 C 6.45 g/m*3 5.3 C 0 km/h
Sensor: Nr:Datum:Temp:Abs-Feuchte:Windchill:Wind:
Aussen-T/F 1726 27-11-2014 06:15:00 5.3 C 6.45 g/m*3 5.3 C 0 km/h
1727 27-11-2014 06:20:00 5.3 C 6.45 g/m*3 5.3 C 0 km/h
1728 27-11-2014 06:25:00 5.3 C 6.45 g/m*3 5.3 C 0 km/h
1729 27-11-2014 06:30:00 5.3 C 6.45 g/m*3 5.3 C 0 km/h
1730 27-11-2014 06:35:00 5.3 C 6.45 g/m*3 5.3 C 0 km/h
1731 27-11-2014 06:40:00 5.3 C 6.45 g/m*3 5.3 C 0 km/h
1732 27-11-2014 06:45:00 5.3 C 6.45 g/m*3 5.3 C 0 km/h
1733 27-11-2014 06:50:00 5.3 C 6.45 g/m*3 5.3 C 0 km/h
1734 27-11-2014 06:55:00 5.3 C 6.45 g/m*3 5.3 C 0 km/h
1735 27-11-2014 07:00:00 5.2 C 6.4 g/m*3 5.2 C 0 km/h
1736 27-11-2014 07:05:00 5.2 C 6.4 g/m*3 5.2 C 0 km/h
1737 27-11-2014 07:10:00 5.2 C 6.4 g/m*3 5.2 C 0 km/h
1738 27-11-2014 07:15:00 5.2 C 6.4 g/m*3 5.2 C 0 km/h
1739 27-11-2014 07:20:00 5.2 C 6.4 g/m*3 5.2 C 0 km/h
1740 27-11-2014 07:25:00 5.1 C 6.36 g/m*3 5.1 C 0 km/h
1741 27-11-2014 07:30:00 5.1 C 6.36 g/m*3 5.1 C 0 km/h
1742 27-11-2014 07:35:00 5.1 C 6.36 g/m*3 5.1 C 0 km/h
1743 27-11-2014 07:40:00 5.1 C 6.36 g/m*3 5.1 C 0 km/h
1744 27-11-2014 07:45:00 5.1 C 6.43 g/m*3 5.1 C 0 km/h
1745 27-11-2014 07:50:00 5.1 C 6.43 g/m*3 5.1 C 0 km/h
1746 27-11-2014 07:55:00 5.1 C 6.43 g/m*3 5.1 C 0 km/h
1747 27-11-2014 08:00:00 5.1 C 6.43 g/m*3 5.1 C 0 km/h
1748 27-11-2014 08:05:00 5.1 C 6.36 g/m*3 5.1 C 1.6 km/h
1749 27-11-2014 08:10:00 5.1 C 6.36 g/m*3 5.1 C 0 km/h
1750 27-11-2014 08:15:00 5.2 C 6.4 g/m*3 5.2 C 3.2 km/h
Sensor: Nr:Datum:Temp:Abs-Feuchte:Windchill:Wind:
Aussen-T/F 1751 27-11-2014 08:20:00 5.2 C 6.33 g/m*3 5.2 C 3.2 km/h
1752 27-11-2014 08:25:00 5.3 C 6.38 g/m*3 5.3 C 0 km/h
1753 27-11-2014 08:30:00 5.3 C 6.38 g/m*3 5.3 C 0 km/h
1754 27-11-2014 08:35:00 5.3 C 6.38 g/m*3 5.3 C 0 km/h
1755 27-11-2014 08:40:00 5.3 C 6.38 g/m*3 5.3 C 0 km/h
1756 27-11-2014 08:45:00 5.4 C 6.42 g/m*3 5.4 C 3.2 km/h
1757 27-11-2014 08:50:00 5.4 C 6.42 g/m*3 5.4 C 0 km/h
1758 27-11-2014 08:55:00 5.5 C 6.39 g/m*3 5.5 C 0 km/h
1759 27-11-2014 09:00:00 5.5 C 6.39 g/m*3 5.5 C 0 km/h
1760 27-11-2014 09:05:00 5.5 C 6.39 g/m*3 5.5 C 3.2 km/h
1761 27-11-2014 09:10:00 5.6 C 6.36 g/m*3 5.6 C 3.2 km/h
1762 27-11-2014 09:15:00 5.6 C 6.36 g/m*3 5.6 C 3.2 km/h
1763 27-11-2014 09:20:00 5.7 C 6.4 g/m*3 5.7 C 4.8 km/h
1764 27-11-2014 09:25:00 5.7 C 6.4 g/m*3 5.7 C 4.8 km/h
1765 27-11-2014 09:30:00 5.8 C 6.45 g/m*3 5.8 C 4.8 km/h
1766 27-11-2014 09:35:00 5.8 C 6.45 g/m*3 5.8 C 4.8 km/h
1767 27-11-2014 09:40:00 5.8 C 6.45 g/m*3 5.8 C 1.6 km/h
1768 27-11-2014 09:45:00 5.8 C 6.45 g/m*3 5.8 C 1.6 km/h
1769 27-11-2014 09:50:00 5.9 C 6.49 g/m*3 5.9 C 1.6 km/h
1770 27-11-2014 09:55:00 5.9 C 6.49 g/m*3 5.9 C 1.6 km/h
1771 27-11-2014 10:00:00 5.9 C 6.49 g/m*3 5.9 C 0 km/h
1772 27-11-2014 10:05:00 6 C 6.46 g/m*3 6 C 0 km/h
1773 27-11-2014 10:10:00 6 C 6.46 g/m*3 6 C 1.6 km/h
1774 27-11-2014 10:15:00 6.1 C 6.58 g/m*3 6.1 C 0 km/h
1775 27-11-2014 10:20:00 6.1 C 6.58 g/m*3 6.1 C 0 km/h
Sensor: Nr:Datum:Temp:Abs-Feuchte:Windchill:Wind:
Aussen-T/F 1776 27-11-2014 10:25:00 6.1 C 6.58 g/m*3 6.1 C 0 km/h
1777 27-11-2014 10:30:00 6.2 C 6.62 g/m*3 6.2 C 3.2 km/h
1778 27-11-2014 10:35:00 6.2 C 6.62 g/m*3 6.2 C 1.6 km/h
1779 27-11-2014 10:40:00 6.2 C 6.62 g/m*3 6.2 C 4.8 km/h
1780 27-11-2014 13:20:00 7.3 C 6.87 g/m*3 7.3 C 1.6 km/h
1781 27-11-2014 13:25:00 7.3 C 6.87 g/m*3 7.3 C 1.6 km/h
1782 27-11-2014 13:30:00 7.4 C 6.92 g/m*3 7.4 C 0 km/h
1783 27-11-2014 13:35:00 7.4 C 7 g/m*3 7.4 C 1.6 km/h
1784 27-11-2014 13:40:00 7.5 C 7.04 g/m*3 7.5 C 1.6 km/h
1785 27-11-2014 13:45:00 7.6 C 7.09 g/m*3 7.6 C 0 km/h
1786 27-11-2014 13:50:00 7.6 C 7.01 g/m*3 7.6 C 0 km/h
1787 27-11-2014 13:55:00 7.6 C 7.01 g/m*3 7.6 C 1.6 km/h
1788 27-11-2014 14:00:00 7.6 C 7.01 g/m*3 7.6 C 3.2 km/h
1789 27-11-2014 14:05:00 7.6 C 7.01 g/m*3 7.6 C 3.2 km/h
1790 27-11-2014 14:10:00 7.6 C 7.01 g/m*3 7.6 C 1.6 km/h
1791 27-11-2014 14:15:00 7.6 C 7.01 g/m*3 7.6 C 1.6 km/h
1792 27-11-2014 14:20:00 7.6 C 7.01 g/m*3 7.6 C 3.2 km/h
1793 27-11-2014 14:25:00 7.5 C 6.96 g/m*3 7.5 C 4.8 km/h
1794 27-11-2014 14:30:00 7.5 C 6.96 g/m*3 7.5 C 4.8 km/h
1795 27-11-2014 14:35:00 7.5 C 6.96 g/m*3 7.5 C 4.8 km/h
1796 27-11-2014 14:40:00 7.4 C 6.92 g/m*3 7.4 C 4.8 km/h
1797 27-11-2014 14:45:00 7.4 C 6.92 g/m*3 7.4 C 4.8 km/h
1798 27-11-2014 14:50:00 7.4 C 7 g/m*3 7.4 C 0 km/h
1799 27-11-2014 14:55:00 7.4 C 7 g/m*3 7.4 C 4.8 km/h
1800 27-11-2014 15:00:00 7.3 C 6.87 g/m*3 6.25 C 6.4 km/h
Sensor: Nr:Datum:Temp:Abs-Feuchte:Windchill:Wind:
Aussen-T/F 1801 27-11-2014 15:05:00 7.3 C 6.95 g/m*3 7.3 C 3.2 km/h
1802 27-11-2014 15:10:00 7.3 C 6.87 g/m*3 7.3 C 4.8 km/h
1803 27-11-2014 15:15:00 7.3 C 6.87 g/m*3 7.3 C 0 km/h
1804 27-11-2014 15:20:00 7.3 C 6.87 g/m*3 7.3 C 3.2 km/h
1805 27-11-2014 15:25:00 7.3 C 6.95 g/m*3 7.3 C 3.2 km/h
1806 27-11-2014 15:30:00 7.3 C 6.95 g/m*3 7.3 C 1.6 km/h
1807 27-11-2014 15:35:00 7.3 C 7.03 g/m*3 7.3 C 0 km/h
1808 27-11-2014 15:40:00 7.3 C 7.03 g/m*3 7.3 C 1.6 km/h
1809 27-11-2014 15:45:00 7.2 C 6.99 g/m*3 7.2 C 3.2 km/h
1810 27-11-2014 15:50:00 7.2 C 6.99 g/m*3 7.2 C 1.6 km/h
1811 27-11-2014 15:55:00 7.2 C 7.06 g/m*3 7.2 C 1.6 km/h
1812 27-11-2014 16:00:00 7.1 C 7.02 g/m*3 7.1 C 1.6 km/h
1813 27-11-2014 16:05:00 7.1 C 7.02 g/m*3 7.1 C 4.8 km/h
1814 27-11-2014 16:10:00 7 C 7.05 g/m*3 7 C 1.6 km/h
1815 27-11-2014 16:15:00 7 C 7.13 g/m*3 7 C 0 km/h
1816 27-11-2014 16:20:00 6.9 C 7.08 g/m*3 6.9 C 0 km/h
1817 27-11-2014 16:25:00 6.8 C 7.04 g/m*3 6.8 C 0 km/h
1818 27-11-2014 16:30:00 6.7 C 7.07 g/m*3 6.7 C 0 km/h
1819 27-11-2014 16:35:00 6.6 C 7.02 g/m*3 6.6 C 1.6 km/h
1820 27-11-2014 16:40:00 6.6 C 7.02 g/m*3 6.6 C 0 km/h
1821 27-11-2014 16:45:00 6.6 C 7.1 g/m*3 6.6 C 0 km/h
1822 27-11-2014 16:50:00 6.5 C 7.05 g/m*3 6.5 C 0 km/h
1823 27-11-2014 16:55:00 6.4 C 7 g/m*3 6.4 C 0 km/h
1824 27-11-2014 17:00:00 6.4 C 7 g/m*3 6.4 C 3.2 km/h
1825 27-11-2014 17:05:00 6.4 C 7 g/m*3 6.4 C 0 km/h
Sensor: Nr:Datum:Temp:Abs-Feuchte:Windchill:Wind:
Aussen-T/F 1826 27-11-2014 17:10:00 6.4 C 7 g/m*3 6.4 C 0 km/h
1827 27-11-2014 17:15:00 6.3 C 6.96 g/m*3 6.3 C 0 km/h
1828 27-11-2014 17:20:00 6.3 C 7.03 g/m*3 6.3 C 0 km/h
1829 27-11-2014 17:25:00 6.3 C 6.96 g/m*3 6.3 C 1.6 km/h
1830 27-11-2014 17:30:00 6.3 C 7.03 g/m*3 6.3 C 1.6 km/h
1831 27-11-2014 17:35:00 6.3 C 7.03 g/m*3 6.3 C 0 km/h
1832 27-11-2014 17:40:00 6.3 C 7.03 g/m*3 6.3 C 3.2 km/h
1833 27-11-2014 17:45:00 6.2 C 6.99 g/m*3 6.2 C 3.2 km/h
1834 27-11-2014 17:50:00 6.2 C 6.99 g/m*3 6.2 C 0 km/h
1835 27-11-2014 17:55:00 6.2 C 6.99 g/m*3 6.2 C 1.6 km/h
1836 27-11-2014 18:00:00 6.1 C 6.87 g/m*3 6.1 C 3.2 km/h
1837 27-11-2014 18:05:00 6.1 C 6.94 g/m*3 6.1 C 3.2 km/h
1838 27-11-2014 18:10:00 6.1 C 6.94 g/m*3 6.1 C 1.6 km/h
1839 27-11-2014 18:15:00 6.1 C 6.94 g/m*3 6.1 C 0 km/h
1840 27-11-2014 18:20:00 6.1 C 6.94 g/m*3 6.1 C 0 km/h
1841 27-11-2014 18:25:00 6.1 C 6.94 g/m*3 6.1 C 0 km/h
1842 27-11-2014 18:30:00 6.1 C 6.94 g/m*3 6.1 C 1.6 km/h
1843 27-11-2014 18:35:00 6.1 C 6.94 g/m*3 6.1 C 0 km/h
1844 27-11-2014 18:40:00 6 C 6.9 g/m*3 6 C 0 km/h
1845 27-11-2014 18:45:00 6 C 6.9 g/m*3 6 C 0 km/h
1846 27-11-2014 18:50:00 5.9 C 6.85 g/m*3 5.9 C 0 km/h
1847 27-11-2014 18:55:00 5.9 C 6.85 g/m*3 5.9 C 0 km/h
1848 27-11-2014 19:00:00 5.9 C 6.85 g/m*3 5.9 C 0 km/h
1849 27-11-2014 19:05:00 5.9 C 6.85 g/m*3 5.9 C 0 km/h
1850 27-11-2014 19:10:00 5.9 C 6.85 g/m*3 5.9 C 0 km/h
Sensor: Nr:Datum:Temp:Abs-Feuchte:Windchill:Wind:
Aussen-T/F 1851 27-11-2014 19:15:00 5.8 C 6.88 g/m*3 5.8 C 0 km/h
1852 27-11-2014 19:20:00 5.8 C 6.81 g/m*3 5.8 C 1.6 km/h
1853 27-11-2014 19:25:00 5.8 C 6.81 g/m*3 5.8 C 1.6 km/h
1854 27-11-2014 19:30:00 5.8 C 6.81 g/m*3 5.8 C 0 km/h
1855 27-11-2014 19:35:00 5.8 C 6.81 g/m*3 5.8 C 0 km/h
1856 27-11-2014 19:40:00 5.8 C 6.81 g/m*3 5.8 C 0 km/h
1857 27-11-2014 19:45:00 5.8 C 6.81 g/m*3 5.8 C 1.6 km/h
1858 27-11-2014 19:50:00 5.8 C 6.81 g/m*3 5.8 C 0 km/h
1859 27-11-2014 19:55:00 5.8 C 6.81 g/m*3 5.8 C 0 km/h
1860 27-11-2014 20:00:00 5.8 C 6.81 g/m*3 5.8 C 0 km/h
1861 27-11-2014 20:05:00 5.8 C 6.81 g/m*3 5.8 C 0 km/h
1862 27-11-2014 20:10:00 5.8 C 6.81 g/m*3 5.8 C 1.6 km/h
1863 27-11-2014 20:15:00 5.8 C 6.81 g/m*3 5.8 C 0 km/h
1864 27-11-2014 20:20:00 5.8 C 6.81 g/m*3 5.8 C 0 km/h
1865 27-11-2014 20:25:00 5.7 C 6.76 g/m*3 5.7 C 0 km/h
1866 27-11-2014 20:30:00 5.7 C 6.76 g/m*3 5.7 C 1.6 km/h
1867 27-11-2014 20:35:00 5.7 C 6.76 g/m*3 5.7 C 1.6 km/h
1868 27-11-2014 20:40:00 5.7 C 6.76 g/m*3 5.7 C 1.6 km/h
1869 27-11-2014 20:45:00 5.7 C 6.76 g/m*3 5.7 C 1.6 km/h
1870 27-11-2014 20:50:00 5.7 C 6.76 g/m*3 5.7 C 3.2 km/h
1871 27-11-2014 20:55:00 5.7 C 6.76 g/m*3 5.7 C 1.6 km/h
1872 27-11-2014 21:00:00 5.7 C 6.76 g/m*3 5.7 C 0 km/h
1873 27-11-2014 21:05:00 5.7 C 6.76 g/m*3 5.7 C 1.6 km/h
1874 27-11-2014 21:10:00 5.7 C 6.76 g/m*3 5.7 C 0 km/h
1875 27-11-2014 21:15:00 5.7 C 6.76 g/m*3 5.7 C 0 km/h
Sensor: Nr:Datum:Temp:Abs-Feuchte:Windchill:Wind:
Aussen-T/F 1876 27-11-2014 21:20:00 5.7 C 6.76 g/m*3 5.7 C 0 km/h
1877 27-11-2014 21:25:00 5.7 C 6.76 g/m*3 5.7 C 0 km/h
1878 27-11-2014 21:30:00 5.7 C 6.76 g/m*3 5.7 C 3.2 km/h
1879 27-11-2014 21:35:00 5.7 C 6.76 g/m*3 5.7 C 0 km/h
1880 27-11-2014 21:40:00 5.7 C 6.76 g/m*3 5.7 C 0 km/h
1881 27-11-2014 21:45:00 5.7 C 6.76 g/m*3 5.7 C 0 km/h
1882 27-11-2014 21:50:00 5.7 C 6.76 g/m*3 5.7 C 0 km/h
1883 27-11-2014 21:55:00 5.7 C 6.76 g/m*3 5.7 C 0 km/h
1884 27-11-2014 22:00:00 5.7 C 6.76 g/m*3 5.7 C 0 km/h
1885 27-11-2014 22:05:00 5.7 C 6.76 g/m*3 5.7 C 0 km/h
1886 27-11-2014 22:10:00 5.7 C 6.76 g/m*3 5.7 C 0 km/h
1887 27-11-2014 22:15:00 5.7 C 6.76 g/m*3 5.7 C 0 km/h
1888 27-11-2014 22:20:00 5.7 C 6.83 g/m*3 5.7 C 0 km/h
1889 27-11-2014 22:25:00 5.7 C 6.76 g/m*3 5.7 C 0 km/h
1890 27-11-2014 22:30:00 5.7 C 6.76 g/m*3 5.7 C 0 km/h
1891 27-11-2014 22:35:00 5.7 C 6.76 g/m*3 5.7 C 0 km/h
1892 27-11-2014 22:40:00 5.7 C 6.76 g/m*3 5.7 C 0 km/h
1893 27-11-2014 22:45:00 5.7 C 6.76 g/m*3 5.7 C 0 km/h
1894 27-11-2014 22:50:00 5.7 C 6.76 g/m*3 5.7 C 0 km/h
1895 27-11-2014 22:55:00 5.7 C 6.76 g/m*3 5.7 C 0 km/h
1896 27-11-2014 23:00:00 5.8 C 6.81 g/m*3 5.8 C 0 km/h
1897 27-11-2014 23:05:00 5.7 C 6.76 g/m*3 5.7 C 0 km/h
1898 27-11-2014 23:10:00 5.8 C 6.81 g/m*3 5.8 C 0 km/h
1899 27-11-2014 23:15:00 5.7 C 6.76 g/m*3 5.7 C 0 km/h
1900 27-11-2014 23:20:00 5.7 C 6.76 g/m*3 5.7 C 0 km/h
Sensor: Nr:Datum:Temp:Abs-Feuchte:Windchill:Wind:
Aussen-T/F 1901 27-11-2014 23:25:00 5.8 C 6.81 g/m*3 5.8 C 0 km/h
1902 27-11-2014 23:30:00 5.8 C 6.81 g/m*3 5.8 C 0 km/h
1903 27-11-2014 23:35:00 5.8 C 6.81 g/m*3 5.8 C 0 km/h
1904 27-11-2014 23:40:00 5.8 C 6.81 g/m*3 5.8 C 0 km/h
1905 27-11-2014 23:45:00 5.7 C 6.76 g/m*3 5.7 C 0 km/h
1906 27-11-2014 23:50:00 5.8 C 6.81 g/m*3 5.8 C 0 km/h
1907 27-11-2014 23:55:00 5.7 C 6.76 g/m*3 5.7 C 0 km/h
1908 28-11-2014 00:00:00 5.8 C 6.81 g/m*3 5.8 C 0 km/h
1909 28-11-2014 00:05:00 5.8 C 6.81 g/m*3 5.8 C 0 km/h
1910 28-11-2014 00:10:00 5.8 C 6.81 g/m*3 5.8 C 1.6 km/h
1911 28-11-2014 00:15:00 5.8 C 6.81 g/m*3 5.8 C 0 km/h
1912 28-11-2014 00:20:00 5.8 C 6.81 g/m*3 5.8 C 0 km/h
1913 28-11-2014 00:25:00 5.8 C 6.81 g/m*3 5.8 C 0 km/h
1914 28-11-2014 00:30:00 5.8 C 6.81 g/m*3 5.8 C 0 km/h
1915 28-11-2014 00:35:00 5.8 C 6.81 g/m*3 5.8 C 0 km/h
1916 28-11-2014 00:40:00 5.8 C 6.81 g/m*3 5.8 C 0 km/h
1917 28-11-2014 00:45:00 5.8 C 6.81 g/m*3 5.8 C 0 km/h
1918 28-11-2014 00:50:00 5.8 C 6.81 g/m*3 5.8 C 0 km/h
1919 28-11-2014 00:55:00 5.9 C 6.85 g/m*3 5.9 C 0 km/h
1920 28-11-2014 01:00:00 5.9 C 6.85 g/m*3 5.9 C 0 km/h
1921 28-11-2014 01:05:00 5.9 C 6.85 g/m*3 5.9 C 0 km/h
1922 28-11-2014 01:10:00 5.9 C 6.85 g/m*3 5.9 C 0 km/h
1923 28-11-2014 01:15:00 5.9 C 6.85 g/m*3 5.9 C 0 km/h
1924 28-11-2014 01:20:00 5.9 C 6.85 g/m*3 5.9 C 0 km/h
1925 28-11-2014 01:25:00 5.9 C 6.85 g/m*3 5.9 C 0 km/h
Sensor: Nr:Datum:Temp:Abs-Feuchte:Windchill:Wind:
Aussen-T/F 1926 28-11-2014 01:30:00 5.9 C 6.85 g/m*3 5.9 C 0 km/h
1927 28-11-2014 01:35:00 5.9 C 6.85 g/m*3 5.9 C 0 km/h
1928 28-11-2014 01:40:00 5.9 C 6.85 g/m*3 5.9 C 1.6 km/h
1929 28-11-2014 01:45:00 5.9 C 6.78 g/m*3 5.9 C 3.2 km/h
1930 28-11-2014 01:50:00 5.9 C 6.78 g/m*3 5.9 C 1.6 km/h
1931 28-11-2014 01:55:00 5.9 C 6.78 g/m*3 5.9 C 1.6 km/h
1932 28-11-2014 02:00:00 5.9 C 6.78 g/m*3 5.9 C 0 km/h
1933 28-11-2014 02:05:00 5.9 C 6.71 g/m*3 5.9 C 1.6 km/h
1934 28-11-2014 02:10:00 5.9 C 6.71 g/m*3 5.9 C 1.6 km/h
1935 28-11-2014 02:15:00 5.9 C 6.71 g/m*3 5.9 C 1.6 km/h
1936 28-11-2014 02:20:00 5.8 C 6.66 g/m*3 5.8 C 0 km/h
1937 28-11-2014 02:25:00 5.8 C 6.66 g/m*3 5.8 C 1.6 km/h
1938 28-11-2014 02:30:00 5.7 C 6.62 g/m*3 5.7 C 0 km/h
1939 28-11-2014 02:35:00 5.7 C 6.62 g/m*3 5.7 C 0 km/h
1940 28-11-2014 02:40:00 5.5 C 6.53 g/m*3 5.5 C 1.6 km/h
1941 28-11-2014 02:45:00 5.4 C 6.49 g/m*3 5.4 C 3.2 km/h
1942 28-11-2014 02:50:00 5.3 C 6.45 g/m*3 5.3 C 3.2 km/h
1943 28-11-2014 02:55:00 5.3 C 6.45 g/m*3 5.3 C 1.6 km/h
1944 28-11-2014 03:00:00 5.2 C 6.4 g/m*3 5.2 C 1.6 km/h
1945 28-11-2014 03:05:00 5.1 C 6.36 g/m*3 5.1 C 0 km/h
1946 28-11-2014 03:10:00 5.1 C 6.43 g/m*3 5.1 C 0 km/h
1947 28-11-2014 03:15:00 5.1 C 6.43 g/m*3 5.1 C 1.6 km/h
1948 28-11-2014 03:20:00 5 C 6.39 g/m*3 5 C 0 km/h
1949 28-11-2014 03:25:00 4.9 C 6.35 g/m*3 4.9 C 0 km/h
1950 28-11-2014 03:30:00 4.9 C 6.35 g/m*3 4.9 C 0 km/h
Sensor: Nr:Datum:Temp:Abs-Feuchte:Windchill:Wind:
Aussen-T/F 1951 28-11-2014 03:35:00 4.9 C 6.35 g/m*3 4.9 C 1.6 km/h
1952 28-11-2014 03:40:00 4.9 C 6.35 g/m*3 4.9 C 0 km/h
1953 28-11-2014 03:45:00 4.9 C 6.35 g/m*3 4.9 C 0 km/h
1954 28-11-2014 03:50:00 4.9 C 6.35 g/m*3 4.9 C 0 km/h
1955 28-11-2014 03:55:00 4.9 C 6.35 g/m*3 4.9 C 0 km/h
1956 28-11-2014 04:00:00 4.9 C 6.35 g/m*3 4.9 C 0 km/h
1957 28-11-2014 04:05:00 4.9 C 6.35 g/m*3 4.9 C 1.6 km/h
1958 28-11-2014 04:10:00 4.9 C 6.35 g/m*3 4.9 C 0 km/h
1959 28-11-2014 04:15:00 4.9 C 6.35 g/m*3 4.9 C 0 km/h
1960 28-11-2014 04:20:00 4.9 C 6.35 g/m*3 4.9 C 0 km/h
1961 28-11-2014 04:25:00 5 C 6.39 g/m*3 5 C 1.6 km/h
1962 28-11-2014 04:30:00 4.9 C 6.35 g/m*3 4.9 C 3.2 km/h
1963 28-11-2014 04:35:00 5 C 6.39 g/m*3 5 C 3.2 km/h
1964 28-11-2014 04:40:00 5.1 C 6.43 g/m*3 5.1 C 0 km/h
1965 28-11-2014 04:45:00 5.1 C 6.36 g/m*3 5.1 C 0 km/h
1966 28-11-2014 04:50:00 5.1 C 6.36 g/m*3 5.1 C 0 km/h
1967 28-11-2014 04:55:00 5.1 C 6.36 g/m*3 5.1 C 1.6 km/h
1968 28-11-2014 05:00:00 5 C 6.32 g/m*3 5 C 0 km/h
1969 28-11-2014 05:05:00 5 C 6.32 g/m*3 5 C 1.6 km/h
1970 28-11-2014 05:10:00 4.9 C 6.28 g/m*3 4.9 C 0 km/h
1971 28-11-2014 05:15:00 4.9 C 6.28 g/m*3 4.9 C 0 km/h
1972 28-11-2014 05:20:00 4.9 C 6.35 g/m*3 4.9 C 1.6 km/h
1973 28-11-2014 05:25:00 4.9 C 6.35 g/m*3 4.9 C 0 km/h
1974 28-11-2014 05:30:00 4.9 C 6.35 g/m*3 4.9 C 0 km/h
1975 28-11-2014 05:35:00 4.8 C 6.3 g/m*3 4.8 C 1.6 km/h
Sensor: Nr:Datum:Temp:Abs-Feuchte:Windchill:Wind:
Aussen-T/F 1976 28-11-2014 05:40:00 4.8 C 6.3 g/m*3 4.8 C 0 km/h
1977 28-11-2014 05:45:00 4.8 C 6.3 g/m*3 4.8 C 0 km/h
1978 28-11-2014 05:50:00 4.8 C 6.3 g/m*3 4.8 C 1.6 km/h
1979 28-11-2014 05:55:00 4.8 C 6.3 g/m*3 4.8 C 0 km/h
1980 28-11-2014 06:00:00 4.8 C 6.3 g/m*3 4.8 C 1.6 km/h
1981 28-11-2014 06:05:00 4.8 C 6.3 g/m*3 4.8 C 0 km/h
1982 28-11-2014 06:10:00 4.8 C 6.3 g/m*3 4.8 C 0 km/h
1983 28-11-2014 06:15:00 4.8 C 6.3 g/m*3 4.8 C 0 km/h
1984 28-11-2014 06:20:00 4.8 C 6.3 g/m*3 4.8 C 0 km/h
1985 28-11-2014 06:25:00 4.7 C 6.26 g/m*3 4.7 C 1.6 km/h
1986 28-11-2014 06:30:00 4.7 C 6.26 g/m*3 4.7 C 3.2 km/h
1987 28-11-2014 06:35:00 4.7 C 6.26 g/m*3 4.7 C 0 km/h
1988 28-11-2014 06:40:00 4.7 C 6.19 g/m*3 4.7 C 1.6 km/h
1989 28-11-2014 06:45:00 4.8 C 6.3 g/m*3 4.8 C 0 km/h
1990 28-11-2014 06:50:00 4.7 C 6.19 g/m*3 4.7 C 3.2 km/h
1991 28-11-2014 06:55:00 4.7 C 6.19 g/m*3 4.7 C 0 km/h
1992 28-11-2014 07:00:00 4.8 C 6.24 g/m*3 4.8 C 0 km/h
1993 28-11-2014 07:05:00 4.8 C 6.24 g/m*3 4.8 C 0 km/h
1994 28-11-2014 07:10:00 4.8 C 6.24 g/m*3 4.8 C 0 km/h
1995 28-11-2014 07:15:00 4.8 C 6.24 g/m*3 4.8 C 0 km/h
1996 28-11-2014 07:20:00 4.8 C 6.24 g/m*3 4.8 C 0 km/h
1997 28-11-2014 07:25:00 4.9 C 6.28 g/m*3 4.9 C 0 km/h
1998 28-11-2014 07:30:00 4.9 C 6.28 g/m*3 4.9 C 3.2 km/h
1999 28-11-2014 07:35:00 4.9 C 6.28 g/m*3 4.9 C 3.2 km/h
2000 28-11-2014 07:40:00 4.9 C 6.28 g/m*3 4.9 C 3.2 km/h
Sensor: Nr:Datum:Temp:Abs-Feuchte:Windchill:Wind:
Aussen-T/F 2001 28-11-2014 07:45:00 4.9 C 6.28 g/m*3 3.48 C 6.4 km/h
2002 28-11-2014 07:50:00 4.9 C 6.21 g/m*3 4.9 C 4.8 km/h
2003 28-11-2014 07:55:00 5 C 6.25 g/m*3 5 C 1.6 km/h
2004 28-11-2014 08:00:00 5.1 C 6.29 g/m*3 5.1 C 1.6 km/h
2005 28-11-2014 08:05:00 5.1 C 6.29 g/m*3 5.1 C 3.2 km/h
2006 28-11-2014 08:10:00 5 C 6.25 g/m*3 5 C 1.6 km/h
2007 28-11-2014 08:15:00 4.9 C 6.28 g/m*3 4.9 C 0 km/h
2008 28-11-2014 08:20:00 4.9 C 6.28 g/m*3 4.9 C 1.6 km/h
2009 28-11-2014 08:25:00 4.9 C 6.28 g/m*3 4.9 C 0 km/h
2010 28-11-2014 08:30:00 4.8 C 6.24 g/m*3 4.8 C 1.6 km/h
2011 28-11-2014 08:35:00 4.8 C 6.24 g/m*3 4.8 C 0 km/h
2012 28-11-2014 08:40:00 4.9 C 6.35 g/m*3 4.9 C 3.2 km/h
2013 28-11-2014 08:45:00 4.9 C 6.28 g/m*3 4.9 C 3.2 km/h
2014 28-11-2014 08:50:00 5.1 C 6.36 g/m*3 5.1 C 1.6 km/h
2015 28-11-2014 08:55:00 5.2 C 6.4 g/m*3 3.82 C 6.4 km/h
2016 28-11-2014 09:00:00 5.2 C 6.4 g/m*3 5.2 C 3.2 km/h
2017 28-11-2014 09:05:00 5.2 C 6.4 g/m*3 5.2 C 0 km/h
2018 28-11-2014 09:25:00 5.6 C 6.43 g/m*3 4.29 C 6.4 km/h
2019 28-11-2014 09:30:00 5.7 C 6.48 g/m*3 5.7 C 3.2 km/h
2020 28-11-2014 09:35:00 5.7 C 6.4 g/m*3 5.7 C 1.6 km/h
2021 28-11-2014 09:40:00 5.7 C 6.48 g/m*3 3.56 C 9.7 km/h
2022 28-11-2014 09:45:00 5.7 C 6.48 g/m*3 4.4 C 6.4 km/h
2023 28-11-2014 09:50:00 5.8 C 6.52 g/m*3 5.8 C 3.2 km/h
2024 28-11-2014 09:55:00 5.8 C 6.52 g/m*3 5.8 C 4.8 km/h
2025 28-11-2014 10:00:00 5.8 C 6.52 g/m*3 4.05 C 8.1 km/h
Sensor: Nr:Datum:Temp:Abs-Feuchte:Windchill:Wind:
Aussen-T/F 2026 28-11-2014 10:05:00 5.9 C 6.56 g/m*3 5.9 C 1.6 km/h
2027 28-11-2014 10:10:00 5.9 C 6.56 g/m*3 5.9 C 3.2 km/h
2028 28-11-2014 10:15:00 6.1 C 6.65 g/m*3 4.4 C 8.1 km/h
2029 28-11-2014 10:20:00 6.1 C 6.65 g/m*3 6.1 C 3.2 km/h
2030 28-11-2014 10:25:00 6.2 C 6.62 g/m*3 6.2 C 4.8 km/h
2031 28-11-2014 10:30:00 6.2 C 6.62 g/m*3 6.2 C 3.2 km/h
2032 28-11-2014 10:35:00 6.2 C 6.69 g/m*3 4.15 C 9.7 km/h
2033 28-11-2014 10:40:00 6.2 C 6.62 g/m*3 6.2 C 3.2 km/h
2034 28-11-2014 10:45:00 6.2 C 6.62 g/m*3 6.2 C 4.8 km/h
2035 28-11-2014 10:50:00 6.2 C 6.62 g/m*3 6.2 C 4.8 km/h
2036 28-11-2014 10:55:00 6.2 C 6.62 g/m*3 4.98 C 6.4 km/h
2037 28-11-2014 11:00:00 6.2 C 6.62 g/m*3 6.2 C 4.8 km/h
2038 28-11-2014 11:05:00 6.2 C 6.62 g/m*3 4.15 C 9.7 km/h
2039 28-11-2014 11:10:00 6.2 C 6.62 g/m*3 6.2 C 4.8 km/h
2040 28-11-2014 11:15:00 6.2 C 6.55 g/m*3 6.2 C 3.2 km/h
2041 28-11-2014 11:20:00 6.2 C 6.55 g/m*3 6.2 C 4.8 km/h
2042 28-11-2014 11:25:00 6.2 C 6.62 g/m*3 6.2 C 4.8 km/h
2043 28-11-2014 11:30:00 6.2 C 6.62 g/m*3 6.2 C 3.2 km/h
2044 28-11-2014 11:35:00 6.2 C 6.62 g/m*3 6.2 C 4.8 km/h
2045 28-11-2014 11:40:00 6.2 C 6.62 g/m*3 6.2 C 1.6 km/h
2046 28-11-2014 11:45:00 6.2 C 6.62 g/m*3 6.2 C 3.2 km/h
2047 28-11-2014 11:50:00 6.2 C 6.62 g/m*3 6.2 C 3.2 km/h
2048 28-11-2014 12:10:00 6.5 C 7.5 g/m*3 5.33 C 6.4 km/h
2049 28-11-2014 12:15:00 6.5 C 7.5 g/m*3 6.5 C 4.8 km/h
2050 28-11-2014 16:10:00 5.6 C 6.36 g/m*3 3.81 C 8.1 km/h
Sensor: Nr:Datum:Temp:Abs-Feuchte:Windchill:Wind:
Aussen-T/F 2051 28-11-2014 16:15:00 5.6 C 6.36 g/m*3 3.81 C 8.1 km/h
2052 28-11-2014 16:20:00 5.6 C 6.36 g/m*3 3.11 C 11.3 km/h
2053 28-11-2014 16:25:00 5.5 C 6.32 g/m*3 5.5 C 3.2 km/h
2054 28-11-2014 16:30:00 5.5 C 6.32 g/m*3 5.5 C 3.2 km/h
2055 28-11-2014 16:35:00 5.5 C 6.39 g/m*3 5.5 C 3.2 km/h
2056 28-11-2014 16:40:00 5.5 C 6.32 g/m*3 5.5 C 3.2 km/h
2057 28-11-2014 16:45:00 5.5 C 6.32 g/m*3 5.5 C 3.2 km/h
2058 28-11-2014 16:50:00 5.5 C 6.32 g/m*3 5.5 C 3.2 km/h
2059 28-11-2014 16:55:00 5.5 C 6.32 g/m*3 5.5 C 3.2 km/h
2060 28-11-2014 17:00:00 5.5 C 6.32 g/m*3 5.5 C 1.6 km/h
2061 28-11-2014 17:05:00 5.5 C 6.32 g/m*3 4.17 C 6.4 km/h
2062 28-11-2014 17:10:00 5.5 C 6.32 g/m*3 4.17 C 6.4 km/h
2063 28-11-2014 17:15:00 5.5 C 6.32 g/m*3 3.32 C 9.7 km/h
2064 28-11-2014 17:20:00 5.5 C 6.32 g/m*3 5.5 C 3.2 km/h
2065 28-11-2014 17:25:00 5.5 C 6.32 g/m*3 5.5 C 4.8 km/h
2066 28-11-2014 17:30:00 5.5 C 6.32 g/m*3 4.17 C 6.4 km/h
2067 28-11-2014 17:35:00 5.5 C 6.32 g/m*3 4.17 C 6.4 km/h
2068 28-11-2014 17:40:00 5.5 C 6.32 g/m*3 5.5 C 3.2 km/h
2069 28-11-2014 17:45:00 5.5 C 6.32 g/m*3 5.5 C 3.2 km/h
2070 28-11-2014 17:50:00 5.5 C 6.39 g/m*3 5.5 C 3.2 km/h
2071 28-11-2014 17:55:00 5.5 C 6.39 g/m*3 5.5 C 1.6 km/h
2072 28-11-2014 18:00:00 5.5 C 6.39 g/m*3 5.5 C 1.6 km/h
2073 28-11-2014 18:05:00 5.5 C 6.39 g/m*3 5.5 C 4.8 km/h
2074 28-11-2014 18:10:00 5.5 C 6.39 g/m*3 5.5 C 1.6 km/h
2075 28-11-2014 18:15:00 5.5 C 6.39 g/m*3 5.5 C 1.6 km/h
Sensor: Nr:Datum:Temp:Abs-Feuchte:Windchill:Wind:
Aussen-T/F 2076 28-11-2014 18:20:00 5.5 C 6.32 g/m*3 5.5 C 4.8 km/h
2077 28-11-2014 18:25:00 5.5 C 6.32 g/m*3 5.5 C 3.2 km/h
2078 28-11-2014 18:30:00 5.4 C 6.28 g/m*3 5.4 C 3.2 km/h
2079 28-11-2014 18:35:00 5.4 C 6.28 g/m*3 5.4 C 3.2 km/h
2080 28-11-2014 18:40:00 5.4 C 6.28 g/m*3 5.4 C 3.2 km/h
2081 28-11-2014 18:45:00 5.4 C 6.28 g/m*3 5.4 C 4.8 km/h
2082 28-11-2014 18:50:00 5.4 C 6.28 g/m*3 5.4 C 4.8 km/h
2083 28-11-2014 18:55:00 5.4 C 6.28 g/m*3 5.4 C 3.2 km/h
2084 28-11-2014 19:00:00 5.4 C 6.28 g/m*3 5.4 C 1.6 km/h
2085 28-11-2014 19:05:00 5.4 C 6.28 g/m*3 5.4 C 3.2 km/h
2086 28-11-2014 19:10:00 5.4 C 6.28 g/m*3 5.4 C 3.2 km/h
2087 28-11-2014 19:15:00 5.4 C 6.28 g/m*3 5.4 C 3.2 km/h
2088 28-11-2014 19:20:00 5.4 C 6.28 g/m*3 5.4 C 1.6 km/h
2089 28-11-2014 19:25:00 5.4 C 6.28 g/m*3 5.4 C 4.8 km/h
2090 28-11-2014 19:30:00 5.4 C 6.28 g/m*3 4.06 C 6.4 km/h
2091 28-11-2014 19:35:00 5.4 C 6.28 g/m*3 5.4 C 4.8 km/h
2092 28-11-2014 19:40:00 5.4 C 6.28 g/m*3 5.4 C 4.8 km/h
2093 28-11-2014 19:45:00 5.4 C 6.28 g/m*3 4.06 C 6.4 km/h
2094 28-11-2014 19:50:00 5.4 C 6.28 g/m*3 5.4 C 4.8 km/h
2095 28-11-2014 19:55:00 5.5 C 6.39 g/m*3 5.5 C 3.2 km/h
2096 28-11-2014 20:00:00 5.5 C 6.32 g/m*3 5.5 C 3.2 km/h
2097 28-11-2014 20:05:00 5.5 C 6.32 g/m*3 5.5 C 3.2 km/h
2098 28-11-2014 20:10:00 5.5 C 6.32 g/m*3 5.5 C 1.6 km/h
2099 28-11-2014 20:15:00 5.5 C 6.32 g/m*3 5.5 C 4.8 km/h
2100 28-11-2014 20:20:00 5.6 C 6.36 g/m*3 5.6 C 1.6 km/h
Sensor: Nr:Datum:Temp:Abs-Feuchte:Windchill:Wind:
Aussen-T/F 2101 28-11-2014 20:25:00 5.6 C 6.36 g/m*3 5.6 C 4.8 km/h
2102 28-11-2014 20:30:00 5.6 C 6.36 g/m*3 5.6 C 3.2 km/h
2103 28-11-2014 20:35:00 5.6 C 6.36 g/m*3 5.6 C 1.6 km/h
2104 28-11-2014 20:40:00 5.6 C 6.36 g/m*3 5.6 C 3.2 km/h
2105 28-11-2014 20:45:00 5.6 C 6.36 g/m*3 5.6 C 4.8 km/h
2106 28-11-2014 20:50:00 5.6 C 6.36 g/m*3 5.6 C 3.2 km/h
2107 28-11-2014 20:55:00 5.6 C 6.36 g/m*3 5.6 C 4.8 km/h
2108 28-11-2014 21:00:00 5.6 C 6.36 g/m*3 5.6 C 4.8 km/h
2109 28-11-2014 21:05:00 5.6 C 6.36 g/m*3 5.6 C 1.6 km/h
2110 28-11-2014 21:10:00 5.6 C 6.36 g/m*3 5.6 C 3.2 km/h
2111 28-11-2014 21:15:00 5.6 C 6.36 g/m*3 5.6 C 0 km/h
2112 28-11-2014 21:20:00 5.6 C 6.36 g/m*3 5.6 C 3.2 km/h
2113 28-11-2014 21:25:00 5.6 C 6.36 g/m*3 5.6 C 3.2 km/h
2114 28-11-2014 21:30:00 5.6 C 6.43 g/m*3 5.6 C 3.2 km/h
2115 28-11-2014 21:35:00 5.6 C 6.36 g/m*3 5.6 C 1.6 km/h
2116 28-11-2014 21:40:00 5.5 C 6.32 g/m*3 5.5 C 1.6 km/h
2117 28-11-2014 21:45:00 5.5 C 6.32 g/m*3 4.17 C 6.4 km/h
2118 28-11-2014 21:50:00 5.5 C 6.32 g/m*3 5.5 C 3.2 km/h
2119 28-11-2014 21:55:00 5.5 C 6.25 g/m*3 4.17 C 6.4 km/h
2120 28-11-2014 22:00:00 5.5 C 6.32 g/m*3 4.17 C 6.4 km/h
2121 28-11-2014 22:05:00 5.4 C 6.28 g/m*3 4.06 C 6.4 km/h
2122 28-11-2014 22:10:00 5.4 C 6.28 g/m*3 5.4 C 1.6 km/h
2123 28-11-2014 22:15:00 5.4 C 6.28 g/m*3 5.4 C 1.6 km/h
2124 28-11-2014 22:20:00 5.4 C 6.28 g/m*3 5.4 C 3.2 km/h
2125 28-11-2014 22:25:00 5.4 C 6.28 g/m*3 4.06 C 6.4 km/h
Sensor: Nr:Datum:Temp:Abs-Feuchte:Windchill:Wind:
Aussen-T/F 2126 28-11-2014 22:30:00 5.4 C 6.28 g/m*3 5.4 C 4.8 km/h
2127 28-11-2014 22:35:00 5.4 C 6.28 g/m*3 5.4 C 3.2 km/h
2128 28-11-2014 22:40:00 5.4 C 6.28 g/m*3 5.4 C 4.8 km/h
2129 28-11-2014 22:45:00 5.3 C 6.24 g/m*3 5.3 C 4.8 km/h
2130 28-11-2014 22:50:00 5.3 C 6.24 g/m*3 5.3 C 3.2 km/h
2131 28-11-2014 22:55:00 5.3 C 6.24 g/m*3 3.94 C 6.4 km/h
2132 28-11-2014 23:00:00 5.3 C 6.24 g/m*3 3.08 C 9.7 km/h
2133 28-11-2014 23:05:00 5.3 C 6.24 g/m*3 3.08 C 9.7 km/h
2134 28-11-2014 23:10:00 5.3 C 6.24 g/m*3 3.46 C 8.1 km/h
2135 28-11-2014 23:15:00 5.3 C 6.24 g/m*3 3.46 C 8.1 km/h
2136 28-11-2014 23:20:00 5.3 C 6.24 g/m*3 5.3 C 3.2 km/h
2137 28-11-2014 23:25:00 5.3 C 6.17 g/m*3 5.3 C 1.6 km/h
2138 28-11-2014 23:30:00 5.3 C 6.17 g/m*3 3.08 C 9.7 km/h
2139 28-11-2014 23:35:00 5.3 C 6.24 g/m*3 5.3 C 3.2 km/h
2140 28-11-2014 23:40:00 5.3 C 6.17 g/m*3 5.3 C 0 km/h
2141 28-11-2014 23:45:00 5.2 C 6.2 g/m*3 5.2 C 4.8 km/h
2142 28-11-2014 23:50:00 5.2 C 6.2 g/m*3 3.82 C 6.4 km/h
2143 28-11-2014 23:55:00 5.2 C 6.2 g/m*3 5.2 C 1.6 km/h
2144 29-11-2014 00:00:00 5.2 C 6.2 g/m*3 5.2 C 4.8 km/h
2145 29-11-2014 00:05:00 5.2 C 6.2 g/m*3 5.2 C 3.2 km/h
2146 29-11-2014 00:10:00 5.2 C 6.2 g/m*3 5.2 C 3.2 km/h
2147 29-11-2014 00:15:00 5.2 C 6.2 g/m*3 5.2 C 0 km/h
2148 29-11-2014 00:20:00 5.1 C 6.16 g/m*3 5.1 C 4.8 km/h
2149 29-11-2014 00:25:00 5.1 C 6.16 g/m*3 5.1 C 3.2 km/h
2150 29-11-2014 00:30:00 5.1 C 6.16 g/m*3 3.23 C 8.1 km/h
Sensor: Nr:Datum:Temp:Abs-Feuchte:Windchill:Wind:
Aussen-T/F 2151 29-11-2014 00:35:00 5.1 C 6.16 g/m*3 5.1 C 4.8 km/h
2152 29-11-2014 00:40:00 5.1 C 6.16 g/m*3 3.23 C 8.1 km/h
2153 29-11-2014 00:45:00 5.1 C 6.16 g/m*3 5.1 C 3.2 km/h
2154 29-11-2014 00:50:00 5 C 6.12 g/m*3 3.59 C 6.4 km/h
2155 29-11-2014 00:55:00 5 C 6.12 g/m*3 5 C 4.8 km/h
2156 29-11-2014 01:00:00 5 C 6.12 g/m*3 3.59 C 6.4 km/h
2157 29-11-2014 01:05:00 5 C 6.12 g/m*3 3.11 C 8.1 km/h
2158 29-11-2014 01:10:00 5 C 6.12 g/m*3 3.59 C 6.4 km/h
2159 29-11-2014 01:15:00 5 C 6.12 g/m*3 5 C 1.6 km/h
2160 29-11-2014 01:20:00 5 C 6.12 g/m*3 5 C 3.2 km/h
2161 29-11-2014 01:25:00 4.9 C 6.08 g/m*3 4.9 C 4.8 km/h
2162 29-11-2014 01:30:00 4.9 C 6.08 g/m*3 4.9 C 3.2 km/h
2163 29-11-2014 01:35:00 4.9 C 6.08 g/m*3 3.48 C 6.4 km/h
2164 29-11-2014 01:40:00 4.9 C 6.08 g/m*3 4.9 C 0 km/h
2165 29-11-2014 01:45:00 4.9 C 6.08 g/m*3 4.9 C 4.8 km/h
2166 29-11-2014 01:50:00 4.9 C 6.08 g/m*3 3.48 C 6.4 km/h
2167 29-11-2014 01:55:00 4.9 C 6.08 g/m*3 2.99 C 8.1 km/h
2168 29-11-2014 02:00:00 4.8 C 5.97 g/m*3 4.8 C 3.2 km/h
2169 29-11-2014 02:05:00 4.8 C 5.97 g/m*3 4.8 C 4.8 km/h
2170 29-11-2014 02:10:00 4.8 C 5.97 g/m*3 4.8 C 4.8 km/h
2171 29-11-2014 02:15:00 4.8 C 6.04 g/m*3 2.49 C 9.7 km/h
2172 29-11-2014 02:20:00 4.8 C 6.04 g/m*3 3.36 C 6.4 km/h
2173 29-11-2014 02:25:00 4.7 C 5.93 g/m*3 4.7 C 3.2 km/h
2174 29-11-2014 02:30:00 4.7 C 5.93 g/m*3 4.7 C 3.2 km/h
2175 29-11-2014 02:35:00 4.8 C 5.97 g/m*3 3.36 C 6.4 km/h
Sensor: Nr:Datum:Temp:Abs-Feuchte:Windchill:Wind:
Aussen-T/F 2176 29-11-2014 02:40:00 4.7 C 5.93 g/m*3 4.7 C 4.8 km/h
2177 29-11-2014 02:45:00 4.8 C 5.97 g/m*3 3.36 C 6.4 km/h
2178 29-11-2014 02:50:00 4.7 C 5.93 g/m*3 4.7 C 3.2 km/h
2179 29-11-2014 02:55:00 4.7 C 6 g/m*3 4.7 C 4.8 km/h
2180 29-11-2014 03:00:00 4.7 C 6 g/m*3 4.7 C 4.8 km/h
2181 29-11-2014 03:05:00 4.6 C 5.89 g/m*3 3.13 C 6.4 km/h
2182 29-11-2014 03:10:00 4.6 C 5.96 g/m*3 2.64 C 8.1 km/h
2183 29-11-2014 03:15:00 4.6 C 5.89 g/m*3 4.6 C 3.2 km/h
2184 29-11-2014 03:20:00 4.6 C 5.96 g/m*3 3.13 C 6.4 km/h
2185 29-11-2014 03:25:00 4.6 C 5.96 g/m*3 3.13 C 6.4 km/h
2186 29-11-2014 03:30:00 4.5 C 5.85 g/m*3 3.02 C 6.4 km/h
2187 29-11-2014 03:35:00 4.5 C 5.85 g/m*3 4.5 C 1.6 km/h
2188 29-11-2014 03:40:00 4.5 C 5.85 g/m*3 4.5 C 1.6 km/h
2189 29-11-2014 03:45:00 4.5 C 5.85 g/m*3 3.02 C 6.4 km/h
2190 29-11-2014 03:50:00 4.5 C 5.92 g/m*3 4.5 C 4.8 km/h
2191 29-11-2014 03:55:00 4.4 C 5.88 g/m*3 4.4 C 0 km/h
2192 29-11-2014 04:00:00 4.4 C 5.88 g/m*3 4.4 C 0 km/h
2193 29-11-2014 04:05:00 4.4 C 5.88 g/m*3 4.4 C 3.2 km/h
2194 29-11-2014 04:10:00 4.4 C 5.88 g/m*3 4.4 C 0 km/h
2195 29-11-2014 04:15:00 4.4 C 5.88 g/m*3 4.4 C 1.6 km/h
2196 29-11-2014 04:20:00 4.4 C 5.88 g/m*3 4.4 C 0 km/h
2197 29-11-2014 04:25:00 4.5 C 5.92 g/m*3 4.5 C 3.2 km/h
2198 29-11-2014 04:30:00 4.5 C 5.92 g/m*3 4.5 C 1.6 km/h
2199 29-11-2014 04:35:00 4.4 C 5.88 g/m*3 4.4 C 0 km/h
2200 29-11-2014 04:40:00 4.5 C 5.92 g/m*3 4.5 C 1.6 km/h
Sensor: Nr:Datum:Temp:Abs-Feuchte:Windchill:Wind:
Aussen-T/F 2201 29-11-2014 04:45:00 4.5 C 5.92 g/m*3 4.5 C 4.8 km/h
2202 29-11-2014 04:50:00 4.4 C 5.81 g/m*3 4.4 C 3.2 km/h
2203 29-11-2014 04:55:00 4.4 C 5.81 g/m*3 4.4 C 1.6 km/h
2204 29-11-2014 05:00:00 4.4 C 5.81 g/m*3 4.4 C 3.2 km/h
2205 29-11-2014 05:05:00 4.4 C 5.81 g/m*3 4.4 C 0 km/h
2206 29-11-2014 05:10:00 4.4 C 5.81 g/m*3 4.4 C 3.2 km/h
2207 29-11-2014 05:15:00 4.4 C 5.81 g/m*3 4.4 C 3.2 km/h
2208 29-11-2014 05:20:00 4.4 C 5.81 g/m*3 4.4 C 1.6 km/h
2209 29-11-2014 05:25:00 4.4 C 5.81 g/m*3 4.4 C 4.8 km/h
2210 29-11-2014 05:30:00 4.4 C 5.81 g/m*3 4.4 C 1.6 km/h
2211 29-11-2014 05:35:00 4.4 C 5.81 g/m*3 2.9 C 6.4 km/h
2212 29-11-2014 05:40:00 4.4 C 5.81 g/m*3 4.4 C 3.2 km/h
2213 29-11-2014 05:45:00 4.3 C 5.77 g/m*3 4.3 C 3.2 km/h
2214 29-11-2014 05:50:00 4.3 C 5.77 g/m*3 4.3 C 1.6 km/h
2215 29-11-2014 05:55:00 4.3 C 5.77 g/m*3 4.3 C 1.6 km/h
2216 29-11-2014 06:00:00 4.3 C 5.77 g/m*3 4.3 C 3.2 km/h
2217 29-11-2014 06:05:00 4.3 C 5.77 g/m*3 4.3 C 4.8 km/h
2218 29-11-2014 06:10:00 4.3 C 5.84 g/m*3 4.3 C 4.8 km/h
2219 29-11-2014 06:15:00 4.3 C 5.84 g/m*3 4.3 C 3.2 km/h
2220 29-11-2014 06:20:00 4.3 C 5.84 g/m*3 4.3 C 3.2 km/h
2221 29-11-2014 06:25:00 4.3 C 5.77 g/m*3 4.3 C 0 km/h
2222 29-11-2014 06:30:00 4.3 C 5.84 g/m*3 4.3 C 1.6 km/h
2223 29-11-2014 06:35:00 4.3 C 5.84 g/m*3 4.3 C 4.8 km/h
2224 29-11-2014 06:40:00 4.2 C 5.73 g/m*3 4.2 C 1.6 km/h
2225 29-11-2014 06:45:00 4.2 C 5.8 g/m*3 4.2 C 1.6 km/h
Sensor: Nr:Datum:Temp:Abs-Feuchte:Windchill:Wind:
Aussen-T/F 2226 29-11-2014 06:50:00 4.3 C 5.84 g/m*3 4.3 C 4.8 km/h
2227 29-11-2014 06:55:00 4.3 C 5.84 g/m*3 4.3 C 3.2 km/h
2228 29-11-2014 07:00:00 4.2 C 5.8 g/m*3 4.2 C 1.6 km/h
2229 29-11-2014 07:05:00 4.2 C 5.8 g/m*3 4.2 C 3.2 km/h
2230 29-11-2014 07:10:00 4.2 C 5.8 g/m*3 4.2 C 3.2 km/h
2231 29-11-2014 07:15:00 4.2 C 5.8 g/m*3 4.2 C 4.8 km/h
2232 29-11-2014 07:20:00 4.2 C 5.8 g/m*3 4.2 C 1.6 km/h
2233 29-11-2014 07:25:00 4.2 C 5.8 g/m*3 4.2 C 3.2 km/h
2234 29-11-2014 07:30:00 4.2 C 5.8 g/m*3 4.2 C 0 km/h
2235 29-11-2014 07:35:00 4.2 C 5.8 g/m*3 4.2 C 1.6 km/h
2236 29-11-2014 07:40:00 4.2 C 5.8 g/m*3 4.2 C 1.6 km/h
2237 29-11-2014 07:45:00 4.2 C 5.8 g/m*3 4.2 C 3.2 km/h
2238 29-11-2014 07:50:00 4.1 C 5.76 g/m*3 4.1 C 3.2 km/h
2239 29-11-2014 07:55:00 4.1 C 5.76 g/m*3 4.1 C 3.2 km/h
2240 29-11-2014 08:00:00 4.1 C 5.76 g/m*3 4.1 C 4.8 km/h
2241 29-11-2014 08:05:00 4.1 C 5.76 g/m*3 4.1 C 4.8 km/h
2242 29-11-2014 08:10:00 4.1 C 5.76 g/m*3 4.1 C 4.8 km/h
2243 29-11-2014 08:15:00 4.1 C 5.76 g/m*3 2.55 C 6.4 km/h
2244 29-11-2014 08:20:00 4.1 C 5.76 g/m*3 4.1 C 3.2 km/h
2245 29-11-2014 08:40:00 4.2 C 5.8 g/m*3 4.2 C 3.2 km/h
2246 29-11-2014 08:45:00 4.1 C 5.76 g/m*3 4.1 C 1.6 km/h
2247 29-11-2014 08:50:00 4.2 C 5.8 g/m*3 4.2 C 3.2 km/h
2248 29-11-2014 08:55:00 4.2 C 5.8 g/m*3 4.2 C 0 km/h
2249 29-11-2014 09:00:00 4.2 C 5.8 g/m*3 4.2 C 1.6 km/h
2250 29-11-2014 09:05:00 4.2 C 5.8 g/m*3 4.2 C 1.6 km/h
Sensor: Nr:Datum:Temp:Abs-Feuchte:Windchill:Wind:
Aussen-T/F 2251 29-11-2014 09:10:00 4.2 C 5.8 g/m*3 2.67 C 6.4 km/h
2252 29-11-2014 09:15:00 4.2 C 5.73 g/m*3 4.2 C 4.8 km/h
2253 29-11-2014 09:20:00 4.2 C 5.8 g/m*3 4.2 C 3.2 km/h
2254 29-11-2014 09:25:00 4.2 C 5.8 g/m*3 4.2 C 0 km/h
2255 29-11-2014 09:30:00 4.2 C 5.8 g/m*3 2.67 C 6.4 km/h
2256 29-11-2014 09:35:00 4.2 C 5.8 g/m*3 1.77 C 9.7 km/h
2257 29-11-2014 09:40:00 4.2 C 5.8 g/m*3 4.2 C 4.8 km/h
2258 29-11-2014 09:45:00 4.2 C 5.8 g/m*3 4.2 C 3.2 km/h
2259 29-11-2014 09:50:00 4.2 C 5.73 g/m*3 4.2 C 1.6 km/h
2260 29-11-2014 09:55:00 4.2 C 5.73 g/m*3 2.67 C 6.4 km/h
2261 29-11-2014 10:00:00 4.2 C 5.73 g/m*3 4.2 C 1.6 km/h
2262 29-11-2014 10:05:00 4.2 C 5.73 g/m*3 4.2 C 4.8 km/h
2263 29-11-2014 10:10:00 4.2 C 5.73 g/m*3 2.67 C 6.4 km/h
2264 29-11-2014 10:15:00 4.2 C 5.8 g/m*3 2.67 C 6.4 km/h
2265 29-11-2014 10:20:00 4.2 C 5.73 g/m*3 4.2 C 3.2 km/h
2266 29-11-2014 10:25:00 4.2 C 5.73 g/m*3 4.2 C 4.8 km/h
2267 29-11-2014 10:30:00 4.2 C 5.73 g/m*3 4.2 C 4.8 km/h
2268 29-11-2014 10:35:00 4.3 C 5.77 g/m*3 2.29 C 8.1 km/h
2269 29-11-2014 10:40:00 4.3 C 5.77 g/m*3 2.78 C 6.4 km/h
2270 29-11-2014 10:45:00 4.2 C 5.73 g/m*3 2.67 C 6.4 km/h
2271 29-11-2014 10:50:00 4.3 C 5.77 g/m*3 2.78 C 6.4 km/h
2272 29-11-2014 10:55:00 4.3 C 5.77 g/m*3 4.3 C 1.6 km/h
2273 29-11-2014 11:00:00 4.3 C 5.77 g/m*3 4.3 C 4.8 km/h
2274 29-11-2014 11:05:00 4.3 C 5.77 g/m*3 2.78 C 6.4 km/h
2275 29-11-2014 11:10:00 4.3 C 5.77 g/m*3 2.78 C 6.4 km/h
Sensor: Nr:Datum:Temp:Abs-Feuchte:Windchill:Wind:
Aussen-T/F 2276 29-11-2014 11:15:00 4.4 C 5.81 g/m*3 4.4 C 3.2 km/h
2277 29-11-2014 11:20:00 4.4 C 5.81 g/m*3 4.4 C 4.8 km/h
2278 29-11-2014 11:25:00 4.4 C 5.81 g/m*3 4.4 C 1.6 km/h
2279 29-11-2014 11:30:00 4.4 C 5.81 g/m*3 2.9 C 6.4 km/h
2280 29-11-2014 11:35:00 4.4 C 5.81 g/m*3 2.9 C 6.4 km/h
2281 29-11-2014 11:40:00 4.5 C 5.85 g/m*3 4.5 C 4.8 km/h
2282 29-11-2014 11:45:00 4.5 C 5.85 g/m*3 4.5 C 4.8 km/h
2283 29-11-2014 11:50:00 4.5 C 5.78 g/m*3 4.5 C 4.8 km/h
2284 29-11-2014 11:55:00 4.6 C 5.89 g/m*3 4.6 C 3.2 km/h
2285 29-11-2014 12:00:00 4.6 C 5.89 g/m*3 2.25 C 9.7 km/h
2286 29-11-2014 12:05:00 4.6 C 5.82 g/m*3 3.13 C 6.4 km/h
2287 29-11-2014 12:10:00 4.6 C 5.82 g/m*3 4.6 C 0 km/h
2288 29-11-2014 12:15:00 4.6 C 5.89 g/m*3 4.6 C 3.2 km/h
2289 29-11-2014 12:20:00 4.7 C 5.86 g/m*3 4.7 C 0 km/h
2290 29-11-2014 12:25:00 4.7 C 5.86 g/m*3 4.7 C 1.6 km/h
2291 29-11-2014 12:30:00 4.7 C 5.86 g/m*3 4.7 C 1.6 km/h
2292 29-11-2014 12:35:00 4.7 C 5.86 g/m*3 4.7 C 0 km/h
2293 29-11-2014 12:40:00 4.7 C 5.86 g/m*3 4.7 C 3.2 km/h
2294 29-11-2014 12:45:00 4.7 C 5.86 g/m*3 3.25 C 6.4 km/h
2295 29-11-2014 12:50:00 4.7 C 5.86 g/m*3 4.7 C 4.8 km/h
2296 29-11-2014 12:55:00 4.7 C 5.86 g/m*3 4.7 C 3.2 km/h
2297 29-11-2014 13:00:00 4.7 C 5.86 g/m*3 4.7 C 1.6 km/h
2298 29-11-2014 13:05:00 4.7 C 5.86 g/m*3 4.7 C 4.8 km/h
2299 29-11-2014 13:10:00 4.8 C 5.97 g/m*3 4.8 C 4.8 km/h
2300 29-11-2014 13:15:00 4.8 C 5.9 g/m*3 3.36 C 6.4 km/h
Sensor: Nr:Datum:Temp:Abs-Feuchte:Windchill:Wind:
Aussen-T/F 2301 29-11-2014 13:20:00 4.8 C 5.9 g/m*3 4.8 C 1.6 km/h
2302 29-11-2014 13:25:00 4.8 C 5.9 g/m*3 4.8 C 3.2 km/h
2303 29-11-2014 13:30:00 4.8 C 5.9 g/m*3 3.36 C 6.4 km/h
2304 29-11-2014 13:35:00 4.8 C 5.9 g/m*3 4.8 C 4.8 km/h
2305 29-11-2014 13:40:00 4.8 C 5.9 g/m*3 4.8 C 3.2 km/h
2306 29-11-2014 13:45:00 4.8 C 5.9 g/m*3 4.8 C 1.6 km/h
2307 29-11-2014 13:50:00 4.8 C 5.9 g/m*3 4.8 C 3.2 km/h
2308 29-11-2014 13:55:00 4.8 C 5.83 g/m*3 4.8 C 4.8 km/h
2309 29-11-2014 14:00:00 4.8 C 5.9 g/m*3 4.8 C 3.2 km/h
2310 29-11-2014 14:05:00 4.8 C 5.9 g/m*3 4.8 C 1.6 km/h
2311 29-11-2014 14:10:00 4.8 C 5.9 g/m*3 4.8 C 3.2 km/h
2312 29-11-2014 14:15:00 4.8 C 5.9 g/m*3 4.8 C 4.8 km/h
2313 29-11-2014 14:20:00 4.8 C 5.9 g/m*3 4.8 C 3.2 km/h
2314 29-11-2014 14:25:00 4.8 C 5.9 g/m*3 4.8 C 3.2 km/h
2315 29-11-2014 14:30:00 4.8 C 5.9 g/m*3 4.8 C 4.8 km/h
2316 29-11-2014 14:35:00 4.8 C 5.9 g/m*3 4.8 C 1.6 km/h
2317 29-11-2014 14:40:00 4.8 C 5.9 g/m*3 4.8 C 4.8 km/h
2318 29-11-2014 14:45:00 4.8 C 5.97 g/m*3 4.8 C 4.8 km/h
2319 29-11-2014 14:50:00 4.8 C 5.9 g/m*3 2.15 C 11.3 km/h
2320 29-11-2014 14:55:00 4.7 C 5.86 g/m*3 4.7 C 3.2 km/h
2321 29-11-2014 15:00:00 4.7 C 5.86 g/m*3 3.25 C 6.4 km/h
2322 29-11-2014 15:05:00 4.7 C 5.93 g/m*3 4.7 C 3.2 km/h
2323 29-11-2014 15:10:00 4.7 C 5.93 g/m*3 4.7 C 4.8 km/h
2324 29-11-2014 15:15:00 4.7 C 5.93 g/m*3 4.7 C 3.2 km/h
2325 29-11-2014 15:20:00 4.7 C 5.93 g/m*3 4.7 C 1.6 km/h
Sensor: Nr:Datum:Temp:Abs-Feuchte:Windchill:Wind:
Aussen-T/F 2326 29-11-2014 15:25:00 4.7 C 5.86 g/m*3 4.7 C 1.6 km/h
2327 29-11-2014 15:30:00 4.7 C 5.93 g/m*3 4.7 C 3.2 km/h
2328 29-11-2014 15:35:00 4.7 C 5.93 g/m*3 4.7 C 1.6 km/h
2329 29-11-2014 15:40:00 4.7 C 5.93 g/m*3 4.7 C 1.6 km/h
2330 29-11-2014 15:45:00 4.7 C 5.93 g/m*3 4.7 C 0 km/h
2331 29-11-2014 15:50:00 4.7 C 5.93 g/m*3 4.7 C 1.6 km/h
2332 29-11-2014 15:55:00 4.7 C 5.93 g/m*3 4.7 C 3.2 km/h
2333 29-11-2014 16:00:00 4.7 C 5.93 g/m*3 4.7 C 3.2 km/h
2334 29-11-2014 16:05:00 4.7 C 5.93 g/m*3 4.7 C 1.6 km/h
2335 29-11-2014 16:10:00 4.6 C 5.89 g/m*3 4.6 C 1.6 km/h
2336 29-11-2014 16:15:00 4.6 C 5.89 g/m*3 4.6 C 0 km/h
2337 29-11-2014 16:20:00 4.6 C 5.89 g/m*3 4.6 C 3.2 km/h
2338 29-11-2014 16:25:00 4.6 C 5.89 g/m*3 4.6 C 3.2 km/h
2339 29-11-2014 16:30:00 4.6 C 5.96 g/m*3 4.6 C 4.8 km/h
2340 29-11-2014 16:35:00 4.6 C 5.96 g/m*3 4.6 C 3.2 km/h
2341 29-11-2014 16:40:00 4.6 C 5.96 g/m*3 4.6 C 1.6 km/h
2342 29-11-2014 16:45:00 4.6 C 5.96 g/m*3 4.6 C 3.2 km/h
2343 29-11-2014 16:50:00 4.6 C 5.96 g/m*3 4.6 C 0 km/h
2344 29-11-2014 16:55:00 4.6 C 5.96 g/m*3 4.6 C 0 km/h
2345 29-11-2014 17:00:00 4.6 C 5.96 g/m*3 4.6 C 0 km/h
2346 29-11-2014 17:05:00 4.6 C 5.96 g/m*3 4.6 C 0 km/h
2347 29-11-2014 17:10:00 4.6 C 5.96 g/m*3 4.6 C 0 km/h
2348 29-11-2014 17:15:00 4.6 C 5.96 g/m*3 4.6 C 0 km/h
2349 29-11-2014 17:20:00 4.6 C 5.96 g/m*3 4.6 C 0 km/h
2350 29-11-2014 17:25:00 4.6 C 5.96 g/m*3 4.6 C 0 km/h
Sensor: Nr:Datum:Temp:Abs-Feuchte:Windchill:Wind:
Aussen-T/F 2351 29-11-2014 17:30:00 4.6 C 5.96 g/m*3 4.6 C 0 km/h
2352 29-11-2014 17:35:00 4.6 C 5.96 g/m*3 4.6 C 0 km/h
2353 29-11-2014 17:40:00 4.6 C 5.96 g/m*3 4.6 C 1.6 km/h
2354 29-11-2014 17:45:00 4.6 C 5.96 g/m*3 4.6 C 3.2 km/h
2355 29-11-2014 17:50:00 4.5 C 5.85 g/m*3 4.5 C 3.2 km/h
2356 29-11-2014 17:55:00 4.5 C 5.85 g/m*3 4.5 C 1.6 km/h
2357 29-11-2014 18:00:00 4.5 C 5.92 g/m*3 4.5 C 1.6 km/h
2358 29-11-2014 18:05:00 4.5 C 5.85 g/m*3 4.5 C 1.6 km/h
2359 29-11-2014 18:10:00 4.5 C 5.85 g/m*3 4.5 C 0 km/h
2360 29-11-2014 18:15:00 4.5 C 5.85 g/m*3 4.5 C 1.6 km/h
2361 29-11-2014 18:20:00 4.5 C 5.85 g/m*3 4.5 C 3.2 km/h
2362 29-11-2014 18:25:00 4.5 C 5.85 g/m*3 4.5 C 1.6 km/h
2363 29-11-2014 18:30:00 4.5 C 5.85 g/m*3 4.5 C 4.8 km/h
2364 29-11-2014 18:35:00 4.4 C 5.81 g/m*3 4.4 C 1.6 km/h
2365 29-11-2014 18:40:00 4.4 C 5.81 g/m*3 4.4 C 4.8 km/h
2366 29-11-2014 18:45:00 4.4 C 5.81 g/m*3 2.9 C 6.4 km/h
2367 29-11-2014 18:50:00 4.4 C 5.81 g/m*3 4.4 C 0 km/h
2368 29-11-2014 18:55:00 4.3 C 5.77 g/m*3 4.3 C 1.6 km/h
2369 29-11-2014 19:00:00 4.3 C 5.77 g/m*3 4.3 C 0 km/h
2370 29-11-2014 19:05:00 4.3 C 5.77 g/m*3 4.3 C 1.6 km/h
2371 29-11-2014 19:10:00 4.3 C 5.77 g/m*3 4.3 C 1.6 km/h
2372 29-11-2014 19:15:00 4.3 C 5.77 g/m*3 4.3 C 0 km/h
2373 29-11-2014 19:20:00 4.3 C 5.77 g/m*3 4.3 C 1.6 km/h
2374 29-11-2014 19:25:00 4.3 C 5.77 g/m*3 4.3 C 3.2 km/h
2375 29-11-2014 19:30:00 4.3 C 5.77 g/m*3 4.3 C 1.6 km/h
Sensor: Nr:Datum:Temp:Abs-Feuchte:Windchill:Wind:
Aussen-T/F 2376 29-11-2014 19:35:00 4.3 C 5.84 g/m*3 4.3 C 4.8 km/h
2377 29-11-2014 19:40:00 4.3 C 5.84 g/m*3 4.3 C 4.8 km/h
2378 29-11-2014 19:45:00 4.3 C 5.84 g/m*3 4.3 C 4.8 km/h
2379 29-11-2014 19:50:00 4.3 C 5.84 g/m*3 4.3 C 1.6 km/h
2380 29-11-2014 19:55:00 4.3 C 5.84 g/m*3 4.3 C 0 km/h
2381 29-11-2014 20:00:00 4.3 C 5.84 g/m*3 4.3 C 1.6 km/h
2382 29-11-2014 20:05:00 4.3 C 5.84 g/m*3 4.3 C 1.6 km/h
2383 29-11-2014 20:10:00 4.3 C 5.84 g/m*3 4.3 C 1.6 km/h
2384 29-11-2014 20:15:00 4.2 C 5.8 g/m*3 4.2 C 4.8 km/h
2385 29-11-2014 20:20:00 4.2 C 5.8 g/m*3 4.2 C 3.2 km/h
2386 29-11-2014 20:25:00 4.3 C 5.84 g/m*3 4.3 C 0 km/h
2387 29-11-2014 20:30:00 4.3 C 5.84 g/m*3 4.3 C 1.6 km/h
2388 29-11-2014 20:35:00 4.3 C 5.84 g/m*3 4.3 C 3.2 km/h
2389 29-11-2014 20:40:00 4.3 C 5.84 g/m*3 4.3 C 3.2 km/h
2390 29-11-2014 20:45:00 4.2 C 5.8 g/m*3 4.2 C 3.2 km/h
2391 29-11-2014 20:50:00 4.2 C 5.8 g/m*3 2.67 C 6.4 km/h
2392 29-11-2014 20:55:00 4.2 C 5.8 g/m*3 2.17 C 8.1 km/h
2393 29-11-2014 21:00:00 4.2 C 5.8 g/m*3 4.2 C 3.2 km/h
2394 29-11-2014 21:05:00 4.2 C 5.8 g/m*3 4.2 C 3.2 km/h
2395 29-11-2014 21:10:00 4.2 C 5.8 g/m*3 4.2 C 3.2 km/h
2396 29-11-2014 21:15:00 4.2 C 5.8 g/m*3 4.2 C 0 km/h
2397 29-11-2014 21:20:00 4.2 C 5.8 g/m*3 4.2 C 1.6 km/h
2398 29-11-2014 21:25:00 4.2 C 5.8 g/m*3 4.2 C 4.8 km/h
2399 29-11-2014 21:30:00 4.2 C 5.8 g/m*3 4.2 C 0 km/h
2400 29-11-2014 21:35:00 4.2 C 5.8 g/m*3 4.2 C 1.6 km/h
Sensor: Nr:Datum:Temp:Abs-Feuchte:Windchill:Wind:
Aussen-T/F 2401 29-11-2014 21:40:00 4.2 C 5.8 g/m*3 2.67 C 6.4 km/h
2402 29-11-2014 21:45:00 4.1 C 5.76 g/m*3 4.1 C 4.8 km/h
2403 29-11-2014 21:50:00 4.1 C 5.76 g/m*3 4.1 C 1.6 km/h
2404 29-11-2014 21:55:00 4.1 C 5.76 g/m*3 4.1 C 1.6 km/h
2405 29-11-2014 22:00:00 4.1 C 5.76 g/m*3 4.1 C 3.2 km/h
2406 29-11-2014 22:05:00 4.1 C 5.76 g/m*3 4.1 C 1.6 km/h
2407 29-11-2014 22:10:00 4.1 C 5.76 g/m*3 4.1 C 3.2 km/h
2408 29-11-2014 22:15:00 4.1 C 5.76 g/m*3 4.1 C 0 km/h
2409 29-11-2014 22:20:00 4.1 C 5.76 g/m*3 4.1 C 0 km/h
2410 29-11-2014 22:25:00 4.1 C 5.76 g/m*3 4.1 C 1.6 km/h
2411 29-11-2014 22:30:00 4.1 C 5.76 g/m*3 4.1 C 1.6 km/h
2412 29-11-2014 22:35:00 4.1 C 5.76 g/m*3 4.1 C 3.2 km/h
2413 29-11-2014 22:40:00 4.1 C 5.76 g/m*3 4.1 C 4.8 km/h
2414 29-11-2014 22:45:00 4.1 C 5.76 g/m*3 4.1 C 1.6 km/h
2415 29-11-2014 22:50:00 4.1 C 5.76 g/m*3 4.1 C 1.6 km/h
2416 29-11-2014 22:55:00 4.1 C 5.76 g/m*3 4.1 C 0 km/h
2417 29-11-2014 23:00:00 4.1 C 5.76 g/m*3 4.1 C 3.2 km/h
2418 29-11-2014 23:05:00 4.1 C 5.76 g/m*3 4.1 C 4.8 km/h
2419 29-11-2014 23:10:00 4.1 C 5.76 g/m*3 4.1 C 1.6 km/h
2420 29-11-2014 23:15:00 4.1 C 5.76 g/m*3 4.1 C 3.2 km/h
2421 29-11-2014 23:20:00 4.1 C 5.76 g/m*3 4.1 C 0 km/h
2422 29-11-2014 23:25:00 4.1 C 5.76 g/m*3 4.1 C 0 km/h
2423 29-11-2014 23:30:00 4.1 C 5.76 g/m*3 4.1 C 4.8 km/h
2424 29-11-2014 23:35:00 4 C 5.72 g/m*3 4 C 3.2 km/h
2425 29-11-2014 23:40:00 4 C 5.72 g/m*3 4 C 3.2 km/h
Sensor: Nr:Datum:Temp:Abs-Feuchte:Windchill:Wind:
Aussen-T/F 2426 29-11-2014 23:45:00 4 C 5.72 g/m*3 4 C 1.6 km/h
2427 29-11-2014 23:50:00 4 C 5.72 g/m*3 4 C 0 km/h
2428 29-11-2014 23:55:00 3.9 C 5.68 g/m*3 3.9 C 4.8 km/h
2429 30-11-2014 00:00:00 3.9 C 5.68 g/m*3 2.32 C 6.4 km/h
2430 30-11-2014 00:05:00 3.9 C 5.68 g/m*3 3.9 C 0 km/h
2431 30-11-2014 00:10:00 3.9 C 5.68 g/m*3 3.9 C 0 km/h
2432 30-11-2014 00:15:00 3.9 C 5.68 g/m*3 3.9 C 1.6 km/h
2433 30-11-2014 00:20:00 3.9 C 5.68 g/m*3 3.9 C 0 km/h
2434 30-11-2014 00:25:00 3.9 C 5.68 g/m*3 3.9 C 3.2 km/h
2435 30-11-2014 00:30:00 3.9 C 5.68 g/m*3 3.9 C 0 km/h
2436 30-11-2014 00:35:00 3.9 C 5.68 g/m*3 3.9 C 1.6 km/h
2437 30-11-2014 00:40:00 3.9 C 5.68 g/m*3 2.32 C 6.4 km/h
2438 30-11-2014 00:45:00 3.9 C 5.68 g/m*3 3.9 C 1.6 km/h
2439 30-11-2014 00:50:00 3.9 C 5.68 g/m*3 3.9 C 1.6 km/h
2440 30-11-2014 00:55:00 3.9 C 5.68 g/m*3 3.9 C 1.6 km/h
2441 30-11-2014 01:00:00 3.9 C 5.68 g/m*3 3.9 C 0 km/h
2442 30-11-2014 01:05:00 3.9 C 5.68 g/m*3 3.9 C 1.6 km/h
2443 30-11-2014 01:10:00 3.9 C 5.68 g/m*3 3.9 C 3.2 km/h
2444 30-11-2014 01:15:00 3.9 C 5.68 g/m*3 3.9 C 3.2 km/h
2445 30-11-2014 01:20:00 3.9 C 5.68 g/m*3 3.9 C 3.2 km/h
2446 30-11-2014 01:25:00 3.9 C 5.68 g/m*3 3.9 C 0 km/h
2447 30-11-2014 01:30:00 3.9 C 5.75 g/m*3 3.9 C 0 km/h
2448 30-11-2014 01:35:00 3.9 C 5.68 g/m*3 3.9 C 3.2 km/h
2449 30-11-2014 01:40:00 3.9 C 5.68 g/m*3 3.9 C 4.8 km/h
2450 30-11-2014 01:45:00 3.9 C 5.68 g/m*3 3.9 C 1.6 km/h
Sensor: Nr:Datum:Temp:Abs-Feuchte:Windchill:Wind:
Aussen-T/F 2451 30-11-2014 01:50:00 3.9 C 5.68 g/m*3 3.9 C 0 km/h
2452 30-11-2014 01:55:00 3.9 C 5.68 g/m*3 3.9 C 0 km/h
2453 30-11-2014 02:00:00 3.9 C 5.75 g/m*3 3.9 C 0 km/h
2454 30-11-2014 02:05:00 3.9 C 5.75 g/m*3 3.9 C 1.6 km/h
2455 30-11-2014 02:10:00 3.9 C 5.68 g/m*3 3.9 C 0 km/h
2456 30-11-2014 02:15:00 3.9 C 5.75 g/m*3 3.9 C 0 km/h
2457 30-11-2014 02:20:00 4 C 5.79 g/m*3 4 C 0 km/h
2458 30-11-2014 02:25:00 4 C 5.79 g/m*3 4 C 1.6 km/h
2459 30-11-2014 02:30:00 4 C 5.79 g/m*3 4 C 1.6 km/h
2460 30-11-2014 02:35:00 3.9 C 5.68 g/m*3 3.9 C 0 km/h
2461 30-11-2014 02:40:00 3.9 C 5.68 g/m*3 3.9 C 1.6 km/h
2462 30-11-2014 02:45:00 3.9 C 5.68 g/m*3 3.9 C 1.6 km/h
2463 30-11-2014 02:50:00 4 C 5.72 g/m*3 4 C 1.6 km/h
2464 30-11-2014 02:55:00 4 C 5.79 g/m*3 4 C 0 km/h
2465 30-11-2014 03:00:00 4 C 5.79 g/m*3 4 C 0 km/h
2466 30-11-2014 03:05:00 4 C 5.79 g/m*3 4 C 0 km/h
2467 30-11-2014 03:10:00 4 C 5.79 g/m*3 4 C 0 km/h
2468 30-11-2014 03:15:00 4 C 5.79 g/m*3 4 C 0 km/h
2469 30-11-2014 03:20:00 4 C 5.79 g/m*3 4 C 3.2 km/h
2470 30-11-2014 03:25:00 4 C 5.79 g/m*3 4 C 3.2 km/h
2471 30-11-2014 03:30:00 4 C 5.79 g/m*3 4 C 0 km/h
2472 30-11-2014 03:35:00 4 C 5.79 g/m*3 4 C 1.6 km/h
2473 30-11-2014 03:40:00 3.9 C 5.75 g/m*3 3.9 C 3.2 km/h
2474 30-11-2014 03:45:00 4 C 5.79 g/m*3 4 C 1.6 km/h
2475 30-11-2014 03:50:00 3.9 C 5.75 g/m*3 3.9 C 1.6 km/h
Sensor: Nr:Datum:Temp:Abs-Feuchte:Windchill:Wind:
Aussen-T/F 2476 30-11-2014 03:55:00 3.9 C 5.75 g/m*3 3.9 C 0 km/h
2477 30-11-2014 04:00:00 3.9 C 5.75 g/m*3 3.9 C 0 km/h
2478 30-11-2014 04:05:00 3.9 C 5.75 g/m*3 3.9 C 0 km/h
2479 30-11-2014 04:10:00 3.9 C 5.75 g/m*3 3.9 C 0 km/h
2480 30-11-2014 04:15:00 3.9 C 5.75 g/m*3 3.9 C 0 km/h
2481 30-11-2014 04:20:00 3.9 C 5.75 g/m*3 3.9 C 0 km/h
2482 30-11-2014 04:25:00 3.9 C 5.75 g/m*3 3.9 C 0 km/h
2483 30-11-2014 04:30:00 4 C 5.79 g/m*3 4 C 0 km/h
2484 30-11-2014 04:35:00 3.9 C 5.75 g/m*3 3.9 C 1.6 km/h
2485 30-11-2014 04:40:00 3.9 C 5.75 g/m*3 3.9 C 0 km/h
2486 30-11-2014 04:45:00 3.9 C 5.75 g/m*3 3.9 C 0 km/h
2487 30-11-2014 04:50:00 3.9 C 5.75 g/m*3 3.9 C 1.6 km/h
2488 30-11-2014 04:55:00 3.9 C 5.75 g/m*3 3.9 C 1.6 km/h
2489 30-11-2014 05:00:00 3.9 C 5.75 g/m*3 3.9 C 0 km/h
2490 30-11-2014 05:05:00 3.9 C 5.75 g/m*3 3.9 C 0 km/h
2491 30-11-2014 05:10:00 3.9 C 5.75 g/m*3 3.9 C 1.6 km/h
2492 30-11-2014 05:15:00 3.9 C 5.75 g/m*3 3.9 C 0 km/h
2493 30-11-2014 05:20:00 3.9 C 5.75 g/m*3 3.9 C 1.6 km/h
2494 30-11-2014 05:25:00 3.9 C 5.75 g/m*3 3.9 C 3.2 km/h
2495 30-11-2014 05:30:00 3.9 C 5.75 g/m*3 3.9 C 0 km/h
2496 30-11-2014 05:35:00 3.9 C 5.75 g/m*3 3.9 C 0 km/h
2497 30-11-2014 05:40:00 3.9 C 5.75 g/m*3 3.9 C 0 km/h
2498 30-11-2014 05:45:00 3.9 C 5.75 g/m*3 3.9 C 0 km/h
2499 30-11-2014 05:50:00 3.9 C 5.75 g/m*3 3.9 C 0 km/h
2500 30-11-2014 05:55:00 3.9 C 5.75 g/m*3 3.9 C 3.2 km/h
Sensor: Nr:Datum:Temp:Abs-Feuchte:Windchill:Wind:
Aussen-T/F 2501 30-11-2014 06:00:00 3.9 C 5.75 g/m*3 3.9 C 3.2 km/h
2502 30-11-2014 06:05:00 3.9 C 5.75 g/m*3 3.9 C 3.2 km/h
2503 30-11-2014 06:10:00 3.9 C 5.75 g/m*3 3.9 C 0 km/h
2504 30-11-2014 06:15:00 3.9 C 5.75 g/m*3 3.9 C 1.6 km/h
2505 30-11-2014 06:20:00 3.9 C 5.75 g/m*3 3.9 C 4.8 km/h
2506 30-11-2014 06:25:00 3.9 C 5.75 g/m*3 3.9 C 0 km/h
2507 30-11-2014 06:30:00 3.9 C 5.75 g/m*3 3.9 C 1.6 km/h
2508 30-11-2014 06:35:00 3.8 C 5.71 g/m*3 3.8 C 1.6 km/h
2509 30-11-2014 06:40:00 3.8 C 5.71 g/m*3 3.8 C 1.6 km/h
2510 30-11-2014 06:45:00 3.8 C 5.71 g/m*3 3.8 C 3.2 km/h
2511 30-11-2014 06:50:00 3.8 C 5.71 g/m*3 3.8 C 1.6 km/h
2512 30-11-2014 06:55:00 3.8 C 5.71 g/m*3 3.8 C 0 km/h
2513 30-11-2014 07:00:00 3.8 C 5.71 g/m*3 3.8 C 0 km/h
2514 30-11-2014 07:05:00 3.8 C 5.77 g/m*3 1.7 C 8.1 km/h
2515 30-11-2014 07:10:00 3.8 C 5.71 g/m*3 1.7 C 8.1 km/h
2516 30-11-2014 07:15:00 3.8 C 5.71 g/m*3 3.8 C 3.2 km/h
2517 30-11-2014 07:20:00 3.8 C 5.71 g/m*3 3.8 C 0 km/h
2518 30-11-2014 07:25:00 3.8 C 5.77 g/m*3 3.8 C 1.6 km/h
2519 30-11-2014 07:30:00 3.8 C 5.71 g/m*3 3.8 C 0 km/h
2520 30-11-2014 07:35:00 3.8 C 5.71 g/m*3 3.8 C 1.6 km/h
2521 30-11-2014 07:40:00 3.8 C 5.71 g/m*3 3.8 C 1.6 km/h
2522 30-11-2014 07:45:00 3.8 C 5.71 g/m*3 3.8 C 3.2 km/h
2523 30-11-2014 07:50:00 3.8 C 5.77 g/m*3 3.8 C 1.6 km/h
2524 30-11-2014 07:55:00 3.8 C 5.77 g/m*3 3.8 C 1.6 km/h
2525 30-11-2014 08:00:00 3.8 C 5.77 g/m*3 3.8 C 1.6 km/h
Sensor: Nr:Datum:Temp:Abs-Feuchte:Windchill:Wind:
Aussen-T/F 2526 30-11-2014 08:05:00 3.8 C 5.71 g/m*3 3.8 C 4.8 km/h
2527 30-11-2014 08:10:00 3.8 C 5.71 g/m*3 3.8 C 4.8 km/h
2528 30-11-2014 08:15:00 3.8 C 5.77 g/m*3 3.8 C 1.6 km/h
2529 30-11-2014 08:20:00 3.8 C 5.77 g/m*3 3.8 C 1.6 km/h
2530 30-11-2014 08:25:00 3.8 C 5.77 g/m*3 3.8 C 1.6 km/h
2531 30-11-2014 08:30:00 3.8 C 5.77 g/m*3 3.8 C 1.6 km/h
2532 30-11-2014 08:35:00 3.8 C 5.77 g/m*3 3.8 C 1.6 km/h
2533 30-11-2014 08:40:00 3.8 C 5.77 g/m*3 3.8 C 1.6 km/h
2534 30-11-2014 08:45:00 3.8 C 5.77 g/m*3 3.8 C 1.6 km/h
2535 30-11-2014 08:50:00 3.8 C 5.77 g/m*3 3.8 C 3.2 km/h
2536 30-11-2014 08:55:00 3.8 C 5.77 g/m*3 3.8 C 1.6 km/h
2537 30-11-2014 09:00:00 3.8 C 5.77 g/m*3 3.8 C 3.2 km/h
2538 30-11-2014 09:05:00 3.8 C 5.77 g/m*3 3.8 C 3.2 km/h
2539 30-11-2014 09:10:00 3.8 C 5.77 g/m*3 2.21 C 6.4 km/h
2540 30-11-2014 09:15:00 3.9 C 5.81 g/m*3 3.9 C 4.8 km/h
2541 30-11-2014 09:20:00 3.9 C 5.81 g/m*3 3.9 C 3.2 km/h
2542 30-11-2014 09:25:00 3.9 C 5.81 g/m*3 3.9 C 0 km/h
2543 30-11-2014 09:30:00 3.9 C 5.81 g/m*3 3.9 C 4.8 km/h
2544 30-11-2014 09:35:00 3.9 C 5.81 g/m*3 3.9 C 3.2 km/h
2545 30-11-2014 09:40:00 3.9 C 5.81 g/m*3 3.9 C 0 km/h
2546 30-11-2014 09:45:00 3.9 C 5.75 g/m*3 3.9 C 1.6 km/h
2547 30-11-2014 09:50:00 3.9 C 5.81 g/m*3 3.9 C 3.2 km/h
2548 30-11-2014 09:55:00 3.9 C 5.81 g/m*3 3.9 C 0 km/h
2549 30-11-2014 10:00:00 3.9 C 5.81 g/m*3 3.9 C 3.2 km/h
2550 30-11-2014 10:05:00 4 C 5.85 g/m*3 4 C 1.6 km/h
Sensor: Nr:Datum:Temp:Abs-Feuchte:Windchill:Wind:
Aussen-T/F 2551 30-11-2014 10:10:00 3.9 C 5.81 g/m*3 3.9 C 3.2 km/h
2552 30-11-2014 10:15:00 4 C 5.85 g/m*3 4 C 4.8 km/h
2553 30-11-2014 10:20:00 4 C 5.79 g/m*3 4 C 3.2 km/h
2554 30-11-2014 10:25:00 4 C 5.85 g/m*3 4 C 0 km/h
2555 30-11-2014 10:30:00 4 C 5.85 g/m*3 1.93 C 8.1 km/h
2556 30-11-2014 10:35:00 4 C 5.85 g/m*3 4 C 3.2 km/h
2557 30-11-2014 10:40:00 4.1 C 5.89 g/m*3 4.1 C 0 km/h
2558 30-11-2014 10:45:00 4.1 C 5.89 g/m*3 4.1 C 0 km/h
2559 30-11-2014 10:50:00 4.1 C 5.89 g/m*3 4.1 C 3.2 km/h
2560 30-11-2014 10:55:00 4.1 C 5.82 g/m*3 4.1 C 4.8 km/h
2561 30-11-2014 11:00:00 4.1 C 5.82 g/m*3 4.1 C 4.8 km/h
2562 30-11-2014 11:05:00 4 C 5.85 g/m*3 4 C 4.8 km/h
2563 30-11-2014 11:10:00 4.1 C 5.89 g/m*3 4.1 C 1.6 km/h
2564 30-11-2014 11:15:00 4.1 C 5.89 g/m*3 4.1 C 1.6 km/h
2565 30-11-2014 11:20:00 4.1 C 5.89 g/m*3 4.1 C 4.8 km/h
2566 30-11-2014 11:25:00 4.2 C 5.93 g/m*3 4.2 C 4.8 km/h
2567 30-11-2014 11:30:00 4.2 C 5.93 g/m*3 4.2 C 1.6 km/h
2568 30-11-2014 11:35:00 4.2 C 5.93 g/m*3 4.2 C 4.8 km/h
2569 30-11-2014 11:40:00 4.2 C 5.93 g/m*3 4.2 C 1.6 km/h
2570 30-11-2014 11:45:00 4.2 C 5.93 g/m*3 4.2 C 0 km/h
2571 30-11-2014 11:50:00 4.2 C 5.93 g/m*3 4.2 C 3.2 km/h
2572 30-11-2014 11:55:00 4.2 C 5.86 g/m*3 4.2 C 0 km/h
2573 30-11-2014 12:00:00 4.3 C 5.9 g/m*3 4.3 C 3.2 km/h
2574 30-11-2014 12:05:00 4.3 C 5.9 g/m*3 4.3 C 3.2 km/h
2575 30-11-2014 12:10:00 4.3 C 5.9 g/m*3 4.3 C 4.8 km/h
Sensor: Nr:Datum:Temp:Abs-Feuchte:Windchill:Wind:
Aussen-T/F 2576 30-11-2014 12:15:00 4.3 C 5.97 g/m*3 4.3 C 4.8 km/h
2577 30-11-2014 12:20:00 4.3 C 5.9 g/m*3 4.3 C 3.2 km/h
2578 30-11-2014 12:25:00 4.3 C 5.9 g/m*3 4.3 C 1.6 km/h
2579 30-11-2014 12:30:00 4.3 C 5.9 g/m*3 4.3 C 1.6 km/h
2580 30-11-2014 12:35:00 4.3 C 5.9 g/m*3 4.3 C 1.6 km/h
2581 30-11-2014 12:40:00 4.3 C 5.97 g/m*3 4.3 C 0 km/h
2582 30-11-2014 12:45:00 4.4 C 6.01 g/m*3 4.4 C 4.8 km/h
2583 30-11-2014 12:50:00 4.4 C 5.94 g/m*3 4.4 C 4.8 km/h
2584 30-11-2014 12:55:00 4.4 C 5.94 g/m*3 4.4 C 1.6 km/h
2585 30-11-2014 13:00:00 4.3 C 5.9 g/m*3 4.3 C 0 km/h
2586 30-11-2014 13:05:00 4.3 C 5.9 g/m*3 4.3 C 3.2 km/h
2587 30-11-2014 13:10:00 4.3 C 5.9 g/m*3 4.3 C 1.6 km/h
2588 30-11-2014 13:15:00 4.3 C 5.9 g/m*3 4.3 C 3.2 km/h
2589 30-11-2014 13:20:00 4.3 C 5.9 g/m*3 4.3 C 3.2 km/h
2590 30-11-2014 13:25:00 4.3 C 5.9 g/m*3 4.3 C 1.6 km/h
2591 30-11-2014 13:30:00 4.3 C 5.9 g/m*3 4.3 C 0 km/h
2592 30-11-2014 13:35:00 4.3 C 5.9 g/m*3 4.3 C 0 km/h
2593 30-11-2014 13:40:00 4.3 C 5.9 g/m*3 4.3 C 4.8 km/h
2594 30-11-2014 13:45:00 4.4 C 6.01 g/m*3 4.4 C 1.6 km/h
2595 30-11-2014 13:50:00 4.3 C 5.9 g/m*3 4.3 C 1.6 km/h
2596 30-11-2014 13:55:00 4.3 C 5.9 g/m*3 4.3 C 3.2 km/h
2597 30-11-2014 14:00:00 4.3 C 5.9 g/m*3 4.3 C 0 km/h
2598 30-11-2014 14:05:00 4.3 C 5.9 g/m*3 4.3 C 0 km/h
2599 30-11-2014 14:10:00 4.3 C 5.9 g/m*3 4.3 C 3.2 km/h
2600 30-11-2014 14:15:00 4.3 C 5.9 g/m*3 4.3 C 3.2 km/h
Sensor: Nr:Datum:Temp:Abs-Feuchte:Windchill:Wind:
Aussen-T/F 2601 30-11-2014 14:20:00 4.3 C 5.9 g/m*3 4.3 C 3.2 km/h
2602 30-11-2014 14:25:00 4.3 C 5.9 g/m*3 4.3 C 1.6 km/h
2603 30-11-2014 14:30:00 4.2 C 5.86 g/m*3 4.2 C 4.8 km/h
2604 30-11-2014 14:35:00 4.1 C 5.82 g/m*3 4.1 C 4.8 km/h
2605 30-11-2014 14:40:00 4.1 C 5.89 g/m*3 4.1 C 1.6 km/h
2606 30-11-2014 14:45:00 4.1 C 5.89 g/m*3 4.1 C 0 km/h
2607 30-11-2014 14:50:00 4.1 C 5.89 g/m*3 4.1 C 0 km/h
2608 30-11-2014 14:55:00 4.1 C 5.89 g/m*3 4.1 C 3.2 km/h
2609 30-11-2014 15:00:00 4.1 C 5.82 g/m*3 4.1 C 3.2 km/h
2610 30-11-2014 15:05:00 4.1 C 5.89 g/m*3 4.1 C 3.2 km/h
2611 30-11-2014 15:10:00 4.1 C 5.89 g/m*3 4.1 C 3.2 km/h
2612 30-11-2014 15:15:00 4.1 C 5.89 g/m*3 4.1 C 1.6 km/h
2613 30-11-2014 15:20:00 4.1 C 5.89 g/m*3 4.1 C 0 km/h
2614 30-11-2014 15:25:00 4.1 C 5.89 g/m*3 4.1 C 0 km/h
2615 30-11-2014 15:30:00 4.1 C 5.89 g/m*3 4.1 C 3.2 km/h
2616 30-11-2014 15:35:00 4.1 C 5.89 g/m*3 4.1 C 3.2 km/h
2617 30-11-2014 15:40:00 4.1 C 5.89 g/m*3 4.1 C 3.2 km/h
2618 30-11-2014 15:45:00 4.1 C 5.82 g/m*3 2.05 C 8.1 km/h
2619 30-11-2014 15:50:00 4 C 5.85 g/m*3 4 C 4.8 km/h
2620 30-11-2014 15:55:00 3.9 C 5.81 g/m*3 3.9 C 4.8 km/h
2621 30-11-2014 16:00:00 3.9 C 5.81 g/m*3 3.9 C 4.8 km/h
2622 30-11-2014 16:05:00 3.9 C 5.81 g/m*3 3.9 C 3.2 km/h
2623 30-11-2014 16:10:00 3.8 C 5.77 g/m*3 3.8 C 1.6 km/h
2624 30-11-2014 16:15:00 3.9 C 5.81 g/m*3 3.9 C 3.2 km/h
2625 30-11-2014 16:20:00 3.9 C 5.87 g/m*3 3.9 C 1.6 km/h
Sensor: Nr:Datum:Temp:Abs-Feuchte:Windchill:Wind:
Aussen-T/F 2626 30-11-2014 16:25:00 3.9 C 5.87 g/m*3 3.9 C 1.6 km/h
2627 30-11-2014 16:30:00 3.9 C 5.81 g/m*3 3.9 C 1.6 km/h
2628 30-11-2014 16:35:00 3.8 C 5.77 g/m*3 3.8 C 3.2 km/h
2629 30-11-2014 16:40:00 3.8 C 5.77 g/m*3 3.8 C 0 km/h
2630 30-11-2014 16:45:00 3.8 C 5.77 g/m*3 3.8 C 1.6 km/h
2631 30-11-2014 16:50:00 3.8 C 5.77 g/m*3 3.8 C 0 km/h
2632 30-11-2014 16:55:00 3.8 C 5.77 g/m*3 3.8 C 1.6 km/h
2633 30-11-2014 17:00:00 3.8 C 5.77 g/m*3 3.8 C 0 km/h
2634 30-11-2014 17:05:00 3.8 C 5.77 g/m*3 3.8 C 3.2 km/h
2635 30-11-2014 17:10:00 3.8 C 5.83 g/m*3 3.8 C 0 km/h
2636 30-11-2014 17:15:00 3.8 C 5.77 g/m*3 3.8 C 0 km/h
2637 30-11-2014 17:20:00 3.8 C 5.83 g/m*3 3.8 C 0 km/h
2638 30-11-2014 17:25:00 3.8 C 5.83 g/m*3 3.8 C 0 km/h
2639 30-11-2014 17:30:00 3.8 C 5.77 g/m*3 3.8 C 1.6 km/h
2640 30-11-2014 17:35:00 3.8 C 5.83 g/m*3 3.8 C 3.2 km/h
2641 30-11-2014 17:40:00 3.8 C 5.83 g/m*3 3.8 C 0 km/h
2642 30-11-2014 17:45:00 3.8 C 5.83 g/m*3 3.8 C 0 km/h
2643 30-11-2014 17:50:00 3.8 C 5.83 g/m*3 3.8 C 1.6 km/h
2644 30-11-2014 17:55:00 3.8 C 5.83 g/m*3 3.8 C 1.6 km/h
2645 30-11-2014 18:00:00 3.8 C 5.83 g/m*3 3.8 C 0 km/h
2646 30-11-2014 18:05:00 3.8 C 5.83 g/m*3 3.8 C 0 km/h
2647 30-11-2014 18:10:00 3.8 C 5.83 g/m*3 3.8 C 0 km/h
2648 30-11-2014 18:15:00 3.8 C 5.77 g/m*3 3.8 C 0 km/h
2649 30-11-2014 18:20:00 3.8 C 5.83 g/m*3 3.8 C 4.8 km/h
2650 30-11-2014 18:25:00 3.8 C 5.83 g/m*3 3.8 C 3.2 km/h
Sensor: Nr:Datum:Temp:Abs-Feuchte:Windchill:Wind:
Aussen-T/F 2651 30-11-2014 18:30:00 3.7 C 5.73 g/m*3 1.58 C 8.1 km/h
2652 30-11-2014 18:35:00 3.7 C 5.8 g/m*3 3.7 C 1.6 km/h
2653 30-11-2014 18:40:00 3.7 C 5.8 g/m*3 3.7 C 0 km/h
2654 30-11-2014 18:45:00 3.7 C 5.8 g/m*3 3.7 C 3.2 km/h
2655 30-11-2014 18:50:00 3.7 C 5.8 g/m*3 3.7 C 3.2 km/h
2656 30-11-2014 18:55:00 3.7 C 5.8 g/m*3 3.7 C 4.8 km/h
2657 30-11-2014 19:00:00 3.7 C 5.8 g/m*3 2.09 C 6.4 km/h
2658 30-11-2014 19:05:00 3.7 C 5.8 g/m*3 3.7 C 1.6 km/h
2659 30-11-2014 19:10:00 3.7 C 5.8 g/m*3 3.7 C 1.6 km/h
2660 30-11-2014 19:15:00 3.7 C 5.8 g/m*3 3.7 C 4.8 km/h
2661 30-11-2014 19:20:00 3.7 C 5.8 g/m*3 3.7 C 1.6 km/h
2662 30-11-2014 19:25:00 3.7 C 5.8 g/m*3 3.7 C 3.2 km/h
2663 30-11-2014 19:30:00 3.7 C 5.8 g/m*3 3.7 C 1.6 km/h
2664 30-11-2014 19:35:00 3.7 C 5.8 g/m*3 3.7 C 3.2 km/h
2665 30-11-2014 19:40:00 3.7 C 5.8 g/m*3 3.7 C 1.6 km/h
2666 30-11-2014 19:45:00 3.7 C 5.8 g/m*3 3.7 C 1.6 km/h
2667 30-11-2014 19:50:00 3.7 C 5.8 g/m*3 3.7 C 3.2 km/h
2668 30-11-2014 19:55:00 3.6 C 5.76 g/m*3 1.98 C 6.4 km/h
2669 30-11-2014 20:00:00 3.6 C 5.76 g/m*3 3.6 C 4.8 km/h
2670 30-11-2014 20:05:00 3.6 C 5.76 g/m*3 3.6 C 4.8 km/h
2671 30-11-2014 20:10:00 3.6 C 5.76 g/m*3 3.6 C 1.6 km/h
2672 30-11-2014 20:15:00 3.6 C 5.76 g/m*3 3.6 C 1.6 km/h
2673 30-11-2014 20:20:00 3.7 C 5.8 g/m*3 3.7 C 0 km/h
2674 30-11-2014 20:25:00 3.7 C 5.8 g/m*3 3.7 C 1.6 km/h
2675 30-11-2014 20:30:00 3.7 C 5.8 g/m*3 3.7 C 1.6 km/h
Sensor: Nr:Datum:Temp:Abs-Feuchte:Windchill:Wind:
Aussen-T/F 2676 30-11-2014 20:35:00 3.7 C 5.8 g/m*3 3.7 C 0 km/h
2677 30-11-2014 20:40:00 3.7 C 5.8 g/m*3 3.7 C 1.6 km/h
2678 30-11-2014 20:45:00 3.7 C 5.8 g/m*3 3.7 C 0 km/h
2679 30-11-2014 20:50:00 3.7 C 5.8 g/m*3 3.7 C 4.8 km/h
2680 30-11-2014 20:55:00 3.7 C 5.8 g/m*3 3.7 C 3.2 km/h
2681 30-11-2014 21:00:00 3.7 C 5.8 g/m*3 3.7 C 0 km/h
2682 30-11-2014 21:05:00 3.7 C 5.8 g/m*3 3.7 C 1.6 km/h
2683 30-11-2014 21:10:00 3.7 C 5.8 g/m*3 3.7 C 1.6 km/h
2684 30-11-2014 21:15:00 3.7 C 5.8 g/m*3 3.7 C 1.6 km/h
2685 30-11-2014 21:20:00 3.7 C 5.8 g/m*3 3.7 C 0 km/h
2686 30-11-2014 21:25:00 3.7 C 5.86 g/m*3 3.7 C 3.2 km/h
2687 30-11-2014 21:30:00 3.7 C 5.8 g/m*3 3.7 C 4.8 km/h
2688 30-11-2014 21:35:00 3.6 C 5.76 g/m*3 3.6 C 3.2 km/h
2689 30-11-2014 21:40:00 3.6 C 5.76 g/m*3 3.6 C 1.6 km/h
2690 30-11-2014 21:45:00 3.6 C 5.82 g/m*3 3.6 C 1.6 km/h
2691 30-11-2014 21:50:00 3.6 C 5.82 g/m*3 3.6 C 1.6 km/h
2692 30-11-2014 21:55:00 3.6 C 5.76 g/m*3 3.6 C 3.2 km/h
2693 30-11-2014 22:00:00 3.6 C 5.82 g/m*3 3.6 C 1.6 km/h
2694 30-11-2014 22:05:00 3.6 C 5.82 g/m*3 3.6 C 4.8 km/h
2695 30-11-2014 22:10:00 3.6 C 5.82 g/m*3 3.6 C 3.2 km/h
2696 30-11-2014 22:15:00 3.6 C 5.82 g/m*3 3.6 C 0 km/h
2697 30-11-2014 22:20:00 3.5 C 5.72 g/m*3 3.5 C 1.6 km/h
2698 30-11-2014 22:25:00 3.5 C 5.78 g/m*3 3.5 C 3.2 km/h
2699 30-11-2014 22:30:00 3.5 C 5.78 g/m*3 3.5 C 3.2 km/h
2700 30-11-2014 22:35:00 3.5 C 5.78 g/m*3 3.5 C 4.8 km/h
Sensor: Nr:Datum:Temp:Abs-Feuchte:Windchill:Wind:
Aussen-T/F 2701 30-11-2014 22:40:00 3.5 C 5.78 g/m*3 3.5 C 0 km/h
2702 30-11-2014 22:45:00 3.5 C 5.78 g/m*3 3.5 C 1.6 km/h
2703 30-11-2014 22:50:00 3.5 C 5.78 g/m*3 3.5 C 1.6 km/h
2704 30-11-2014 22:55:00 3.5 C 5.78 g/m*3 3.5 C 1.6 km/h
2705 30-11-2014 23:00:00 3.5 C 5.78 g/m*3 3.5 C 3.2 km/h
2706 30-11-2014 23:05:00 3.5 C 5.78 g/m*3 3.5 C 3.2 km/h
2707 30-11-2014 23:10:00 3.5 C 5.78 g/m*3 3.5 C 0 km/h
2708 30-11-2014 23:15:00 3.5 C 5.78 g/m*3 3.5 C 3.2 km/h
2709 30-11-2014 23:20:00 3.5 C 5.78 g/m*3 3.5 C 3.2 km/h
2710 30-11-2014 23:25:00 3.5 C 5.78 g/m*3 3.5 C 3.2 km/h
2711 30-11-2014 23:30:00 3.4 C 5.74 g/m*3 3.4 C 3.2 km/h
2712 30-11-2014 23:35:00 3.4 C 5.74 g/m*3 3.4 C 1.6 km/h
2713 30-11-2014 23:40:00 3.4 C 5.74 g/m*3 3.4 C 1.6 km/h
2714 30-11-2014 23:45:00 3.5 C 5.78 g/m*3 3.5 C 3.2 km/h
2715 30-11-2014 23:50:00 3.5 C 5.78 g/m*3 3.5 C 3.2 km/h
2716 30-11-2014 23:55:00 3.4 C 5.74 g/m*3 3.4 C 0 km/h
2717 01-12-2014 00:00:00 3.4 C 5.74 g/m*3 3.4 C 0 km/h
2718 01-12-2014 00:05:00 3.4 C 5.74 g/m*3 3.4 C 4.8 km/h
2719 01-12-2014 00:10:00 3.4 C 5.74 g/m*3 3.4 C 1.6 km/h
2720 01-12-2014 00:15:00 3.4 C 5.74 g/m*3 1.23 C 8.1 km/h
2721 01-12-2014 00:20:00 3.4 C 5.74 g/m*3 3.4 C 3.2 km/h
2722 01-12-2014 00:25:00 3.4 C 5.74 g/m*3 0.82 C 9.7 km/h
2723 01-12-2014 00:30:00 3.4 C 5.74 g/m*3 1.75 C 6.4 km/h
2724 01-12-2014 00:35:00 3.4 C 5.74 g/m*3 3.4 C 1.6 km/h
2725 01-12-2014 00:40:00 3.3 C 5.7 g/m*3 3.3 C 1.6 km/h
Sensor: Nr:Datum:Temp:Abs-Feuchte:Windchill:Wind:
Aussen-T/F 2726 01-12-2014 00:45:00 3.3 C 5.7 g/m*3 3.3 C 3.2 km/h
2727 01-12-2014 00:50:00 3.4 C 5.74 g/m*3 3.4 C 1.6 km/h
2728 01-12-2014 00:55:00 3.3 C 5.7 g/m*3 3.3 C 3.2 km/h
2729 01-12-2014 01:00:00 3.3 C 5.7 g/m*3 3.3 C 4.8 km/h
2730 01-12-2014 01:05:00 3.3 C 5.7 g/m*3 1.63 C 6.4 km/h
2731 01-12-2014 01:10:00 3.3 C 5.7 g/m*3 3.3 C 4.8 km/h
2732 01-12-2014 01:15:00 3.3 C 5.7 g/m*3 3.3 C 3.2 km/h
2733 01-12-2014 01:20:00 3.3 C 5.7 g/m*3 3.3 C 1.6 km/h
2734 01-12-2014 01:25:00 3.3 C 5.7 g/m*3 3.3 C 4.8 km/h
2735 01-12-2014 01:30:00 3.3 C 5.7 g/m*3 3.3 C 0 km/h
2736 01-12-2014 01:35:00 3.3 C 5.76 g/m*3 3.3 C 0 km/h
2737 01-12-2014 01:40:00 3.3 C 5.76 g/m*3 3.3 C 1.6 km/h
2738 01-12-2014 01:45:00 3.3 C 5.76 g/m*3 3.3 C 3.2 km/h
2739 01-12-2014 01:50:00 3.3 C 5.76 g/m*3 3.3 C 3.2 km/h
2740 01-12-2014 01:55:00 3.3 C 5.76 g/m*3 3.3 C 4.8 km/h
2741 01-12-2014 02:00:00 3.3 C 5.76 g/m*3 3.3 C 1.6 km/h
2742 01-12-2014 02:05:00 3.3 C 5.76 g/m*3 3.3 C 1.6 km/h
2743 01-12-2014 02:10:00 3.3 C 5.76 g/m*3 3.3 C 0 km/h
2744 01-12-2014 02:15:00 3.3 C 5.76 g/m*3 3.3 C 0 km/h
2745 01-12-2014 02:20:00 3.3 C 5.76 g/m*3 3.3 C 1.6 km/h
2746 01-12-2014 02:25:00 3.3 C 5.76 g/m*3 3.3 C 0 km/h
2747 01-12-2014 02:30:00 3.3 C 5.76 g/m*3 3.3 C 0 km/h
2748 01-12-2014 02:35:00 3.3 C 5.76 g/m*3 3.3 C 0 km/h
2749 01-12-2014 02:40:00 3.3 C 5.76 g/m*3 3.3 C 0 km/h
2750 01-12-2014 02:45:00 3.3 C 5.76 g/m*3 3.3 C 0 km/h
Sensor: Nr:Datum:Temp:Abs-Feuchte:Windchill:Wind:
Aussen-T/F 2751 01-12-2014 02:50:00 3.3 C 5.76 g/m*3 3.3 C 0 km/h
2752 01-12-2014 02:55:00 3.3 C 5.76 g/m*3 3.3 C 0 km/h
2753 01-12-2014 03:00:00 3.3 C 5.76 g/m*3 3.3 C 0 km/h
2754 01-12-2014 03:05:00 3.3 C 5.76 g/m*3 3.3 C 4.8 km/h
2755 01-12-2014 03:10:00 3.3 C 5.76 g/m*3 3.3 C 1.6 km/h
2756 01-12-2014 03:15:00 3.3 C 5.76 g/m*3 3.3 C 0 km/h
2757 01-12-2014 03:20:00 3.4 C 5.8 g/m*3 3.4 C 0 km/h
2758 01-12-2014 03:25:00 3.4 C 5.8 g/m*3 3.4 C 1.6 km/h
2759 01-12-2014 03:30:00 3.4 C 5.8 g/m*3 3.4 C 1.6 km/h
2760 01-12-2014 03:35:00 3.4 C 5.8 g/m*3 3.4 C 0 km/h
2761 01-12-2014 03:40:00 3.4 C 5.8 g/m*3 3.4 C 0 km/h
2762 01-12-2014 03:45:00 3.5 C 5.84 g/m*3 3.5 C 0 km/h
2763 01-12-2014 03:50:00 3.5 C 5.84 g/m*3 3.5 C 3.2 km/h
2764 01-12-2014 03:55:00 3.5 C 5.84 g/m*3 3.5 C 4.8 km/h
2765 01-12-2014 04:00:00 3.5 C 5.84 g/m*3 3.5 C 0 km/h
2766 01-12-2014 04:05:00 3.6 C 5.88 g/m*3 3.6 C 4.8 km/h
2767 01-12-2014 04:10:00 3.6 C 5.88 g/m*3 3.6 C 3.2 km/h
2768 01-12-2014 04:15:00 3.6 C 5.88 g/m*3 3.6 C 4.8 km/h
2769 01-12-2014 04:20:00 3.6 C 5.88 g/m*3 3.6 C 4.8 km/h
2770 01-12-2014 04:25:00 3.6 C 5.88 g/m*3 3.6 C 0 km/h
2771 01-12-2014 04:30:00 3.7 C 5.92 g/m*3 3.7 C 0 km/h
2772 01-12-2014 04:35:00 3.6 C 5.88 g/m*3 3.6 C 3.2 km/h
2773 01-12-2014 04:40:00 3.7 C 5.92 g/m*3 3.7 C 1.6 km/h
2774 01-12-2014 04:45:00 3.7 C 5.92 g/m*3 3.7 C 3.2 km/h
2775 01-12-2014 04:50:00 3.7 C 5.86 g/m*3 3.7 C 1.6 km/h
Sensor: Nr:Datum:Temp:Abs-Feuchte:Windchill:Wind:
Aussen-T/F 2776 01-12-2014 04:55:00 3.7 C 5.86 g/m*3 3.7 C 1.6 km/h
2777 01-12-2014 05:00:00 3.8 C 5.9 g/m*3 3.8 C 0 km/h
2778 01-12-2014 05:05:00 3.8 C 5.9 g/m*3 3.8 C 0 km/h
2779 01-12-2014 05:10:00 3.8 C 5.9 g/m*3 3.8 C 0 km/h
2780 01-12-2014 05:15:00 3.8 C 5.9 g/m*3 3.8 C 0 km/h
2781 01-12-2014 05:20:00 3.8 C 5.9 g/m*3 3.8 C 0 km/h
2782 01-12-2014 05:25:00 3.8 C 5.9 g/m*3 3.8 C 0 km/h
2783 01-12-2014 05:30:00 3.8 C 5.9 g/m*3 3.8 C 1.6 km/h
2784 01-12-2014 05:35:00 3.8 C 5.9 g/m*3 3.8 C 1.6 km/h
2785 01-12-2014 05:40:00 3.8 C 5.9 g/m*3 3.8 C 3.2 km/h
2786 01-12-2014 05:45:00 3.9 C 5.94 g/m*3 3.9 C 1.6 km/h
2787 01-12-2014 05:50:00 3.9 C 5.94 g/m*3 3.9 C 1.6 km/h
2788 01-12-2014 05:55:00 4 C 5.98 g/m*3 4 C 3.2 km/h
2789 01-12-2014 06:00:00 4 C 5.91 g/m*3 4 C 3.2 km/h
2790 01-12-2014 06:05:00 4.1 C 5.95 g/m*3 4.1 C 3.2 km/h
2791 01-12-2014 06:10:00 4.1 C 5.95 g/m*3 4.1 C 3.2 km/h
2792 01-12-2014 06:15:00 4.1 C 5.95 g/m*3 2.55 C 6.4 km/h
2793 01-12-2014 06:20:00 4.1 C 5.95 g/m*3 2.55 C 6.4 km/h
2794 01-12-2014 06:25:00 4.1 C 5.95 g/m*3 4.1 C 4.8 km/h
2795 01-12-2014 06:30:00 4.1 C 5.95 g/m*3 4.1 C 4.8 km/h
2796 01-12-2014 06:35:00 4.2 C 5.99 g/m*3 4.2 C 3.2 km/h
2797 01-12-2014 06:40:00 4.2 C 5.99 g/m*3 4.2 C 1.6 km/h
2798 01-12-2014 06:45:00 4.2 C 5.93 g/m*3 2.17 C 8.1 km/h
2799 01-12-2014 06:50:00 4.2 C 5.93 g/m*3 2.67 C 6.4 km/h
2800 01-12-2014 06:55:00 4.2 C 5.93 g/m*3 4.2 C 4.8 km/h
Sensor: Nr:Datum:Temp:Abs-Feuchte:Windchill:Wind:
Aussen-T/F 2801 01-12-2014 07:00:00 4.2 C 5.93 g/m*3 4.2 C 4.8 km/h
2802 01-12-2014 07:05:00 4.2 C 5.93 g/m*3 1.43 C 11.3 km/h
2803 01-12-2014 07:10:00 4.2 C 5.93 g/m*3 4.2 C 4.8 km/h
2804 01-12-2014 07:15:00 4.2 C 5.93 g/m*3 4.2 C 4.8 km/h
2805 01-12-2014 07:20:00 4.2 C 5.93 g/m*3 4.2 C 4.8 km/h
2806 01-12-2014 07:25:00 4.2 C 5.93 g/m*3 2.17 C 8.1 km/h
2807 01-12-2014 07:30:00 4.2 C 5.93 g/m*3 2.17 C 8.1 km/h
2808 01-12-2014 07:35:00 4.2 C 5.93 g/m*3 2.67 C 6.4 km/h
2809 01-12-2014 07:40:00 4.2 C 5.93 g/m*3 4.2 C 3.2 km/h
2810 01-12-2014 07:45:00 4.1 C 5.89 g/m*3 2.05 C 8.1 km/h
2811 01-12-2014 07:50:00 4.1 C 5.89 g/m*3 1 C 12.9 km/h
2812 01-12-2014 07:55:00 4.1 C 5.89 g/m*3 2.05 C 8.1 km/h
2813 01-12-2014 08:00:00 4.1 C 5.89 g/m*3 4.1 C 4.8 km/h
2814 01-12-2014 08:05:00 4.1 C 5.89 g/m*3 4.1 C 0 km/h
2815 01-12-2014 08:10:00 4.1 C 5.89 g/m*3 4.1 C 1.6 km/h
2816 01-12-2014 08:15:00 4 C 5.85 g/m*3 4 C 3.2 km/h
2817 01-12-2014 08:20:00 4 C 5.85 g/m*3 2.44 C 6.4 km/h
2818 01-12-2014 08:25:00 4 C 5.85 g/m*3 4 C 4.8 km/h
2819 01-12-2014 08:30:00 4 C 5.85 g/m*3 1.18 C 11.3 km/h
2820 01-12-2014 08:35:00 3.9 C 5.81 g/m*3 2.32 C 6.4 km/h
2821 01-12-2014 08:40:00 3.9 C 5.75 g/m*3 3.9 C 4.8 km/h
2822 01-12-2014 08:45:00 3.9 C 5.75 g/m*3 2.32 C 6.4 km/h
2823 01-12-2014 08:50:00 3.9 C 5.75 g/m*3 1.06 C 11.3 km/h
2824 01-12-2014 08:55:00 3.9 C 5.75 g/m*3 1.06 C 11.3 km/h
2825 01-12-2014 09:00:00 3.8 C 5.71 g/m*3 0.63 C 12.9 km/h
Sensor: Nr:Datum:Temp:Abs-Feuchte:Windchill:Wind:
Aussen-T/F 2826 01-12-2014 09:05:00 3.8 C 5.71 g/m*3 1.29 C 9.7 km/h
2827 01-12-2014 09:10:00 3.8 C 5.71 g/m*3 1.29 C 9.7 km/h
2828 01-12-2014 09:15:00 3.8 C 5.71 g/m*3 0.63 C 12.9 km/h
2829 01-12-2014 09:20:00 3.7 C 5.67 g/m*3 0.23 C 14.5 km/h
2830 01-12-2014 09:25:00 3.7 C 5.67 g/m*3 0.23 C 14.5 km/h
2831 01-12-2014 09:30:00 3.7 C 5.67 g/m*3 0.51 C 12.9 km/h
2832 01-12-2014 09:35:00 3.7 C 5.67 g/m*3 0.51 C 12.9 km/h
2833 01-12-2014 09:40:00 3.7 C 5.67 g/m*3 0.51 C 12.9 km/h
2834 01-12-2014 09:45:00 3.7 C 5.67 g/m*3 1.18 C 9.7 km/h
2835 01-12-2014 09:50:00 3.7 C 5.67 g/m*3 1.18 C 9.7 km/h
2836 01-12-2014 09:55:00 3.7 C 5.67 g/m*3 1.18 C 9.7 km/h
2837 01-12-2014 10:00:00 3.7 C 5.61 g/m*3 1.18 C 9.7 km/h
2838 01-12-2014 10:05:00 3.8 C 5.65 g/m*3 1.29 C 9.7 km/h
2839 01-12-2014 10:10:00 3.7 C 5.61 g/m*3 1.58 C 8.1 km/h
2840 01-12-2014 10:15:00 3.7 C 5.61 g/m*3 1.18 C 9.7 km/h
2841 01-12-2014 10:20:00 3.8 C 5.65 g/m*3 2.21 C 6.4 km/h
2842 01-12-2014 10:25:00 3.8 C 5.65 g/m*3 0.94 C 11.3 km/h
2843 01-12-2014 10:30:00 3.8 C 5.65 g/m*3 0.63 C 12.9 km/h
2844 01-12-2014 10:35:00 3.8 C 5.65 g/m*3 1.7 C 8.1 km/h
2845 01-12-2014 10:40:00 3.8 C 5.65 g/m*3 1.7 C 8.1 km/h
2846 01-12-2014 10:45:00 3.8 C 5.65 g/m*3 2.21 C 6.4 km/h
2847 01-12-2014 10:50:00 3.8 C 5.65 g/m*3 0.94 C 11.3 km/h
2848 01-12-2014 10:55:00 3.9 C 5.68 g/m*3 0.75 C 12.9 km/h
2849 01-12-2014 11:00:00 3.9 C 5.68 g/m*3 1.06 C 11.3 km/h
2850 01-12-2014 11:05:00 3.9 C 5.68 g/m*3 0.75 C 12.9 km/h
Sensor: Nr:Datum:Temp:Abs-Feuchte:Windchill:Wind:
Aussen-T/F 2851 01-12-2014 11:10:00 3.9 C 5.68 g/m*3 1.41 C 9.7 km/h
2852 01-12-2014 11:15:00 3.9 C 5.62 g/m*3 1.06 C 11.3 km/h
2853 01-12-2014 11:20:00 3.9 C 5.62 g/m*3 0.75 C 12.9 km/h
2854 01-12-2014 11:25:00 3.9 C 5.62 g/m*3 1.06 C 11.3 km/h
2855 01-12-2014 11:30:00 3.8 C 5.58 g/m*3 0.94 C 11.3 km/h
2856 01-12-2014 11:35:00 3.9 C 5.62 g/m*3 0.75 C 12.9 km/h
2857 01-12-2014 11:40:00 3.8 C 5.58 g/m*3 0.94 C 11.3 km/h
2858 01-12-2014 11:45:00 3.9 C 5.62 g/m*3 1.41 C 9.7 km/h
2859 01-12-2014 11:50:00 3.8 C 5.58 g/m*3 0.94 C 11.3 km/h
2860 01-12-2014 11:55:00 3.8 C 5.58 g/m*3 0.63 C 12.9 km/h
2861 01-12-2014 12:00:00 3.8 C 5.58 g/m*3 0.35 C 14.5 km/h
2862 01-12-2014 12:05:00 3.8 C 5.58 g/m*3 1.29 C 9.7 km/h
2863 01-12-2014 12:10:00 3.8 C 5.58 g/m*3 0.94 C 11.3 km/h
2864 01-12-2014 12:15:00 3.8 C 5.58 g/m*3 0.35 C 14.5 km/h
2865 01-12-2014 12:20:00 3.8 C 5.58 g/m*3 1.29 C 9.7 km/h
2866 01-12-2014 12:25:00 3.8 C 5.58 g/m*3 1.7 C 8.1 km/h
2867 01-12-2014 12:30:00 3.8 C 5.65 g/m*3 0.94 C 11.3 km/h
2868 01-12-2014 12:35:00 3.8 C 5.58 g/m*3 1.7 C 8.1 km/h
2869 01-12-2014 12:40:00 3.8 C 5.65 g/m*3 0.94 C 11.3 km/h
2870 01-12-2014 12:45:00 3.8 C 5.58 g/m*3 2.21 C 6.4 km/h
2871 01-12-2014 12:50:00 3.8 C 5.58 g/m*3 1.7 C 8.1 km/h
2872 01-12-2014 12:55:00 3.8 C 5.58 g/m*3 1.29 C 9.7 km/h
2873 01-12-2014 13:00:00 3.8 C 5.65 g/m*3 3.8 C 3.2 km/h
2874 01-12-2014 13:05:00 3.8 C 5.65 g/m*3 3.8 C 0 km/h
2875 01-12-2014 13:10:00 3.8 C 5.65 g/m*3 3.8 C 1.6 km/h
Sensor: Nr:Datum:Temp:Abs-Feuchte:Windchill:Wind:
Aussen-T/F 2876 01-12-2014 13:15:00 3.8 C 5.65 g/m*3 3.8 C 4.8 km/h
2877 01-12-2014 13:20:00 3.8 C 5.65 g/m*3 3.8 C 3.2 km/h
2878 01-12-2014 13:25:00 3.8 C 5.65 g/m*3 3.8 C 3.2 km/h
2879 01-12-2014 13:30:00 3.8 C 5.65 g/m*3 3.8 C 3.2 km/h
2880 01-12-2014 13:35:00 3.9 C 5.68 g/m*3 3.9 C 3.2 km/h
2881 01-12-2014 13:40:00 3.9 C 5.68 g/m*3 2.32 C 6.4 km/h
2882 01-12-2014 13:45:00 3.9 C 5.68 g/m*3 3.9 C 4.8 km/h
2883 01-12-2014 13:50:00 3.8 C 5.65 g/m*3 1.29 C 9.7 km/h
2884 01-12-2014 13:55:00 3.8 C 5.65 g/m*3 3.8 C 3.2 km/h
2885 01-12-2014 14:00:00 3.8 C 5.65 g/m*3 2.21 C 6.4 km/h
2886 01-12-2014 14:05:00 3.7 C 5.61 g/m*3 3.7 C 0 km/h
2887 01-12-2014 14:10:00 3.7 C 5.61 g/m*3 3.7 C 4.8 km/h
2888 01-12-2014 14:15:00 3.7 C 5.61 g/m*3 3.7 C 4.8 km/h
2889 01-12-2014 14:20:00 3.7 C 5.67 g/m*3 3.7 C 4.8 km/h
2890 01-12-2014 14:25:00 3.7 C 5.67 g/m*3 3.7 C 3.2 km/h
2891 01-12-2014 14:30:00 3.7 C 5.67 g/m*3 2.09 C 6.4 km/h
2892 01-12-2014 14:35:00 3.7 C 5.61 g/m*3 2.09 C 6.4 km/h
2893 01-12-2014 14:40:00 3.7 C 5.61 g/m*3 0.51 C 12.9 km/h
2894 01-12-2014 14:45:00 3.6 C 5.57 g/m*3 0.7 C 11.3 km/h
2895 01-12-2014 14:50:00 3.6 C 5.57 g/m*3 1.98 C 6.4 km/h
2896 01-12-2014 14:55:00 3.6 C 5.57 g/m*3 0.39 C 12.9 km/h
2897 01-12-2014 15:00:00 3.5 C 5.53 g/m*3 1.34 C 8.1 km/h
2898 01-12-2014 15:05:00 3.4 C 5.44 g/m*3 0.82 C 9.7 km/h
2899 01-12-2014 15:10:00 3.4 C 5.5 g/m*3 1.23 C 8.1 km/h
2900 01-12-2014 15:15:00 3.4 C 5.5 g/m*3 0.82 C 9.7 km/h
Sensor: Nr:Datum:Temp:Abs-Feuchte:Windchill:Wind:
Aussen-T/F 2901 01-12-2014 15:20:00 3.4 C 5.5 g/m*3 0.82 C 9.7 km/h
2902 01-12-2014 15:25:00 3.4 C 5.5 g/m*3 1.75 C 6.4 km/h
2903 01-12-2014 15:30:00 3.4 C 5.5 g/m*3 1.23 C 8.1 km/h
2904 01-12-2014 15:35:00 3.3 C 5.46 g/m*3 0.7 C 9.7 km/h
2905 01-12-2014 15:40:00 3.3 C 5.46 g/m*3 3.3 C 4.8 km/h
2906 01-12-2014 15:45:00 3.3 C 5.46 g/m*3 1.63 C 6.4 km/h
2907 01-12-2014 15:50:00 3.3 C 5.46 g/m*3 3.3 C 3.2 km/h
2908 01-12-2014 15:55:00 3.3 C 5.46 g/m*3 3.3 C 4.8 km/h
2909 01-12-2014 16:00:00 3.3 C 5.46 g/m*3 3.3 C 4.8 km/h
2910 01-12-2014 16:05:00 3.2 C 5.42 g/m*3 0.22 C 11.3 km/h
2911 01-12-2014 16:10:00 3.2 C 5.36 g/m*3 0.58 C 9.7 km/h
2912 01-12-2014 16:15:00 3.2 C 5.36 g/m*3 0.22 C 11.3 km/h
2913 01-12-2014 16:20:00 3.2 C 5.36 g/m*3 0.99 C 8.1 km/h
2914 01-12-2014 16:25:00 3.2 C 5.36 g/m*3 1.51 C 6.4 km/h
2915 01-12-2014 16:30:00 3.2 C 5.36 g/m*3 3.2 C 3.2 km/h
2916 01-12-2014 16:35:00 3.2 C 5.36 g/m*3 3.2 C 1.6 km/h
2917 01-12-2014 16:40:00 3.2 C 5.36 g/m*3 3.2 C 0 km/h
2918 01-12-2014 16:45:00 3.2 C 5.36 g/m*3 3.2 C 3.2 km/h
2919 01-12-2014 16:50:00 3.1 C 5.33 g/m*3 3.1 C 3.2 km/h
2920 01-12-2014 16:55:00 3.2 C 5.36 g/m*3 3.2 C 0 km/h
2921 01-12-2014 17:00:00 3.2 C 5.36 g/m*3 0.58 C 9.7 km/h
2922 01-12-2014 17:05:00 3.2 C 5.36 g/m*3 0.99 C 8.1 km/h
2923 01-12-2014 17:10:00 3.1 C 5.33 g/m*3 0.1 C 11.3 km/h
2924 01-12-2014 17:15:00 3.1 C 5.33 g/m*3 3.1 C 4.8 km/h
2925 01-12-2014 17:20:00 3.1 C 5.33 g/m*3 3.1 C 1.6 km/h
Sensor: Nr:Datum:Temp:Abs-Feuchte:Windchill:Wind:
Aussen-T/F 2926 01-12-2014 17:25:00 3.1 C 5.33 g/m*3 0.87 C 8.1 km/h
2927 01-12-2014 17:30:00 3 C 5.29 g/m*3 0.76 C 8.1 km/h
2928 01-12-2014 17:35:00 2.9 C 5.26 g/m*3 -0.14 C 11.3 km/h
2929 01-12-2014 17:40:00 2.9 C 5.26 g/m*3 -0.14 C 11.3 km/h
2930 01-12-2014 17:45:00 2.8 C 5.22 g/m*3 2.8 C 3.2 km/h
2931 01-12-2014 17:50:00 2.8 C 5.22 g/m*3 2.8 C 4.8 km/h
2932 01-12-2014 17:55:00 2.8 C 5.22 g/m*3 2.8 C 4.8 km/h
2933 01-12-2014 18:00:00 2.8 C 5.22 g/m*3 2.8 C 1.6 km/h
2934 01-12-2014 18:05:00 2.8 C 5.22 g/m*3 2.8 C 0 km/h
2935 01-12-2014 18:10:00 2.8 C 5.22 g/m*3 2.8 C 4.8 km/h
2936 01-12-2014 18:15:00 2.8 C 5.28 g/m*3 2.8 C 1.6 km/h
2937 01-12-2014 18:20:00 2.7 C 5.19 g/m*3 0.94 C 6.4 km/h
2938 01-12-2014 18:25:00 2.7 C 5.19 g/m*3 2.7 C 4.8 km/h
2939 01-12-2014 18:30:00 2.7 C 5.19 g/m*3 2.7 C 1.6 km/h
2940 01-12-2014 18:35:00 2.7 C 5.19 g/m*3 2.7 C 4.8 km/h
2941 01-12-2014 18:40:00 2.7 C 5.24 g/m*3 2.7 C 1.6 km/h
2942 01-12-2014 18:45:00 2.7 C 5.19 g/m*3 2.7 C 3.2 km/h
2943 01-12-2014 18:50:00 2.7 C 5.19 g/m*3 2.7 C 4.8 km/h
2944 01-12-2014 18:55:00 2.7 C 5.19 g/m*3 2.7 C 1.6 km/h
2945 01-12-2014 19:00:00 2.7 C 5.19 g/m*3 2.7 C 3.2 km/h
2946 01-12-2014 19:05:00 2.7 C 5.19 g/m*3 2.7 C 4.8 km/h
2947 01-12-2014 19:10:00 2.7 C 5.24 g/m*3 2.7 C 1.6 km/h
2948 01-12-2014 19:15:00 2.7 C 5.24 g/m*3 2.7 C 3.2 km/h
2949 01-12-2014 19:20:00 2.7 C 5.24 g/m*3 0.94 C 6.4 km/h
2950 01-12-2014 19:25:00 2.7 C 5.24 g/m*3 2.7 C 0 km/h
Sensor: Nr:Datum:Temp:Abs-Feuchte:Windchill:Wind:
Aussen-T/F 2951 01-12-2014 19:30:00 2.6 C 5.21 g/m*3 2.6 C 3.2 km/h
2952 01-12-2014 19:35:00 2.6 C 5.21 g/m*3 2.6 C 1.6 km/h
2953 01-12-2014 19:40:00 2.6 C 5.21 g/m*3 2.6 C 1.6 km/h
2954 01-12-2014 19:45:00 2.6 C 5.21 g/m*3 2.6 C 3.2 km/h
2955 01-12-2014 19:50:00 2.7 C 5.24 g/m*3 2.7 C 0 km/h
2956 01-12-2014 19:55:00 2.6 C 5.21 g/m*3 2.6 C 1.6 km/h
2957 01-12-2014 20:00:00 2.6 C 5.21 g/m*3 2.6 C 4.8 km/h
2958 01-12-2014 20:05:00 2.6 C 5.21 g/m*3 2.6 C 1.6 km/h
2959 01-12-2014 20:10:00 2.6 C 5.21 g/m*3 2.6 C 3.2 km/h
2960 01-12-2014 20:15:00 2.6 C 5.21 g/m*3 2.6 C 1.6 km/h
2961 01-12-2014 20:20:00 2.6 C 5.21 g/m*3 2.6 C 0 km/h
2962 01-12-2014 20:25:00 2.6 C 5.21 g/m*3 2.6 C 0 km/h
2963 01-12-2014 20:30:00 2.6 C 5.21 g/m*3 2.6 C 0 km/h
2964 01-12-2014 20:35:00 2.6 C 5.21 g/m*3 2.6 C 0 km/h
2965 01-12-2014 20:40:00 2.6 C 5.21 g/m*3 2.6 C 0 km/h
2966 01-12-2014 20:45:00 2.6 C 5.21 g/m*3 2.6 C 0 km/h
2967 01-12-2014 20:50:00 2.5 C 5.17 g/m*3 2.5 C 1.6 km/h
2968 01-12-2014 20:55:00 2.6 C 5.21 g/m*3 2.6 C 1.6 km/h
2969 01-12-2014 21:00:00 2.6 C 5.21 g/m*3 2.6 C 1.6 km/h
2970 01-12-2014 21:05:00 2.5 C 5.17 g/m*3 2.5 C 0 km/h
2971 01-12-2014 21:10:00 2.5 C 5.17 g/m*3 2.5 C 1.6 km/h
2972 01-12-2014 21:15:00 2.4 C 5.14 g/m*3 2.4 C 4.8 km/h
2973 01-12-2014 21:20:00 2.4 C 5.08 g/m*3 2.4 C 3.2 km/h
2974 01-12-2014 21:25:00 2.4 C 5.14 g/m*3 2.4 C 3.2 km/h
2975 01-12-2014 21:30:00 2.4 C 5.14 g/m*3 2.4 C 4.8 km/h
Sensor: Nr:Datum:Temp:Abs-Feuchte:Windchill:Wind:
Aussen-T/F 2976 01-12-2014 21:35:00 2.4 C 5.14 g/m*3 2.4 C 1.6 km/h
2977 01-12-2014 21:40:00 2.3 C 5.1 g/m*3 2.3 C 1.6 km/h
2978 01-12-2014 21:45:00 2.3 C 5.1 g/m*3 2.3 C 1.6 km/h
2979 01-12-2014 21:50:00 2.3 C 5.05 g/m*3 2.3 C 3.2 km/h
2980 01-12-2014 21:55:00 2.3 C 5.05 g/m*3 2.3 C 0 km/h
2981 01-12-2014 22:00:00 2.3 C 5.05 g/m*3 2.3 C 1.6 km/h
2982 01-12-2014 22:05:00 2.3 C 5.1 g/m*3 2.3 C 0 km/h
2983 01-12-2014 22:10:00 2.3 C 5.05 g/m*3 2.3 C 1.6 km/h
2984 01-12-2014 22:15:00 2.3 C 5.1 g/m*3 2.3 C 3.2 km/h
2985 01-12-2014 22:20:00 2.2 C 5.01 g/m*3 2.2 C 3.2 km/h
2986 01-12-2014 22:25:00 2.2 C 5.01 g/m*3 2.2 C 0 km/h
2987 01-12-2014 22:30:00 2.2 C 5.01 g/m*3 2.2 C 0 km/h
2988 01-12-2014 22:35:00 2.2 C 5.01 g/m*3 2.2 C 0 km/h
2989 01-12-2014 22:40:00 2.1 C 4.98 g/m*3 2.1 C 1.6 km/h
2990 01-12-2014 22:45:00 2.1 C 4.98 g/m*3 2.1 C 3.2 km/h
2991 01-12-2014 22:50:00 2.1 C 4.98 g/m*3 2.1 C 3.2 km/h
2992 01-12-2014 22:55:00 2.1 C 4.98 g/m*3 0.24 C 6.4 km/h
2993 01-12-2014 23:00:00 2.1 C 4.98 g/m*3 2.1 C 1.6 km/h
2994 01-12-2014 23:05:00 2.1 C 4.98 g/m*3 2.1 C 1.6 km/h
2995 01-12-2014 23:10:00 2.1 C 4.98 g/m*3 2.1 C 1.6 km/h
2996 01-12-2014 23:15:00 2.1 C 4.98 g/m*3 2.1 C 3.2 km/h
2997 01-12-2014 23:20:00 2.1 C 4.98 g/m*3 2.1 C 3.2 km/h
2998 01-12-2014 23:25:00 2.1 C 5.04 g/m*3 -0.3 C 8.1 km/h
2999 01-12-2014 23:30:00 2 C 4.95 g/m*3 0.13 C 6.4 km/h
3000 01-12-2014 23:35:00 2 C 4.95 g/m*3 2 C 3.2 km/h
Sensor: Nr:Datum:Temp:Abs-Feuchte:Windchill:Wind:
Aussen-T/F 3001 01-12-2014 23:40:00 2 C 4.95 g/m*3 -0.42 C 8.1 km/h
3002 01-12-2014 23:45:00 1.9 C 4.91 g/m*3 -0.54 C 8.1 km/h
3003 01-12-2014 23:50:00 1.9 C 4.91 g/m*3 0.01 C 6.4 km/h
3004 01-12-2014 23:55:00 1.9 C 4.91 g/m*3 1.9 C 4.8 km/h
3005 02-12-2014 00:00:00 1.9 C 4.91 g/m*3 0.01 C 6.4 km/h
3006 02-12-2014 00:05:00 1.9 C 4.97 g/m*3 1.9 C 1.6 km/h
3007 02-12-2014 00:10:00 1.9 C 4.97 g/m*3 1.9 C 0 km/h
3008 02-12-2014 00:15:00 1.8 C 4.93 g/m*3 1.8 C 1.6 km/h
3009 02-12-2014 00:20:00 1.8 C 4.93 g/m*3 1.8 C 0 km/h
3010 02-12-2014 00:25:00 1.8 C 4.93 g/m*3 1.8 C 3.2 km/h
3011 02-12-2014 00:30:00 1.8 C 4.93 g/m*3 1.8 C 3.2 km/h
3012 02-12-2014 00:35:00 1.8 C 4.93 g/m*3 1.8 C 1.6 km/h
3013 02-12-2014 00:40:00 1.8 C 4.93 g/m*3 1.8 C 0 km/h
3014 02-12-2014 00:45:00 1.8 C 4.93 g/m*3 1.8 C 1.6 km/h
3015 02-12-2014 00:50:00 1.8 C 4.93 g/m*3 1.8 C 1.6 km/h
3016 02-12-2014 00:55:00 1.8 C 4.93 g/m*3 1.8 C 1.6 km/h
3017 02-12-2014 01:00:00 1.8 C 4.93 g/m*3 1.8 C 0 km/h
3018 02-12-2014 01:05:00 1.8 C 4.99 g/m*3 1.8 C 0 km/h
3019 02-12-2014 01:10:00 1.8 C 4.99 g/m*3 1.8 C 0 km/h
3020 02-12-2014 01:15:00 1.8 C 4.99 g/m*3 1.8 C 0 km/h
3021 02-12-2014 01:20:00 1.8 C 4.99 g/m*3 1.8 C 0 km/h
3022 02-12-2014 01:25:00 1.8 C 4.99 g/m*3 1.8 C 0 km/h
3023 02-12-2014 01:30:00 1.8 C 4.99 g/m*3 1.8 C 0 km/h
3024 02-12-2014 01:35:00 1.7 C 4.95 g/m*3 1.7 C 0 km/h
3025 02-12-2014 01:40:00 1.7 C 4.95 g/m*3 1.7 C 0 km/h
Sensor: Nr:Datum:Temp:Abs-Feuchte:Windchill:Wind:
Aussen-T/F 3026 02-12-2014 01:45:00 1.7 C 5.01 g/m*3 1.7 C 0 km/h
3027 02-12-2014 01:50:00 1.7 C 5.01 g/m*3 1.7 C 0 km/h
3028 02-12-2014 01:55:00 1.7 C 5.01 g/m*3 1.7 C 1.6 km/h
3029 02-12-2014 02:00:00 1.7 C 5.01 g/m*3 1.7 C 0 km/h
3030 02-12-2014 02:05:00 1.7 C 5.01 g/m*3 1.7 C 0 km/h
3031 02-12-2014 02:10:00 1.7 C 5.01 g/m*3 1.7 C 1.6 km/h
3032 02-12-2014 02:15:00 1.7 C 5.01 g/m*3 1.7 C 0 km/h
3033 02-12-2014 02:20:00 1.7 C 5.01 g/m*3 1.7 C 1.6 km/h
3034 02-12-2014 02:25:00 1.7 C 5.01 g/m*3 1.7 C 0 km/h
3035 02-12-2014 02:30:00 1.7 C 5.01 g/m*3 1.7 C 0 km/h
3036 02-12-2014 02:35:00 1.7 C 5.01 g/m*3 1.7 C 0 km/h
3037 02-12-2014 02:40:00 1.7 C 5.01 g/m*3 1.7 C 1.6 km/h
3038 02-12-2014 02:45:00 1.7 C 5.01 g/m*3 1.7 C 0 km/h
3039 02-12-2014 02:50:00 1.7 C 5.01 g/m*3 1.7 C 1.6 km/h
3040 02-12-2014 02:55:00 1.7 C 5.01 g/m*3 1.7 C 3.2 km/h
3041 02-12-2014 03:00:00 1.7 C 5.01 g/m*3 1.7 C 4.8 km/h
3042 02-12-2014 03:05:00 1.7 C 5.06 g/m*3 1.7 C 3.2 km/h
3043 02-12-2014 03:10:00 1.7 C 5.06 g/m*3 1.7 C 0 km/h
3044 02-12-2014 03:15:00 1.7 C 5.06 g/m*3 1.7 C 3.2 km/h
3045 02-12-2014 03:20:00 1.7 C 5.06 g/m*3 1.7 C 0 km/h
3046 02-12-2014 03:25:00 1.7 C 5.06 g/m*3 1.7 C 0 km/h
3047 02-12-2014 03:30:00 1.7 C 5.06 g/m*3 1.7 C 3.2 km/h
3048 02-12-2014 03:35:00 1.6 C 5.03 g/m*3 1.6 C 3.2 km/h
3049 02-12-2014 03:40:00 1.6 C 5.08 g/m*3 1.6 C 4.8 km/h
3050 02-12-2014 03:45:00 1.6 C 5.08 g/m*3 -0.33 C 6.4 km/h
Sensor: Nr:Datum:Temp:Abs-Feuchte:Windchill:Wind:
Aussen-T/F 3051 02-12-2014 03:50:00 1.6 C 5.08 g/m*3 1.6 C 4.8 km/h
3052 02-12-2014 03:55:00 1.6 C 5.08 g/m*3 1.6 C 4.8 km/h
3053 02-12-2014 04:00:00 1.6 C 5.08 g/m*3 1.6 C 3.2 km/h
3054 02-12-2014 04:05:00 1.6 C 5.08 g/m*3 -0.33 C 6.4 km/h
3055 02-12-2014 04:10:00 1.6 C 5.08 g/m*3 1.6 C 1.6 km/h
3056 02-12-2014 04:15:00 1.6 C 5.08 g/m*3 1.6 C 3.2 km/h
3057 02-12-2014 04:20:00 1.6 C 5.08 g/m*3 1.6 C 4.8 km/h
3058 02-12-2014 04:25:00 1.5 C 5.05 g/m*3 1.5 C 4.8 km/h
3059 02-12-2014 04:30:00 1.5 C 5.05 g/m*3 1.5 C 4.8 km/h
3060 02-12-2014 04:35:00 1.4 C 5.01 g/m*3 1.4 C 4.8 km/h
3061 02-12-2014 04:40:00 1.4 C 4.96 g/m*3 1.4 C 4.8 km/h
3062 02-12-2014 04:45:00 1.4 C 4.96 g/m*3 1.4 C 1.6 km/h
3063 02-12-2014 04:50:00 1.4 C 4.96 g/m*3 1.4 C 1.6 km/h
3064 02-12-2014 04:55:00 1.4 C 4.96 g/m*3 1.4 C 3.2 km/h
3065 02-12-2014 05:00:00 1.4 C 4.96 g/m*3 1.4 C 1.6 km/h
3066 02-12-2014 05:05:00 1.4 C 4.96 g/m*3 1.4 C 0 km/h
3067 02-12-2014 05:10:00 1.4 C 4.96 g/m*3 1.4 C 3.2 km/h
3068 02-12-2014 05:15:00 1.4 C 4.96 g/m*3 1.4 C 1.6 km/h
3069 02-12-2014 05:20:00 1.4 C 4.96 g/m*3 1.4 C 1.6 km/h
3070 02-12-2014 05:25:00 1.3 C 4.98 g/m*3 1.3 C 3.2 km/h
3071 02-12-2014 05:30:00 1.3 C 4.98 g/m*3 1.3 C 0 km/h
3072 02-12-2014 05:35:00 1.3 C 4.98 g/m*3 1.3 C 0 km/h
3073 02-12-2014 05:40:00 1.3 C 4.98 g/m*3 1.3 C 0 km/h
3074 02-12-2014 05:45:00 1.3 C 4.98 g/m*3 1.3 C 0 km/h
3075 02-12-2014 05:50:00 1.3 C 4.98 g/m*3 1.3 C 1.6 km/h
Sensor: Nr:Datum:Temp:Abs-Feuchte:Windchill:Wind:
Aussen-T/F 3076 02-12-2014 05:55:00 1.3 C 4.98 g/m*3 1.3 C 1.6 km/h
3077 02-12-2014 06:00:00 1.2 C 4.95 g/m*3 1.2 C 3.2 km/h
3078 02-12-2014 06:05:00 1.2 C 4.95 g/m*3 1.2 C 0 km/h
3079 02-12-2014 06:10:00 1.2 C 4.95 g/m*3 1.2 C 0 km/h
3080 02-12-2014 06:15:00 1.2 C 4.95 g/m*3 1.2 C 0 km/h
3081 02-12-2014 06:20:00 1.2 C 5 g/m*3 1.2 C 1.6 km/h
3082 02-12-2014 06:25:00 1.2 C 5 g/m*3 1.2 C 0 km/h
3083 02-12-2014 06:30:00 1.2 C 5 g/m*3 1.2 C 0 km/h
3084 02-12-2014 06:35:00 1.2 C 5 g/m*3 1.2 C 0 km/h
3085 02-12-2014 06:40:00 1.2 C 5 g/m*3 1.2 C 0 km/h
3086 02-12-2014 06:45:00 1.2 C 5 g/m*3 1.2 C 0 km/h
3087 02-12-2014 06:50:00 1.2 C 5 g/m*3 1.2 C 0 km/h
3088 02-12-2014 06:55:00 1.2 C 5 g/m*3 1.2 C 0 km/h
3089 02-12-2014 07:00:00 1.2 C 5 g/m*3 1.2 C 1.6 km/h
3090 02-12-2014 07:05:00 1.2 C 5 g/m*3 1.2 C 1.6 km/h
3091 02-12-2014 07:10:00 1.2 C 5 g/m*3 1.2 C 0 km/h
3092 02-12-2014 07:15:00 1.2 C 5 g/m*3 1.2 C 1.6 km/h
3093 02-12-2014 07:20:00 1.2 C 5 g/m*3 1.2 C 0 km/h
3094 02-12-2014 07:25:00 1.3 C 5.03 g/m*3 1.3 C 0 km/h
3095 02-12-2014 07:30:00 1.3 C 5.03 g/m*3 1.3 C 0 km/h
3096 02-12-2014 07:35:00 1.2 C 5 g/m*3 1.2 C 0 km/h
3097 02-12-2014 07:40:00 1.2 C 4.95 g/m*3 1.2 C 3.2 km/h
3098 02-12-2014 07:45:00 1.2 C 4.95 g/m*3 1.2 C 0 km/h
3099 02-12-2014 07:50:00 1.2 C 4.95 g/m*3 1.2 C 4.8 km/h
3100 02-12-2014 07:55:00 1.2 C 4.95 g/m*3 1.2 C 0 km/h
Sensor: Nr:Datum:Temp:Abs-Feuchte:Windchill:Wind:
Aussen-T/F 3101 02-12-2014 08:00:00 1.2 C 4.95 g/m*3 1.2 C 0 km/h
3102 02-12-2014 08:05:00 1.2 C 4.95 g/m*3 1.2 C 0 km/h
3103 02-12-2014 08:10:00 1.2 C 4.95 g/m*3 1.2 C 0 km/h
3104 02-12-2014 08:15:00 1.2 C 4.95 g/m*3 1.2 C 0 km/h
3105 02-12-2014 08:20:00 1.2 C 4.95 g/m*3 1.2 C 0 km/h
3106 02-12-2014 08:25:00 1.2 C 4.95 g/m*3 1.2 C 0 km/h
3107 02-12-2014 08:30:00 1.2 C 4.95 g/m*3 1.2 C 0 km/h
3108 02-12-2014 08:35:00 1.2 C 4.95 g/m*3 1.2 C 0 km/h
3109 02-12-2014 08:40:00 1.2 C 4.95 g/m*3 1.2 C 0 km/h
3110 02-12-2014 08:45:00 1.2 C 4.95 g/m*3 1.2 C 0 km/h
3111 02-12-2014 08:50:00 1.2 C 4.95 g/m*3 1.2 C 0 km/h
3112 02-12-2014 08:55:00 1.2 C 4.95 g/m*3 1.2 C 0 km/h
3113 02-12-2014 09:00:00 1.2 C 4.95 g/m*3 1.2 C 0 km/h
3114 02-12-2014 09:05:00 1.2 C 4.95 g/m*3 1.2 C 0 km/h
3115 02-12-2014 09:10:00 1.2 C 4.95 g/m*3 1.2 C 0 km/h
3116 02-12-2014 09:15:00 1.2 C 4.95 g/m*3 1.2 C 0 km/h
3117 02-12-2014 09:20:00 1.3 C 4.98 g/m*3 1.3 C 0 km/h
3118 02-12-2014 09:25:00 1.3 C 4.98 g/m*3 1.3 C 1.6 km/h
3119 02-12-2014 09:30:00 1.3 C 4.98 g/m*3 1.3 C 3.2 km/h
3120 02-12-2014 09:35:00 1.3 C 4.93 g/m*3 1.3 C 0 km/h
3121 02-12-2014 09:40:00 1.3 C 4.93 g/m*3 1.3 C 0 km/h
3122 02-12-2014 09:45:00 1.3 C 4.93 g/m*3 1.3 C 1.6 km/h
3123 02-12-2014 09:50:00 1.4 C 4.96 g/m*3 1.4 C 0 km/h
3124 02-12-2014 09:55:00 1.4 C 4.96 g/m*3 1.4 C 3.2 km/h
3125 02-12-2014 10:00:00 1.4 C 4.96 g/m*3 1.4 C 1.6 km/h
Sensor: Nr:Datum:Temp:Abs-Feuchte:Windchill:Wind:
Aussen-T/F 3126 02-12-2014 10:05:00 1.4 C 4.96 g/m*3 1.4 C 3.2 km/h
3127 02-12-2014 10:10:00 1.5 C 4.94 g/m*3 1.5 C 3.2 km/h
3128 02-12-2014 10:15:00 1.5 C 4.94 g/m*3 -0.45 C 6.4 km/h
3129 02-12-2014 10:20:00 1.5 C 4.94 g/m*3 1.5 C 3.2 km/h
3130 02-12-2014 10:25:00 1.6 C 4.97 g/m*3 1.6 C 1.6 km/h
3131 02-12-2014 10:30:00 1.6 C 4.97 g/m*3 1.6 C 3.2 km/h
3132 02-12-2014 10:35:00 1.6 C 4.97 g/m*3 1.6 C 1.6 km/h
3133 02-12-2014 10:40:00 1.6 C 4.97 g/m*3 1.6 C 0 km/h
3134 02-12-2014 10:45:00 1.7 C 5.01 g/m*3 1.7 C 0 km/h
3135 02-12-2014 10:50:00 1.7 C 4.95 g/m*3 1.7 C 1.6 km/h
3136 02-12-2014 10:55:00 1.7 C 4.95 g/m*3 1.7 C 0 km/h
3137 02-12-2014 11:00:00 1.7 C 4.95 g/m*3 1.7 C 4.8 km/h
3138 02-12-2014 11:05:00 1.8 C 4.93 g/m*3 1.8 C 4.8 km/h
3139 02-12-2014 11:10:00 1.8 C 4.93 g/m*3 -0.1 C 6.4 km/h
3140 02-12-2014 11:15:00 1.8 C 4.93 g/m*3 1.8 C 3.2 km/h
3141 02-12-2014 11:20:00 1.9 C 4.91 g/m*3 1.9 C 4.8 km/h
3142 02-12-2014 11:25:00 1.9 C 4.91 g/m*3 0.01 C 6.4 km/h
3143 02-12-2014 11:30:00 2 C 4.95 g/m*3 0.13 C 6.4 km/h
3144 02-12-2014 11:35:00 2.1 C 4.92 g/m*3 2.1 C 3.2 km/h
3145 02-12-2014 11:40:00 2.1 C 4.92 g/m*3 2.1 C 3.2 km/h
3146 02-12-2014 11:45:00 2.1 C 4.92 g/m*3 2.1 C 3.2 km/h
3147 02-12-2014 11:50:00 2.1 C 4.92 g/m*3 2.1 C 1.6 km/h
3148 02-12-2014 11:55:00 2 C 4.89 g/m*3 2 C 3.2 km/h
3149 02-12-2014 12:00:00 2.1 C 4.92 g/m*3 2.1 C 3.2 km/h
3150 02-12-2014 12:05:00 2 C 4.89 g/m*3 2 C 4.8 km/h
Sensor: Nr:Datum:Temp:Abs-Feuchte:Windchill:Wind:
Aussen-T/F 3151 02-12-2014 12:10:00 2 C 4.89 g/m*3 2 C 4.8 km/h
3152 02-12-2014 12:15:00 2 C 4.83 g/m*3 2 C 1.6 km/h
3153 02-12-2014 12:20:00 1.9 C 4.86 g/m*3 1.9 C 1.6 km/h
3154 02-12-2014 12:25:00 2 C 4.83 g/m*3 2 C 3.2 km/h
3155 02-12-2014 12:30:00 2 C 4.83 g/m*3 2 C 1.6 km/h
3156 02-12-2014 12:35:00 2 C 4.83 g/m*3 2 C 1.6 km/h
3157 02-12-2014 12:40:00 2 C 4.83 g/m*3 2 C 4.8 km/h
3158 02-12-2014 12:45:00 2.1 C 4.87 g/m*3 0.24 C 6.4 km/h
3159 02-12-2014 12:50:00 2.1 C 4.87 g/m*3 2.1 C 4.8 km/h
3160 02-12-2014 12:55:00 2.1 C 4.81 g/m*3 0.24 C 6.4 km/h
3161 02-12-2014 13:00:00 2.1 C 4.81 g/m*3 -0.3 C 8.1 km/h
3162 02-12-2014 13:05:00 2.1 C 4.81 g/m*3 2.1 C 3.2 km/h
3163 02-12-2014 13:10:00 2.2 C 4.9 g/m*3 0.36 C 6.4 km/h
3164 02-12-2014 13:15:00 2.2 C 4.84 g/m*3 0.36 C 6.4 km/h
3165 02-12-2014 13:20:00 2.2 C 4.9 g/m*3 0.36 C 6.4 km/h
3166 02-12-2014 13:25:00 2.2 C 4.84 g/m*3 0.36 C 6.4 km/h
3167 02-12-2014 13:30:00 2.2 C 4.84 g/m*3 2.2 C 3.2 km/h
3168 02-12-2014 13:35:00 2.1 C 4.81 g/m*3 0.24 C 6.4 km/h
3169 02-12-2014 13:40:00 2.1 C 4.81 g/m*3 -0.3 C 8.1 km/h
3170 02-12-2014 13:45:00 2.1 C 4.81 g/m*3 0.24 C 6.4 km/h
3171 02-12-2014 13:50:00 2.1 C 4.81 g/m*3 0.24 C 6.4 km/h
3172 02-12-2014 13:55:00 2.1 C 4.81 g/m*3 2.1 C 4.8 km/h
3173 02-12-2014 14:00:00 2.1 C 4.81 g/m*3 -0.3 C 8.1 km/h
3174 02-12-2014 14:05:00 2.1 C 4.81 g/m*3 0.24 C 6.4 km/h
3175 02-12-2014 14:10:00 2.1 C 4.81 g/m*3 -0.3 C 8.1 km/h
Sensor: Nr:Datum:Temp:Abs-Feuchte:Windchill:Wind:
Aussen-T/F 3176 02-12-2014 14:15:00 2.1 C 4.81 g/m*3 0.24 C 6.4 km/h
3177 02-12-2014 14:20:00 2.1 C 4.76 g/m*3 2.1 C 3.2 km/h
3178 02-12-2014 14:25:00 2.1 C 4.81 g/m*3 0.24 C 6.4 km/h
3179 02-12-2014 14:30:00 2.1 C 4.76 g/m*3 2.1 C 3.2 km/h
3180 02-12-2014 14:35:00 2.1 C 4.76 g/m*3 -0.3 C 8.1 km/h
3181 02-12-2014 14:40:00 2.1 C 4.76 g/m*3 -0.3 C 8.1 km/h
3182 02-12-2014 14:45:00 2.1 C 4.81 g/m*3 2.1 C 3.2 km/h
3183 02-12-2014 14:50:00 2.1 C 4.81 g/m*3 2.1 C 3.2 km/h
3184 02-12-2014 14:55:00 2.1 C 4.81 g/m*3 2.1 C 4.8 km/h
3185 02-12-2014 15:00:00 2.2 C 4.84 g/m*3 2.2 C 3.2 km/h
3186 02-12-2014 15:05:00 2.2 C 4.84 g/m*3 2.2 C 0 km/h
3187 02-12-2014 15:10:00 2.2 C 4.84 g/m*3 2.2 C 4.8 km/h
3188 02-12-2014 15:15:00 2.2 C 4.84 g/m*3 2.2 C 3.2 km/h
3189 02-12-2014 15:20:00 2.2 C 4.84 g/m*3 2.2 C 0 km/h
3190 02-12-2014 15:25:00 2.2 C 4.84 g/m*3 2.2 C 0 km/h
3191 02-12-2014 15:30:00 2.2 C 4.84 g/m*3 2.2 C 3.2 km/h
3192 02-12-2014 15:35:00 2.2 C 4.84 g/m*3 2.2 C 3.2 km/h
3193 02-12-2014 15:40:00 2.2 C 4.84 g/m*3 2.2 C 3.2 km/h
3194 02-12-2014 15:45:00 2.2 C 4.84 g/m*3 2.2 C 3.2 km/h
3195 02-12-2014 15:50:00 2.2 C 4.84 g/m*3 2.2 C 3.2 km/h
3196 02-12-2014 15:55:00 2.2 C 4.84 g/m*3 2.2 C 1.6 km/h
3197 02-12-2014 16:00:00 2.2 C 4.84 g/m*3 2.2 C 1.6 km/h
3198 02-12-2014 16:05:00 2.2 C 4.84 g/m*3 2.2 C 0 km/h
3199 02-12-2014 16:10:00 2.2 C 4.84 g/m*3 2.2 C 3.2 km/h
3200 02-12-2014 16:15:00 2.2 C 4.84 g/m*3 2.2 C 3.2 km/h
Sensor: Nr:Datum:Temp:Abs-Feuchte:Windchill:Wind:
Aussen-T/F 3201 02-12-2014 16:20:00 2.2 C 4.84 g/m*3 2.2 C 4.8 km/h
3202 02-12-2014 16:25:00 2.2 C 4.84 g/m*3 2.2 C 0 km/h
3203 02-12-2014 16:30:00 2.2 C 4.84 g/m*3 2.2 C 0 km/h
3204 02-12-2014 16:35:00 2.2 C 4.84 g/m*3 2.2 C 0 km/h
3205 02-12-2014 16:40:00 2.2 C 4.84 g/m*3 2.2 C 0 km/h
3206 02-12-2014 16:45:00 2.2 C 4.84 g/m*3 2.2 C 0 km/h
3207 02-12-2014 16:50:00 2.2 C 4.84 g/m*3 2.2 C 0 km/h
3208 02-12-2014 16:55:00 2.2 C 4.84 g/m*3 2.2 C 1.6 km/h
3209 02-12-2014 17:00:00 2.2 C 4.84 g/m*3 2.2 C 0 km/h
3210 02-12-2014 17:05:00 2.2 C 4.84 g/m*3 2.2 C 0 km/h
3211 02-12-2014 18:20:00 2.1 C 4.92 g/m*3 2.1 C 0 km/h
3212 02-12-2014 18:25:00 2 C 4.89 g/m*3 2 C 0 km/h
3213 02-12-2014 18:30:00 2 C 4.89 g/m*3 2 C 0 km/h
3214 02-12-2014 18:35:00 2 C 4.89 g/m*3 2 C 0 km/h
3215 02-12-2014 18:40:00 2 C 4.89 g/m*3 2 C 0 km/h
3216 02-12-2014 18:45:00 2 C 4.89 g/m*3 2 C 1.6 km/h
3217 02-12-2014 18:50:00 2 C 4.95 g/m*3 2 C 3.2 km/h
3218 02-12-2014 18:55:00 1.9 C 4.91 g/m*3 1.9 C 0 km/h
3219 02-12-2014 19:00:00 1.9 C 4.97 g/m*3 1.9 C 0 km/h
3220 02-12-2014 19:05:00 1.9 C 4.97 g/m*3 1.9 C 0 km/h
3221 02-12-2014 19:10:00 1.9 C 4.97 g/m*3 1.9 C 0 km/h
3222 02-12-2014 19:15:00 1.9 C 4.97 g/m*3 1.9 C 0 km/h
3223 02-12-2014 20:30:00 1.5 C 4.94 g/m*3 1.5 C 0 km/h
3224 02-12-2014 20:35:00 1.5 C 4.94 g/m*3 1.5 C 1.6 km/h
3225 02-12-2014 20:40:00 1.4 C 4.96 g/m*3 1.4 C 0 km/h
Sensor: Nr:Datum:Temp:Abs-Feuchte:Windchill:Wind:
Aussen-T/F 3226 02-12-2014 20:45:00 1.4 C 4.96 g/m*3 1.4 C 0 km/h
3227 02-12-2014 20:50:00 1.4 C 4.96 g/m*3 1.4 C 0 km/h
3228 02-12-2014 20:55:00 1.3 C 4.93 g/m*3 1.3 C 0 km/h
3229 02-12-2014 21:00:00 1.3 C 4.93 g/m*3 1.3 C 0 km/h
3230 02-12-2014 21:05:00 1.3 C 4.98 g/m*3 1.3 C 0 km/h
3231 02-12-2014 21:10:00 1.3 C 4.98 g/m*3 1.3 C 0 km/h
3232 02-12-2014 21:15:00 1.3 C 4.98 g/m*3 1.3 C 0 km/h
3233 02-12-2014 21:20:00 1.3 C 4.98 g/m*3 1.3 C 0 km/h
3234 02-12-2014 21:25:00 1.2 C 4.95 g/m*3 1.2 C 0 km/h
3235 02-12-2014 21:30:00 1.2 C 5 g/m*3 1.2 C 0 km/h
3236 02-12-2014 21:35:00 1.2 C 5 g/m*3 1.2 C